<?xml version="1.0" encoding="UTF-8" standalone="no" ?>
<gpx xmlns="http://www.topografix.com/GPX/1/1" xmlns:xsi="http://www.w3.org/2001/XMLSchema-instance" xsi:schemaLocation="http://www.topografix.com/GPX/1/1 http://www.topografix.com/GPX/1/1/gpx.xsd" version="1.1" creator="VisuGPX - https://www.visugpx.com">
  <metadata>
    <name>LaBala0316</name>
    <desc><![CDATA[sortie de chantier, remise à l'eau, préparation, tour de Groix
avec Johan et Gauvain]]></desc>
  </metadata>
  <trk>
    <name><![CDATA[Tracé actuel: 30 AVR 2016 15:11]]></name>
    <trkseg>
      <trkpt lat="47.72592" lon="-3.3522">
        <ele>14.08</ele>
        <time>2016-04-30T13:11:29Z</time>
      </trkpt>
      <trkpt lat="47.72577" lon="-3.35274">
        <ele>16.48</ele>
        <time>2016-04-30T13:11:47Z</time>
      </trkpt>
      <trkpt lat="47.72557" lon="-3.35316">
        <ele>16</ele>
        <time>2016-04-30T13:12:03Z</time>
      </trkpt>
      <trkpt lat="47.72558" lon="-3.35322">
        <ele>16</ele>
        <time>2016-04-30T13:12:06Z</time>
      </trkpt>
      <trkpt lat="47.72564" lon="-3.35322">
        <ele>16</ele>
        <time>2016-04-30T13:12:11Z</time>
      </trkpt>
      <trkpt lat="47.72561" lon="-3.35303">
        <ele>16</ele>
        <time>2016-04-30T13:12:22Z</time>
      </trkpt>
      <trkpt lat="47.72531" lon="-3.35315">
        <ele>6.39</ele>
        <time>2016-04-30T13:12:37Z</time>
      </trkpt>
      <trkpt lat="47.72477" lon="-3.35357">
        <ele>4.94</ele>
        <time>2016-04-30T13:13:01Z</time>
      </trkpt>
      <trkpt lat="47.72423" lon="-3.35384">
        <ele>2.54</ele>
        <time>2016-04-30T13:13:24Z</time>
      </trkpt>
      <trkpt lat="47.72382" lon="-3.354">
        <ele>1.1</ele>
        <time>2016-04-30T13:13:41Z</time>
      </trkpt>
      <trkpt lat="47.72346" lon="-3.3542">
        <ele>0.62</ele>
        <time>2016-04-30T13:13:56Z</time>
      </trkpt>
      <trkpt lat="47.72318" lon="-3.35431">
        <ele>0.62</ele>
        <time>2016-04-30T13:14:07Z</time>
      </trkpt>
      <trkpt lat="47.72285" lon="-3.35436">
        <ele>0.14</ele>
        <time>2016-04-30T13:14:19Z</time>
      </trkpt>
      <trkpt lat="47.72256" lon="-3.35446">
        <ele>0.62</ele>
        <time>2016-04-30T13:14:30Z</time>
      </trkpt>
      <trkpt lat="47.72215" lon="-3.35469">
        <ele>0.62</ele>
        <time>2016-04-30T13:14:47Z</time>
      </trkpt>
      <trkpt lat="47.7218" lon="-3.35489">
        <ele>0.62</ele>
        <time>2016-04-30T13:15:02Z</time>
      </trkpt>
      <trkpt lat="47.72148" lon="-3.35507">
        <ele>-0.34</ele>
        <time>2016-04-30T13:15:15Z</time>
      </trkpt>
      <trkpt lat="47.72123" lon="-3.35521">
        <ele>-0.34</ele>
        <time>2016-04-30T13:15:25Z</time>
      </trkpt>
      <trkpt lat="47.72091" lon="-3.35536">
        <ele>-1.3</ele>
        <time>2016-04-30T13:15:38Z</time>
      </trkpt>
      <trkpt lat="47.72042" lon="-3.35572">
        <ele>-1.3</ele>
        <time>2016-04-30T13:15:59Z</time>
      </trkpt>
      <trkpt lat="47.72008" lon="-3.35598">
        <ele>-1.3</ele>
        <time>2016-04-30T13:16:13Z</time>
      </trkpt>
      <trkpt lat="47.71978" lon="-3.35623">
        <ele>-1.3</ele>
        <time>2016-04-30T13:16:26Z</time>
      </trkpt>
      <trkpt lat="47.71935" lon="-3.35657">
        <ele>0.14</ele>
        <time>2016-04-30T13:16:45Z</time>
      </trkpt>
      <trkpt lat="47.71908" lon="-3.35685">
        <ele>-0.34</ele>
        <time>2016-04-30T13:16:58Z</time>
      </trkpt>
      <trkpt lat="47.71873" lon="-3.35713">
        <ele>-0.82</ele>
        <time>2016-04-30T13:17:14Z</time>
      </trkpt>
      <trkpt lat="47.71828" lon="-3.35737">
        <ele>-1.79</ele>
        <time>2016-04-30T13:17:33Z</time>
      </trkpt>
      <trkpt lat="47.71793" lon="-3.35755">
        <ele>-1.79</ele>
        <time>2016-04-30T13:17:48Z</time>
      </trkpt>
      <trkpt lat="47.71757" lon="-3.35766">
        <ele>-0.82</ele>
        <time>2016-04-30T13:18:04Z</time>
      </trkpt>
      <trkpt lat="47.71728" lon="-3.35776">
        <ele>-1.3</ele>
        <time>2016-04-30T13:18:17Z</time>
      </trkpt>
      <trkpt lat="47.71698" lon="-3.35793">
        <ele>-0.34</ele>
        <time>2016-04-30T13:18:31Z</time>
      </trkpt>
      <trkpt lat="47.71668" lon="-3.35826">
        <ele>-0.34</ele>
        <time>2016-04-30T13:18:49Z</time>
      </trkpt>
      <trkpt lat="47.71642" lon="-3.35846">
        <ele>0.62</ele>
        <time>2016-04-30T13:19:04Z</time>
      </trkpt>
      <trkpt lat="47.71606" lon="-3.35825">
        <ele>1.1</ele>
        <time>2016-04-30T13:19:22Z</time>
      </trkpt>
      <trkpt lat="47.71599" lon="-3.35781">
        <ele>0.62</ele>
        <time>2016-04-30T13:19:40Z</time>
      </trkpt>
      <trkpt lat="47.71612" lon="-3.35768">
        <ele>0.14</ele>
        <time>2016-04-30T13:19:52Z</time>
      </trkpt>
      <trkpt lat="47.71631" lon="-3.3578">
        <ele>-1.3</ele>
        <time>2016-04-30T13:20:10Z</time>
      </trkpt>
      <trkpt lat="47.71634" lon="-3.35784">
        <ele>-0.82</ele>
        <time>2016-04-30T13:20:14Z</time>
      </trkpt>
      <trkpt lat="47.71642" lon="-3.35799">
        <ele>-0.34</ele>
        <time>2016-04-30T13:20:30Z</time>
      </trkpt>
      <trkpt lat="47.71642" lon="-3.35801">
        <ele>-0.34</ele>
        <time>2016-04-30T13:20:32Z</time>
      </trkpt>
      <trkpt lat="47.71624" lon="-3.3582">
        <ele>0.14</ele>
        <time>2016-04-30T13:20:48Z</time>
      </trkpt>
      <trkpt lat="47.71612" lon="-3.35799">
        <ele>0.62</ele>
        <time>2016-04-30T13:21:01Z</time>
      </trkpt>
      <trkpt lat="47.71621" lon="-3.35788">
        <ele>0.62</ele>
        <time>2016-04-30T13:21:19Z</time>
      </trkpt>
      <trkpt lat="47.71622" lon="-3.3578">
        <ele>0.62</ele>
        <time>2016-04-30T13:21:31Z</time>
      </trkpt>
      <trkpt lat="47.71599" lon="-3.35761">
        <ele>1.1</ele>
        <time>2016-04-30T13:21:47Z</time>
      </trkpt>
      <trkpt lat="47.71589" lon="-3.35789">
        <ele>0.62</ele>
        <time>2016-04-30T13:21:58Z</time>
      </trkpt>
      <trkpt lat="47.71593" lon="-3.35816">
        <ele>-0.34</ele>
        <time>2016-04-30T13:22:10Z</time>
      </trkpt>
      <trkpt lat="47.71599" lon="-3.35837">
        <ele>-0.34</ele>
        <time>2016-04-30T13:22:23Z</time>
      </trkpt>
      <trkpt lat="47.71606" lon="-3.35872">
        <ele>0.14</ele>
        <time>2016-04-30T13:22:44Z</time>
      </trkpt>
      <trkpt lat="47.71606" lon="-3.35877">
        <ele>0.62</ele>
        <time>2016-04-30T13:22:46Z</time>
      </trkpt>
      <trkpt lat="47.71614" lon="-3.35909">
        <ele>2.06</ele>
        <time>2016-04-30T13:23:03Z</time>
      </trkpt>
      <trkpt lat="47.71614" lon="-3.35912">
        <ele>2.06</ele>
        <time>2016-04-30T13:23:05Z</time>
      </trkpt>
      <trkpt lat="47.71612" lon="-3.35942">
        <ele>1.1</ele>
        <time>2016-04-30T13:23:19Z</time>
      </trkpt>
      <trkpt lat="47.71615" lon="-3.35957">
        <ele>-0.34</ele>
        <time>2016-04-30T13:23:28Z</time>
      </trkpt>
      <trkpt lat="47.71613" lon="-3.35988">
        <ele>-1.79</ele>
        <time>2016-04-30T13:23:40Z</time>
      </trkpt>
      <trkpt lat="47.71617" lon="-3.36012">
        <ele>-1.79</ele>
        <time>2016-04-30T13:23:51Z</time>
      </trkpt>
      <trkpt lat="47.71621" lon="-3.36024">
        <ele>-1.79</ele>
        <time>2016-04-30T13:23:58Z</time>
      </trkpt>
      <trkpt lat="47.71625" lon="-3.36043">
        <ele>-1.3</ele>
        <time>2016-04-30T13:24:11Z</time>
      </trkpt>
      <trkpt lat="47.71622" lon="-3.36061">
        <ele>-0.34</ele>
        <time>2016-04-30T13:24:23Z</time>
      </trkpt>
      <trkpt lat="47.7162" lon="-3.36066">
        <ele>-0.34</ele>
        <time>2016-04-30T13:24:26Z</time>
      </trkpt>
      <trkpt lat="47.71605" lon="-3.36095">
        <ele>0.14</ele>
        <time>2016-04-30T13:24:43Z</time>
      </trkpt>
      <trkpt lat="47.7158" lon="-3.36127">
        <ele>-0.34</ele>
        <time>2016-04-30T13:24:55Z</time>
      </trkpt>
      <trkpt lat="47.7155" lon="-3.36164">
        <ele>0.14</ele>
        <time>2016-04-30T13:25:08Z</time>
      </trkpt>
      <trkpt lat="47.71523" lon="-3.36203">
        <ele>-1.3</ele>
        <time>2016-04-30T13:25:21Z</time>
      </trkpt>
      <trkpt lat="47.71489" lon="-3.36251">
        <ele>-2.27</ele>
        <time>2016-04-30T13:25:36Z</time>
      </trkpt>
      <trkpt lat="47.71465" lon="-3.36289">
        <ele>-1.3</ele>
        <time>2016-04-30T13:25:48Z</time>
      </trkpt>
      <trkpt lat="47.71426" lon="-3.36347">
        <ele>-0.34</ele>
        <time>2016-04-30T13:26:07Z</time>
      </trkpt>
      <trkpt lat="47.71386" lon="-3.36407">
        <ele>0.62</ele>
        <time>2016-04-30T13:26:26Z</time>
      </trkpt>
      <trkpt lat="47.71339" lon="-3.36455">
        <ele>0.14</ele>
        <time>2016-04-30T13:26:44Z</time>
      </trkpt>
      <trkpt lat="47.71294" lon="-3.36493">
        <ele>0.14</ele>
        <time>2016-04-30T13:27:01Z</time>
      </trkpt>
      <trkpt lat="47.71245" lon="-3.36536">
        <ele>-0.82</ele>
        <time>2016-04-30T13:27:19Z</time>
      </trkpt>
      <trkpt lat="47.71204" lon="-3.36571">
        <ele>-3.23</ele>
        <time>2016-04-30T13:27:35Z</time>
      </trkpt>
      <trkpt lat="47.71167" lon="-3.36609">
        <ele>-3.23</ele>
        <time>2016-04-30T13:27:50Z</time>
      </trkpt>
      <trkpt lat="47.71138" lon="-3.36636">
        <ele>-3.71</ele>
        <time>2016-04-30T13:28:01Z</time>
      </trkpt>
      <trkpt lat="47.71098" lon="-3.36669">
        <ele>-3.71</ele>
        <time>2016-04-30T13:28:14Z</time>
      </trkpt>
      <trkpt lat="47.71052" lon="-3.367">
        <ele>-2.75</ele>
        <time>2016-04-30T13:28:31Z</time>
      </trkpt>
      <trkpt lat="47.71015" lon="-3.36721">
        <ele>-1.3</ele>
        <time>2016-04-30T13:28:45Z</time>
      </trkpt>
      <trkpt lat="47.71009" lon="-3.36725">
        <ele>-1.79</ele>
        <time>2016-04-30T13:28:48Z</time>
      </trkpt>
      <trkpt lat="47.70977" lon="-3.36738">
        <ele>-1.79</ele>
        <time>2016-04-30T13:29:00Z</time>
      </trkpt>
      <trkpt lat="47.70941" lon="-3.36758">
        <ele>-0.82</ele>
        <time>2016-04-30T13:29:14Z</time>
      </trkpt>
      <trkpt lat="47.70906" lon="-3.36779">
        <ele>0.14</ele>
        <time>2016-04-30T13:29:28Z</time>
      </trkpt>
      <trkpt lat="47.70866" lon="-3.36805">
        <ele>0.62</ele>
        <time>2016-04-30T13:29:45Z</time>
      </trkpt>
      <trkpt lat="47.70833" lon="-3.36834">
        <ele>-1.3</ele>
        <time>2016-04-30T13:29:58Z</time>
      </trkpt>
      <trkpt lat="47.70795" lon="-3.36862">
        <ele>-2.75</ele>
        <time>2016-04-30T13:30:12Z</time>
      </trkpt>
      <trkpt lat="47.70762" lon="-3.36883">
        <ele>-3.23</ele>
        <time>2016-04-30T13:30:25Z</time>
      </trkpt>
      <trkpt lat="47.70731" lon="-3.369">
        <ele>-2.75</ele>
        <time>2016-04-30T13:30:37Z</time>
      </trkpt>
      <trkpt lat="47.70693" lon="-3.3692">
        <ele>-2.75</ele>
        <time>2016-04-30T13:30:51Z</time>
      </trkpt>
      <trkpt lat="47.70661" lon="-3.3694">
        <ele>-3.71</ele>
        <time>2016-04-30T13:31:03Z</time>
      </trkpt>
      <trkpt lat="47.70616" lon="-3.36968">
        <ele>-4.19</ele>
        <time>2016-04-30T13:31:20Z</time>
      </trkpt>
      <trkpt lat="47.70583" lon="-3.36984">
        <ele>-2.75</ele>
        <time>2016-04-30T13:31:31Z</time>
      </trkpt>
      <trkpt lat="47.70537" lon="-3.37013">
        <ele>-1.79</ele>
        <time>2016-04-30T13:31:46Z</time>
      </trkpt>
      <trkpt lat="47.70504" lon="-3.37031">
        <ele>-0.82</ele>
        <time>2016-04-30T13:31:57Z</time>
      </trkpt>
      <trkpt lat="47.70464" lon="-3.37057">
        <ele>-0.34</ele>
        <time>2016-04-30T13:32:10Z</time>
      </trkpt>
      <trkpt lat="47.70422" lon="-3.37084">
        <ele>-0.34</ele>
        <time>2016-04-30T13:32:24Z</time>
      </trkpt>
      <trkpt lat="47.70377" lon="-3.37118">
        <ele>-0.82</ele>
        <time>2016-04-30T13:32:38Z</time>
      </trkpt>
      <trkpt lat="47.70339" lon="-3.3715">
        <ele>-1.79</ele>
        <time>2016-04-30T13:32:51Z</time>
      </trkpt>
      <trkpt lat="47.70297" lon="-3.37185">
        <ele>-1.79</ele>
        <time>2016-04-30T13:33:05Z</time>
      </trkpt>
      <trkpt lat="47.70251" lon="-3.37219">
        <ele>-1.79</ele>
        <time>2016-04-30T13:33:20Z</time>
      </trkpt>
      <trkpt lat="47.70211" lon="-3.37245">
        <ele>0.14</ele>
        <time>2016-04-30T13:33:33Z</time>
      </trkpt>
      <trkpt lat="47.70171" lon="-3.37271">
        <ele>0.14</ele>
        <time>2016-04-30T13:33:46Z</time>
      </trkpt>
      <trkpt lat="47.70121" lon="-3.37303">
        <ele>-1.3</ele>
        <time>2016-04-30T13:34:02Z</time>
      </trkpt>
      <trkpt lat="47.70076" lon="-3.37335">
        <ele>-1.3</ele>
        <time>2016-04-30T13:34:17Z</time>
      </trkpt>
      <trkpt lat="47.70027" lon="-3.37372">
        <ele>-1.3</ele>
        <time>2016-04-30T13:34:34Z</time>
      </trkpt>
      <trkpt lat="47.69983" lon="-3.37404">
        <ele>-1.3</ele>
        <time>2016-04-30T13:34:49Z</time>
      </trkpt>
      <trkpt lat="47.69932" lon="-3.37438">
        <ele>-1.3</ele>
        <time>2016-04-30T13:35:06Z</time>
      </trkpt>
      <trkpt lat="47.69883" lon="-3.37476">
        <ele>-0.82</ele>
        <time>2016-04-30T13:35:24Z</time>
      </trkpt>
      <trkpt lat="47.69844" lon="-3.37517">
        <ele>-0.34</ele>
        <time>2016-04-30T13:35:39Z</time>
      </trkpt>
      <trkpt lat="47.69812" lon="-3.37561">
        <ele>-0.34</ele>
        <time>2016-04-30T13:35:52Z</time>
      </trkpt>
      <trkpt lat="47.69773" lon="-3.37604">
        <ele>0.14</ele>
        <time>2016-04-30T13:36:06Z</time>
      </trkpt>
      <trkpt lat="47.69732" lon="-3.37663">
        <ele>-1.3</ele>
        <time>2016-04-30T13:36:22Z</time>
      </trkpt>
      <trkpt lat="47.69697" lon="-3.37719">
        <ele>-1.79</ele>
        <time>2016-04-30T13:36:37Z</time>
      </trkpt>
      <trkpt lat="47.69672" lon="-3.3777">
        <ele>-2.27</ele>
        <time>2016-04-30T13:36:50Z</time>
      </trkpt>
      <trkpt lat="47.69645" lon="-3.37834">
        <ele>-2.27</ele>
        <time>2016-04-30T13:37:06Z</time>
      </trkpt>
      <trkpt lat="47.69617" lon="-3.37909">
        <ele>-2.27</ele>
        <time>2016-04-30T13:37:23Z</time>
      </trkpt>
      <trkpt lat="47.69593" lon="-3.37971">
        <ele>-3.23</ele>
        <time>2016-04-30T13:37:38Z</time>
      </trkpt>
      <trkpt lat="47.69566" lon="-3.38014">
        <ele>-2.75</ele>
        <time>2016-04-30T13:37:50Z</time>
      </trkpt>
      <trkpt lat="47.69531" lon="-3.38069">
        <ele>-3.71</ele>
        <time>2016-04-30T13:38:05Z</time>
      </trkpt>
      <trkpt lat="47.69505" lon="-3.3812">
        <ele>-3.71</ele>
        <time>2016-04-30T13:38:18Z</time>
      </trkpt>
      <trkpt lat="47.69475" lon="-3.38178">
        <ele>-1.79</ele>
        <time>2016-04-30T13:38:33Z</time>
      </trkpt>
      <trkpt lat="47.69443" lon="-3.38249">
        <ele>-1.3</ele>
        <time>2016-04-30T13:38:51Z</time>
      </trkpt>
      <trkpt lat="47.69416" lon="-3.38317">
        <ele>-1.79</ele>
        <time>2016-04-30T13:39:08Z</time>
      </trkpt>
      <trkpt lat="47.69395" lon="-3.38376">
        <ele>-2.27</ele>
        <time>2016-04-30T13:39:22Z</time>
      </trkpt>
      <trkpt lat="47.69366" lon="-3.38444">
        <ele>-2.27</ele>
        <time>2016-04-30T13:39:39Z</time>
      </trkpt>
      <trkpt lat="47.69339" lon="-3.38514">
        <ele>-3.71</ele>
        <time>2016-04-30T13:39:56Z</time>
      </trkpt>
      <trkpt lat="47.69318" lon="-3.38566">
        <ele>-1.79</ele>
        <time>2016-04-30T13:40:09Z</time>
      </trkpt>
      <trkpt lat="47.69279" lon="-3.3863">
        <ele>-1.3</ele>
        <time>2016-04-30T13:40:28Z</time>
      </trkpt>
      <trkpt lat="47.69247" lon="-3.38676">
        <ele>-0.34</ele>
        <time>2016-04-30T13:40:45Z</time>
      </trkpt>
      <trkpt lat="47.69218" lon="-3.38721">
        <ele>-0.34</ele>
        <time>2016-04-30T13:41:00Z</time>
      </trkpt>
      <trkpt lat="47.69195" lon="-3.38772">
        <ele>0.14</ele>
        <time>2016-04-30T13:41:14Z</time>
      </trkpt>
      <trkpt lat="47.69167" lon="-3.38823">
        <ele>0.62</ele>
        <time>2016-04-30T13:41:28Z</time>
      </trkpt>
      <trkpt lat="47.69135" lon="-3.38892">
        <ele>1.58</ele>
        <time>2016-04-30T13:41:47Z</time>
      </trkpt>
      <trkpt lat="47.69105" lon="-3.38968">
        <ele>2.54</ele>
        <time>2016-04-30T13:42:07Z</time>
      </trkpt>
      <trkpt lat="47.6907" lon="-3.39034">
        <ele>3.5</ele>
        <time>2016-04-30T13:42:27Z</time>
      </trkpt>
      <trkpt lat="47.69036" lon="-3.39095">
        <ele>4.94</ele>
        <time>2016-04-30T13:42:46Z</time>
      </trkpt>
      <trkpt lat="47.69005" lon="-3.39154">
        <ele>3.98</ele>
        <time>2016-04-30T13:43:05Z</time>
      </trkpt>
      <trkpt lat="47.68979" lon="-3.39208">
        <ele>2.06</ele>
        <time>2016-04-30T13:43:22Z</time>
      </trkpt>
      <trkpt lat="47.68957" lon="-3.39254">
        <ele>1.1</ele>
        <time>2016-04-30T13:43:37Z</time>
      </trkpt>
      <trkpt lat="47.68937" lon="-3.39299">
        <ele>1.1</ele>
        <time>2016-04-30T13:43:51Z</time>
      </trkpt>
      <trkpt lat="47.68907" lon="-3.39368">
        <ele>1.1</ele>
        <time>2016-04-30T13:44:09Z</time>
      </trkpt>
      <trkpt lat="47.68891" lon="-3.39413">
        <ele>1.58</ele>
        <time>2016-04-30T13:44:20Z</time>
      </trkpt>
      <trkpt lat="47.68864" lon="-3.39466">
        <ele>2.54</ele>
        <time>2016-04-30T13:44:34Z</time>
      </trkpt>
      <trkpt lat="47.68838" lon="-3.39523">
        <ele>4.46</ele>
        <time>2016-04-30T13:44:48Z</time>
      </trkpt>
      <trkpt lat="47.68814" lon="-3.39575">
        <ele>4.94</ele>
        <time>2016-04-30T13:45:01Z</time>
      </trkpt>
      <trkpt lat="47.68787" lon="-3.39635">
        <ele>4.46</ele>
        <time>2016-04-30T13:45:16Z</time>
      </trkpt>
      <trkpt lat="47.68764" lon="-3.39692">
        <ele>3.02</ele>
        <time>2016-04-30T13:45:30Z</time>
      </trkpt>
      <trkpt lat="47.68739" lon="-3.39757">
        <ele>3.02</ele>
        <time>2016-04-30T13:45:46Z</time>
      </trkpt>
      <trkpt lat="47.68719" lon="-3.39814">
        <ele>3.02</ele>
        <time>2016-04-30T13:46:00Z</time>
      </trkpt>
      <trkpt lat="47.68698" lon="-3.39881">
        <ele>1.58</ele>
        <time>2016-04-30T13:46:16Z</time>
      </trkpt>
      <trkpt lat="47.68677" lon="-3.39935">
        <ele>2.06</ele>
        <time>2016-04-30T13:46:30Z</time>
      </trkpt>
      <trkpt lat="47.68659" lon="-3.39985">
        <ele>1.58</ele>
        <time>2016-04-30T13:46:44Z</time>
      </trkpt>
      <trkpt lat="47.68637" lon="-3.40063">
        <ele>0.62</ele>
        <time>2016-04-30T13:47:04Z</time>
      </trkpt>
      <trkpt lat="47.68623" lon="-3.40112">
        <ele>0.14</ele>
        <time>2016-04-30T13:47:19Z</time>
      </trkpt>
      <trkpt lat="47.68612" lon="-3.40157">
        <ele>1.1</ele>
        <time>2016-04-30T13:47:31Z</time>
      </trkpt>
      <trkpt lat="47.68595" lon="-3.40211">
        <ele>0.14</ele>
        <time>2016-04-30T13:47:45Z</time>
      </trkpt>
      <trkpt lat="47.68576" lon="-3.40273">
        <ele>-0.82</ele>
        <time>2016-04-30T13:48:01Z</time>
      </trkpt>
      <trkpt lat="47.68558" lon="-3.40322">
        <ele>-0.82</ele>
        <time>2016-04-30T13:48:15Z</time>
      </trkpt>
      <trkpt lat="47.68535" lon="-3.40377">
        <ele>-0.34</ele>
        <time>2016-04-30T13:48:30Z</time>
      </trkpt>
      <trkpt lat="47.68515" lon="-3.40431">
        <ele>-0.34</ele>
        <time>2016-04-30T13:48:43Z</time>
      </trkpt>
      <trkpt lat="47.685" lon="-3.40478">
        <ele>-0.34</ele>
        <time>2016-04-30T13:48:54Z</time>
      </trkpt>
      <trkpt lat="47.68481" lon="-3.40537">
        <ele>-2.27</ele>
        <time>2016-04-30T13:49:08Z</time>
      </trkpt>
      <trkpt lat="47.68463" lon="-3.40599">
        <ele>-1.79</ele>
        <time>2016-04-30T13:49:23Z</time>
      </trkpt>
      <trkpt lat="47.68447" lon="-3.40652">
        <ele>-1.3</ele>
        <time>2016-04-30T13:49:36Z</time>
      </trkpt>
      <trkpt lat="47.68426" lon="-3.40711">
        <ele>-2.75</ele>
        <time>2016-04-30T13:49:51Z</time>
      </trkpt>
      <trkpt lat="47.68411" lon="-3.40759">
        <ele>-2.27</ele>
        <time>2016-04-30T13:50:03Z</time>
      </trkpt>
      <trkpt lat="47.68391" lon="-3.40815">
        <ele>-1.79</ele>
        <time>2016-04-30T13:50:16Z</time>
      </trkpt>
      <trkpt lat="47.68374" lon="-3.40857">
        <ele>-2.27</ele>
        <time>2016-04-30T13:50:26Z</time>
      </trkpt>
      <trkpt lat="47.68358" lon="-3.40913">
        <ele>-2.27</ele>
        <time>2016-04-30T13:50:39Z</time>
      </trkpt>
      <trkpt lat="47.68339" lon="-3.40967">
        <ele>-2.27</ele>
        <time>2016-04-30T13:50:52Z</time>
      </trkpt>
      <trkpt lat="47.6832" lon="-3.4102">
        <ele>-2.27</ele>
        <time>2016-04-30T13:51:04Z</time>
      </trkpt>
      <trkpt lat="47.68291" lon="-3.41083">
        <ele>-1.79</ele>
        <time>2016-04-30T13:51:19Z</time>
      </trkpt>
      <trkpt lat="47.6827" lon="-3.41135">
        <ele>-2.27</ele>
        <time>2016-04-30T13:51:31Z</time>
      </trkpt>
      <trkpt lat="47.68249" lon="-3.41185">
        <ele>-2.75</ele>
        <time>2016-04-30T13:51:43Z</time>
      </trkpt>
      <trkpt lat="47.68222" lon="-3.41252">
        <ele>-2.27</ele>
        <time>2016-04-30T13:51:59Z</time>
      </trkpt>
      <trkpt lat="47.68206" lon="-3.41311">
        <ele>-1.79</ele>
        <time>2016-04-30T13:52:12Z</time>
      </trkpt>
      <trkpt lat="47.68191" lon="-3.41357">
        <ele>-2.27</ele>
        <time>2016-04-30T13:52:23Z</time>
      </trkpt>
      <trkpt lat="47.68161" lon="-3.41398">
        <ele>-2.75</ele>
        <time>2016-04-30T13:52:37Z</time>
      </trkpt>
      <trkpt lat="47.68135" lon="-3.41441">
        <ele>-2.75</ele>
        <time>2016-04-30T13:52:51Z</time>
      </trkpt>
      <trkpt lat="47.68115" lon="-3.41474">
        <ele>-2.27</ele>
        <time>2016-04-30T13:53:02Z</time>
      </trkpt>
      <trkpt lat="47.68092" lon="-3.41526">
        <ele>-2.27</ele>
        <time>2016-04-30T13:53:17Z</time>
      </trkpt>
      <trkpt lat="47.68073" lon="-3.41588">
        <ele>-1.79</ele>
        <time>2016-04-30T13:53:32Z</time>
      </trkpt>
      <trkpt lat="47.68051" lon="-3.41644">
        <ele>-2.27</ele>
        <time>2016-04-30T13:53:46Z</time>
      </trkpt>
      <trkpt lat="47.68026" lon="-3.41681">
        <ele>-2.27</ele>
        <time>2016-04-30T13:53:57Z</time>
      </trkpt>
      <trkpt lat="47.68005" lon="-3.41712">
        <ele>-1.79</ele>
        <time>2016-04-30T13:54:07Z</time>
      </trkpt>
      <trkpt lat="47.67973" lon="-3.41746">
        <ele>-1.79</ele>
        <time>2016-04-30T13:54:19Z</time>
      </trkpt>
      <trkpt lat="47.67938" lon="-3.4179">
        <ele>-1.79</ele>
        <time>2016-04-30T13:54:34Z</time>
      </trkpt>
      <trkpt lat="47.67913" lon="-3.41821">
        <ele>-1.79</ele>
        <time>2016-04-30T13:54:45Z</time>
      </trkpt>
      <trkpt lat="47.67888" lon="-3.41875">
        <ele>-2.75</ele>
        <time>2016-04-30T13:55:00Z</time>
      </trkpt>
      <trkpt lat="47.67863" lon="-3.41924">
        <ele>-3.23</ele>
        <time>2016-04-30T13:55:14Z</time>
      </trkpt>
      <trkpt lat="47.67839" lon="-3.41969">
        <ele>-2.75</ele>
        <time>2016-04-30T13:55:27Z</time>
      </trkpt>
      <trkpt lat="47.6781" lon="-3.42022">
        <ele>-3.23</ele>
        <time>2016-04-30T13:55:42Z</time>
      </trkpt>
      <trkpt lat="47.67785" lon="-3.42067">
        <ele>-2.27</ele>
        <time>2016-04-30T13:55:55Z</time>
      </trkpt>
      <trkpt lat="47.67759" lon="-3.42117">
        <ele>-0.82</ele>
        <time>2016-04-30T13:56:11Z</time>
      </trkpt>
      <trkpt lat="47.67739" lon="-3.42155">
        <ele>-1.3</ele>
        <time>2016-04-30T13:56:23Z</time>
      </trkpt>
      <trkpt lat="47.67728" lon="-3.42204">
        <ele>-0.34</ele>
        <time>2016-04-30T13:56:35Z</time>
      </trkpt>
      <trkpt lat="47.67714" lon="-3.42259">
        <ele>-0.82</ele>
        <time>2016-04-30T13:56:48Z</time>
      </trkpt>
      <trkpt lat="47.67707" lon="-3.42324">
        <ele>-0.82</ele>
        <time>2016-04-30T13:57:03Z</time>
      </trkpt>
      <trkpt lat="47.67701" lon="-3.4238">
        <ele>-1.79</ele>
        <time>2016-04-30T13:57:16Z</time>
      </trkpt>
      <trkpt lat="47.67694" lon="-3.42442">
        <ele>-1.79</ele>
        <time>2016-04-30T13:57:30Z</time>
      </trkpt>
      <trkpt lat="47.67686" lon="-3.42496">
        <ele>-1.79</ele>
        <time>2016-04-30T13:57:42Z</time>
      </trkpt>
      <trkpt lat="47.67678" lon="-3.42551">
        <ele>-1.3</ele>
        <time>2016-04-30T13:57:54Z</time>
      </trkpt>
      <trkpt lat="47.67667" lon="-3.42612">
        <ele>-0.82</ele>
        <time>2016-04-30T13:58:08Z</time>
      </trkpt>
      <trkpt lat="47.67659" lon="-3.42664">
        <ele>0.62</ele>
        <time>2016-04-30T13:58:20Z</time>
      </trkpt>
      <trkpt lat="47.67646" lon="-3.42727">
        <ele>-1.3</ele>
        <time>2016-04-30T13:58:35Z</time>
      </trkpt>
      <trkpt lat="47.67632" lon="-3.42801">
        <ele>-2.75</ele>
        <time>2016-04-30T13:58:54Z</time>
      </trkpt>
      <trkpt lat="47.67622" lon="-3.4287">
        <ele>-3.23</ele>
        <time>2016-04-30T13:59:11Z</time>
      </trkpt>
      <trkpt lat="47.67607" lon="-3.42952">
        <ele>-2.75</ele>
        <time>2016-04-30T13:59:31Z</time>
      </trkpt>
      <trkpt lat="47.67592" lon="-3.43006">
        <ele>-1.79</ele>
        <time>2016-04-30T13:59:46Z</time>
      </trkpt>
      <trkpt lat="47.67581" lon="-3.4306">
        <ele>-1.79</ele>
        <time>2016-04-30T14:00:00Z</time>
      </trkpt>
      <trkpt lat="47.67572" lon="-3.43106">
        <ele>-1.79</ele>
        <time>2016-04-30T14:00:14Z</time>
      </trkpt>
      <trkpt lat="47.67564" lon="-3.43144">
        <ele>-1.79</ele>
        <time>2016-04-30T14:00:27Z</time>
      </trkpt>
      <trkpt lat="47.67556" lon="-3.43189">
        <ele>-1.3</ele>
        <time>2016-04-30T14:00:42Z</time>
      </trkpt>
      <trkpt lat="47.67548" lon="-3.43228">
        <ele>-0.82</ele>
        <time>2016-04-30T14:00:57Z</time>
      </trkpt>
      <trkpt lat="47.6754" lon="-3.43279">
        <ele>-1.3</ele>
        <time>2016-04-30T14:01:10Z</time>
      </trkpt>
      <trkpt lat="47.67537" lon="-3.4333">
        <ele>-2.27</ele>
        <time>2016-04-30T14:01:23Z</time>
      </trkpt>
      <trkpt lat="47.67531" lon="-3.43376">
        <ele>-2.75</ele>
        <time>2016-04-30T14:01:35Z</time>
      </trkpt>
      <trkpt lat="47.67516" lon="-3.43429">
        <ele>-1.79</ele>
        <time>2016-04-30T14:01:50Z</time>
      </trkpt>
      <trkpt lat="47.67507" lon="-3.43469">
        <ele>-1.79</ele>
        <time>2016-04-30T14:02:02Z</time>
      </trkpt>
      <trkpt lat="47.67496" lon="-3.43504">
        <ele>-1.3</ele>
        <time>2016-04-30T14:02:13Z</time>
      </trkpt>
      <trkpt lat="47.67495" lon="-3.43507">
        <ele>-1.3</ele>
        <time>2016-04-30T14:02:14Z</time>
      </trkpt>
      <trkpt lat="47.67495" lon="-3.43519">
        <ele>-1.79</ele>
        <time>2016-04-30T14:02:19Z</time>
      </trkpt>
      <trkpt lat="47.6749" lon="-3.43531">
        <ele>-1.79</ele>
        <time>2016-04-30T14:02:24Z</time>
      </trkpt>
      <trkpt lat="47.6749" lon="-3.43541">
        <ele>-2.27</ele>
        <time>2016-04-30T14:02:33Z</time>
      </trkpt>
      <trkpt lat="47.67481" lon="-3.4357">
        <ele>-2.75</ele>
        <time>2016-04-30T14:02:43Z</time>
      </trkpt>
      <trkpt lat="47.67466" lon="-3.43628">
        <ele>-2.27</ele>
        <time>2016-04-30T14:02:57Z</time>
      </trkpt>
      <trkpt lat="47.67455" lon="-3.43679">
        <ele>-2.75</ele>
        <time>2016-04-30T14:03:10Z</time>
      </trkpt>
      <trkpt lat="47.6745" lon="-3.43728">
        <ele>-2.27</ele>
        <time>2016-04-30T14:03:22Z</time>
      </trkpt>
      <trkpt lat="47.67441" lon="-3.43786">
        <ele>-2.75</ele>
        <time>2016-04-30T14:03:36Z</time>
      </trkpt>
      <trkpt lat="47.67428" lon="-3.43836">
        <ele>-2.75</ele>
        <time>2016-04-30T14:03:48Z</time>
      </trkpt>
      <trkpt lat="47.67418" lon="-3.43889">
        <ele>-2.75</ele>
        <time>2016-04-30T14:04:01Z</time>
      </trkpt>
      <trkpt lat="47.67412" lon="-3.43946">
        <ele>-2.27</ele>
        <time>2016-04-30T14:04:15Z</time>
      </trkpt>
      <trkpt lat="47.6741" lon="-3.43999">
        <ele>-3.23</ele>
        <time>2016-04-30T14:04:28Z</time>
      </trkpt>
      <trkpt lat="47.67401" lon="-3.4405">
        <ele>-3.71</ele>
        <time>2016-04-30T14:04:42Z</time>
      </trkpt>
      <trkpt lat="47.67391" lon="-3.44093">
        <ele>-2.27</ele>
        <time>2016-04-30T14:04:55Z</time>
      </trkpt>
      <trkpt lat="47.67381" lon="-3.44132">
        <ele>-1.79</ele>
        <time>2016-04-30T14:05:07Z</time>
      </trkpt>
      <trkpt lat="47.67372" lon="-3.44175">
        <ele>-0.82</ele>
        <time>2016-04-30T14:05:19Z</time>
      </trkpt>
      <trkpt lat="47.67363" lon="-3.44218">
        <ele>-1.3</ele>
        <time>2016-04-30T14:05:31Z</time>
      </trkpt>
      <trkpt lat="47.67356" lon="-3.44263">
        <ele>-0.82</ele>
        <time>2016-04-30T14:05:44Z</time>
      </trkpt>
      <trkpt lat="47.67344" lon="-3.44308">
        <ele>-0.34</ele>
        <time>2016-04-30T14:05:56Z</time>
      </trkpt>
      <trkpt lat="47.67333" lon="-3.4436">
        <ele>-0.82</ele>
        <time>2016-04-30T14:06:09Z</time>
      </trkpt>
      <trkpt lat="47.67321" lon="-3.44403">
        <ele>-1.3</ele>
        <time>2016-04-30T14:06:20Z</time>
      </trkpt>
      <trkpt lat="47.67311" lon="-3.44448">
        <ele>-1.3</ele>
        <time>2016-04-30T14:06:32Z</time>
      </trkpt>
      <trkpt lat="47.67298" lon="-3.44509">
        <ele>-2.75</ele>
        <time>2016-04-30T14:06:48Z</time>
      </trkpt>
      <trkpt lat="47.67288" lon="-3.44556">
        <ele>-1.3</ele>
        <time>2016-04-30T14:07:00Z</time>
      </trkpt>
      <trkpt lat="47.67272" lon="-3.44613">
        <ele>-1.79</ele>
        <time>2016-04-30T14:07:15Z</time>
      </trkpt>
      <trkpt lat="47.67256" lon="-3.44673">
        <ele>-1.3</ele>
        <time>2016-04-30T14:07:30Z</time>
      </trkpt>
      <trkpt lat="47.67243" lon="-3.44727">
        <ele>-0.34</ele>
        <time>2016-04-30T14:07:44Z</time>
      </trkpt>
      <trkpt lat="47.67231" lon="-3.44787">
        <ele>0.62</ele>
        <time>2016-04-30T14:07:59Z</time>
      </trkpt>
      <trkpt lat="47.67217" lon="-3.44843">
        <ele>-0.34</ele>
        <time>2016-04-30T14:08:13Z</time>
      </trkpt>
      <trkpt lat="47.67203" lon="-3.44893">
        <ele>0.14</ele>
        <time>2016-04-30T14:08:27Z</time>
      </trkpt>
      <trkpt lat="47.67191" lon="-3.44939">
        <ele>-1.79</ele>
        <time>2016-04-30T14:08:41Z</time>
      </trkpt>
      <trkpt lat="47.6718" lon="-3.44983">
        <ele>-1.79</ele>
        <time>2016-04-30T14:08:56Z</time>
      </trkpt>
      <trkpt lat="47.67182" lon="-3.45032">
        <ele>-1.79</ele>
        <time>2016-04-30T14:09:12Z</time>
      </trkpt>
      <trkpt lat="47.67182" lon="-3.45077">
        <ele>-1.3</ele>
        <time>2016-04-30T14:09:25Z</time>
      </trkpt>
      <trkpt lat="47.67173" lon="-3.45135">
        <ele>-1.79</ele>
        <time>2016-04-30T14:09:41Z</time>
      </trkpt>
      <trkpt lat="47.67171" lon="-3.45157">
        <ele>-1.79</ele>
        <time>2016-04-30T14:09:47Z</time>
      </trkpt>
      <trkpt lat="47.67168" lon="-3.45175">
        <ele>-2.27</ele>
        <time>2016-04-30T14:09:52Z</time>
      </trkpt>
      <trkpt lat="47.67161" lon="-3.45213">
        <ele>-3.23</ele>
        <time>2016-04-30T14:10:04Z</time>
      </trkpt>
      <trkpt lat="47.67161" lon="-3.45251">
        <ele>-3.71</ele>
        <time>2016-04-30T14:10:15Z</time>
      </trkpt>
      <trkpt lat="47.67167" lon="-3.45302">
        <ele>-3.71</ele>
        <time>2016-04-30T14:10:28Z</time>
      </trkpt>
      <trkpt lat="47.67172" lon="-3.45357">
        <ele>-4.19</ele>
        <time>2016-04-30T14:10:42Z</time>
      </trkpt>
      <trkpt lat="47.67175" lon="-3.45415">
        <ele>-4.19</ele>
        <time>2016-04-30T14:10:57Z</time>
      </trkpt>
      <trkpt lat="47.67173" lon="-3.45466">
        <ele>-3.71</ele>
        <time>2016-04-30T14:11:10Z</time>
      </trkpt>
      <trkpt lat="47.67172" lon="-3.45527">
        <ele>-1.3</ele>
        <time>2016-04-30T14:11:25Z</time>
      </trkpt>
      <trkpt lat="47.67168" lon="-3.45576">
        <ele>-1.3</ele>
        <time>2016-04-30T14:11:37Z</time>
      </trkpt>
      <trkpt lat="47.67173" lon="-3.45589">
        <ele>-1.79</ele>
        <time>2016-04-30T14:11:41Z</time>
      </trkpt>
      <trkpt lat="47.67181" lon="-3.45649">
        <ele>-2.75</ele>
        <time>2016-04-30T14:11:56Z</time>
      </trkpt>
      <trkpt lat="47.67183" lon="-3.45712">
        <ele>-1.3</ele>
        <time>2016-04-30T14:12:11Z</time>
      </trkpt>
      <trkpt lat="47.67186" lon="-3.45762">
        <ele>-1.3</ele>
        <time>2016-04-30T14:12:23Z</time>
      </trkpt>
      <trkpt lat="47.67189" lon="-3.45816">
        <ele>-1.79</ele>
        <time>2016-04-30T14:12:36Z</time>
      </trkpt>
      <trkpt lat="47.67189" lon="-3.45863">
        <ele>-1.79</ele>
        <time>2016-04-30T14:12:48Z</time>
      </trkpt>
      <trkpt lat="47.67193" lon="-3.45922">
        <ele>-1.79</ele>
        <time>2016-04-30T14:13:02Z</time>
      </trkpt>
      <trkpt lat="47.67195" lon="-3.45979">
        <ele>-2.27</ele>
        <time>2016-04-30T14:13:15Z</time>
      </trkpt>
      <trkpt lat="47.67185" lon="-3.46022">
        <ele>-2.75</ele>
        <time>2016-04-30T14:13:26Z</time>
      </trkpt>
      <trkpt lat="47.6719" lon="-3.46059">
        <ele>-2.75</ele>
        <time>2016-04-30T14:13:36Z</time>
      </trkpt>
      <trkpt lat="47.67206" lon="-3.46108">
        <ele>-2.27</ele>
        <time>2016-04-30T14:13:51Z</time>
      </trkpt>
      <trkpt lat="47.67216" lon="-3.46137">
        <ele>-1.79</ele>
        <time>2016-04-30T14:14:00Z</time>
      </trkpt>
      <trkpt lat="47.67234" lon="-3.46173">
        <ele>-2.75</ele>
        <time>2016-04-30T14:14:13Z</time>
      </trkpt>
      <trkpt lat="47.67247" lon="-3.46213">
        <ele>-2.75</ele>
        <time>2016-04-30T14:14:25Z</time>
      </trkpt>
      <trkpt lat="47.67261" lon="-3.46269">
        <ele>-3.23</ele>
        <time>2016-04-30T14:14:40Z</time>
      </trkpt>
      <trkpt lat="47.67261" lon="-3.46309">
        <ele>-2.75</ele>
        <time>2016-04-30T14:14:50Z</time>
      </trkpt>
      <trkpt lat="47.67243" lon="-3.4635">
        <ele>-3.71</ele>
        <time>2016-04-30T14:15:01Z</time>
      </trkpt>
      <trkpt lat="47.67228" lon="-3.46379">
        <ele>-4.19</ele>
        <time>2016-04-30T14:15:10Z</time>
      </trkpt>
      <trkpt lat="47.67209" lon="-3.46424">
        <ele>-4.67</ele>
        <time>2016-04-30T14:15:23Z</time>
      </trkpt>
      <trkpt lat="47.67201" lon="-3.46476">
        <ele>-2.75</ele>
        <time>2016-04-30T14:15:36Z</time>
      </trkpt>
      <trkpt lat="47.67196" lon="-3.46521">
        <ele>-3.23</ele>
        <time>2016-04-30T14:15:47Z</time>
      </trkpt>
      <trkpt lat="47.67187" lon="-3.46561">
        <ele>-2.75</ele>
        <time>2016-04-30T14:15:57Z</time>
      </trkpt>
      <trkpt lat="47.67183" lon="-3.46611">
        <ele>-2.27</ele>
        <time>2016-04-30T14:16:09Z</time>
      </trkpt>
      <trkpt lat="47.67175" lon="-3.46673">
        <ele>-1.79</ele>
        <time>2016-04-30T14:16:24Z</time>
      </trkpt>
      <trkpt lat="47.6716" lon="-3.46731">
        <ele>-1.3</ele>
        <time>2016-04-30T14:16:39Z</time>
      </trkpt>
      <trkpt lat="47.67148" lon="-3.46772">
        <ele>-3.71</ele>
        <time>2016-04-30T14:16:50Z</time>
      </trkpt>
      <trkpt lat="47.67142" lon="-3.46816">
        <ele>-3.71</ele>
        <time>2016-04-30T14:17:01Z</time>
      </trkpt>
      <trkpt lat="47.67138" lon="-3.46869">
        <ele>-4.67</ele>
        <time>2016-04-30T14:17:14Z</time>
      </trkpt>
      <trkpt lat="47.67137" lon="-3.46921">
        <ele>-4.67</ele>
        <time>2016-04-30T14:17:27Z</time>
      </trkpt>
      <trkpt lat="47.67133" lon="-3.46971">
        <ele>-5.15</ele>
        <time>2016-04-30T14:17:39Z</time>
      </trkpt>
      <trkpt lat="47.67125" lon="-3.47019">
        <ele>-4.67</ele>
        <time>2016-04-30T14:17:51Z</time>
      </trkpt>
      <trkpt lat="47.6712" lon="-3.4707">
        <ele>-4.19</ele>
        <time>2016-04-30T14:18:04Z</time>
      </trkpt>
      <trkpt lat="47.67119" lon="-3.47114">
        <ele>-3.71</ele>
        <time>2016-04-30T14:18:16Z</time>
      </trkpt>
      <trkpt lat="47.67117" lon="-3.47158">
        <ele>-3.71</ele>
        <time>2016-04-30T14:18:27Z</time>
      </trkpt>
      <trkpt lat="47.67112" lon="-3.47201">
        <ele>-3.71</ele>
        <time>2016-04-30T14:18:38Z</time>
      </trkpt>
      <trkpt lat="47.67111" lon="-3.47246">
        <ele>-2.27</ele>
        <time>2016-04-30T14:18:49Z</time>
      </trkpt>
      <trkpt lat="47.67111" lon="-3.47284">
        <ele>-1.3</ele>
        <time>2016-04-30T14:18:59Z</time>
      </trkpt>
      <trkpt lat="47.67116" lon="-3.47335">
        <ele>-1.79</ele>
        <time>2016-04-30T14:19:13Z</time>
      </trkpt>
      <trkpt lat="47.67119" lon="-3.47371">
        <ele>-1.79</ele>
        <time>2016-04-30T14:19:24Z</time>
      </trkpt>
      <trkpt lat="47.67117" lon="-3.47416">
        <ele>-1.79</ele>
        <time>2016-04-30T14:19:36Z</time>
      </trkpt>
      <trkpt lat="47.67118" lon="-3.47469">
        <ele>-2.27</ele>
        <time>2016-04-30T14:19:49Z</time>
      </trkpt>
      <trkpt lat="47.67125" lon="-3.47515">
        <ele>-2.75</ele>
        <time>2016-04-30T14:20:01Z</time>
      </trkpt>
      <trkpt lat="47.67123" lon="-3.47556">
        <ele>-4.19</ele>
        <time>2016-04-30T14:20:11Z</time>
      </trkpt>
      <trkpt lat="47.67116" lon="-3.476">
        <ele>-3.71</ele>
        <time>2016-04-30T14:20:22Z</time>
      </trkpt>
      <trkpt lat="47.67116" lon="-3.47648">
        <ele>-3.71</ele>
        <time>2016-04-30T14:20:34Z</time>
      </trkpt>
      <trkpt lat="47.67119" lon="-3.47698">
        <ele>-3.71</ele>
        <time>2016-04-30T14:20:47Z</time>
      </trkpt>
      <trkpt lat="47.67124" lon="-3.47733">
        <ele>-3.71</ele>
        <time>2016-04-30T14:20:57Z</time>
      </trkpt>
      <trkpt lat="47.67131" lon="-3.47773">
        <ele>-5.15</ele>
        <time>2016-04-30T14:21:09Z</time>
      </trkpt>
      <trkpt lat="47.67128" lon="-3.47814">
        <ele>-4.19</ele>
        <time>2016-04-30T14:21:20Z</time>
      </trkpt>
      <trkpt lat="47.67132" lon="-3.47855">
        <ele>-4.19</ele>
        <time>2016-04-30T14:21:31Z</time>
      </trkpt>
      <trkpt lat="47.67139" lon="-3.47897">
        <ele>-4.67</ele>
        <time>2016-04-30T14:21:43Z</time>
      </trkpt>
      <trkpt lat="47.67148" lon="-3.47931">
        <ele>-4.19</ele>
        <time>2016-04-30T14:21:54Z</time>
      </trkpt>
      <trkpt lat="47.67152" lon="-3.47964">
        <ele>-3.23</ele>
        <time>2016-04-30T14:22:04Z</time>
      </trkpt>
      <trkpt lat="47.67161" lon="-3.48003">
        <ele>-3.23</ele>
        <time>2016-04-30T14:22:16Z</time>
      </trkpt>
      <trkpt lat="47.67166" lon="-3.48034">
        <ele>-3.23</ele>
        <time>2016-04-30T14:22:26Z</time>
      </trkpt>
      <trkpt lat="47.67169" lon="-3.48077">
        <ele>-2.75</ele>
        <time>2016-04-30T14:22:38Z</time>
      </trkpt>
      <trkpt lat="47.67169" lon="-3.48127">
        <ele>-3.23</ele>
        <time>2016-04-30T14:22:50Z</time>
      </trkpt>
      <trkpt lat="47.67175" lon="-3.48174">
        <ele>-3.23</ele>
        <time>2016-04-30T14:23:02Z</time>
      </trkpt>
      <trkpt lat="47.67183" lon="-3.48219">
        <ele>-2.27</ele>
        <time>2016-04-30T14:23:14Z</time>
      </trkpt>
      <trkpt lat="47.67186" lon="-3.48256">
        <ele>-1.79</ele>
        <time>2016-04-30T14:23:23Z</time>
      </trkpt>
      <trkpt lat="47.67194" lon="-3.48294">
        <ele>-2.27</ele>
        <time>2016-04-30T14:23:34Z</time>
      </trkpt>
      <trkpt lat="47.672" lon="-3.48331">
        <ele>-2.27</ele>
        <time>2016-04-30T14:23:46Z</time>
      </trkpt>
      <trkpt lat="47.67209" lon="-3.4836">
        <ele>-1.3</ele>
        <time>2016-04-30T14:23:57Z</time>
      </trkpt>
      <trkpt lat="47.67216" lon="-3.48406">
        <ele>-1.79</ele>
        <time>2016-04-30T14:24:10Z</time>
      </trkpt>
      <trkpt lat="47.67227" lon="-3.48445">
        <ele>-2.27</ele>
        <time>2016-04-30T14:24:22Z</time>
      </trkpt>
      <trkpt lat="47.67238" lon="-3.48484">
        <ele>-2.75</ele>
        <time>2016-04-30T14:24:37Z</time>
      </trkpt>
      <trkpt lat="47.67234" lon="-3.48527">
        <ele>-2.75</ele>
        <time>2016-04-30T14:24:48Z</time>
      </trkpt>
      <trkpt lat="47.67228" lon="-3.48577">
        <ele>-3.71</ele>
        <time>2016-04-30T14:25:00Z</time>
      </trkpt>
      <trkpt lat="47.67219" lon="-3.48627">
        <ele>-2.75</ele>
        <time>2016-04-30T14:25:13Z</time>
      </trkpt>
      <trkpt lat="47.67214" lon="-3.48672">
        <ele>-2.75</ele>
        <time>2016-04-30T14:25:25Z</time>
      </trkpt>
      <trkpt lat="47.67203" lon="-3.48715">
        <ele>-3.23</ele>
        <time>2016-04-30T14:25:37Z</time>
      </trkpt>
      <trkpt lat="47.67197" lon="-3.48768">
        <ele>-3.71</ele>
        <time>2016-04-30T14:25:50Z</time>
      </trkpt>
      <trkpt lat="47.672" lon="-3.4881">
        <ele>-3.23</ele>
        <time>2016-04-30T14:26:01Z</time>
      </trkpt>
      <trkpt lat="47.67207" lon="-3.48845">
        <ele>-2.75</ele>
        <time>2016-04-30T14:26:12Z</time>
      </trkpt>
      <trkpt lat="47.67212" lon="-3.48885">
        <ele>-2.27</ele>
        <time>2016-04-30T14:26:23Z</time>
      </trkpt>
      <trkpt lat="47.67215" lon="-3.48902">
        <ele>-1.79</ele>
        <time>2016-04-30T14:26:28Z</time>
      </trkpt>
      <trkpt lat="47.67216" lon="-3.48936">
        <ele>-0.34</ele>
        <time>2016-04-30T14:26:38Z</time>
      </trkpt>
      <trkpt lat="47.67219" lon="-3.48982">
        <ele>-0.82</ele>
        <time>2016-04-30T14:26:50Z</time>
      </trkpt>
      <trkpt lat="47.67226" lon="-3.49017">
        <ele>-1.79</ele>
        <time>2016-04-30T14:27:01Z</time>
      </trkpt>
      <trkpt lat="47.67232" lon="-3.49057">
        <ele>-0.34</ele>
        <time>2016-04-30T14:27:12Z</time>
      </trkpt>
      <trkpt lat="47.67242" lon="-3.49103">
        <ele>0.62</ele>
        <time>2016-04-30T14:27:25Z</time>
      </trkpt>
      <trkpt lat="47.67244" lon="-3.49157">
        <ele>1.58</ele>
        <time>2016-04-30T14:27:39Z</time>
      </trkpt>
      <trkpt lat="47.67253" lon="-3.49214">
        <ele>-0.82</ele>
        <time>2016-04-30T14:27:53Z</time>
      </trkpt>
      <trkpt lat="47.67262" lon="-3.49248">
        <ele>-1.3</ele>
        <time>2016-04-30T14:28:03Z</time>
      </trkpt>
      <trkpt lat="47.67259" lon="-3.49296">
        <ele>-1.3</ele>
        <time>2016-04-30T14:28:15Z</time>
      </trkpt>
      <trkpt lat="47.67241" lon="-3.49343">
        <ele>-2.27</ele>
        <time>2016-04-30T14:28:28Z</time>
      </trkpt>
      <trkpt lat="47.67233" lon="-3.4938">
        <ele>-2.75</ele>
        <time>2016-04-30T14:28:38Z</time>
      </trkpt>
      <trkpt lat="47.67235" lon="-3.49424">
        <ele>-2.27</ele>
        <time>2016-04-30T14:28:49Z</time>
      </trkpt>
      <trkpt lat="47.67245" lon="-3.49457">
        <ele>-1.79</ele>
        <time>2016-04-30T14:28:59Z</time>
      </trkpt>
      <trkpt lat="47.6724" lon="-3.49503">
        <ele>-1.79</ele>
        <time>2016-04-30T14:29:10Z</time>
      </trkpt>
      <trkpt lat="47.67231" lon="-3.49538">
        <ele>-1.79</ele>
        <time>2016-04-30T14:29:19Z</time>
      </trkpt>
      <trkpt lat="47.67222" lon="-3.49582">
        <ele>-0.82</ele>
        <time>2016-04-30T14:29:30Z</time>
      </trkpt>
      <trkpt lat="47.67217" lon="-3.49625">
        <ele>-0.82</ele>
        <time>2016-04-30T14:29:40Z</time>
      </trkpt>
      <trkpt lat="47.67213" lon="-3.49667">
        <ele>-0.82</ele>
        <time>2016-04-30T14:29:50Z</time>
      </trkpt>
      <trkpt lat="47.67212" lon="-3.49709">
        <ele>-1.3</ele>
        <time>2016-04-30T14:30:00Z</time>
      </trkpt>
      <trkpt lat="47.67215" lon="-3.49749">
        <ele>-1.79</ele>
        <time>2016-04-30T14:30:10Z</time>
      </trkpt>
      <trkpt lat="47.67217" lon="-3.498">
        <ele>-2.75</ele>
        <time>2016-04-30T14:30:22Z</time>
      </trkpt>
      <trkpt lat="47.67217" lon="-3.49855">
        <ele>-3.71</ele>
        <time>2016-04-30T14:30:35Z</time>
      </trkpt>
      <trkpt lat="47.67217" lon="-3.499">
        <ele>-4.19</ele>
        <time>2016-04-30T14:30:45Z</time>
      </trkpt>
      <trkpt lat="47.67214" lon="-3.49947">
        <ele>-3.71</ele>
        <time>2016-04-30T14:30:56Z</time>
      </trkpt>
      <trkpt lat="47.67201" lon="-3.49997">
        <ele>-4.19</ele>
        <time>2016-04-30T14:31:08Z</time>
      </trkpt>
      <trkpt lat="47.67183" lon="-3.50044">
        <ele>-4.19</ele>
        <time>2016-04-30T14:31:20Z</time>
      </trkpt>
      <trkpt lat="47.67166" lon="-3.50091">
        <ele>-5.15</ele>
        <time>2016-04-30T14:31:32Z</time>
      </trkpt>
      <trkpt lat="47.67151" lon="-3.5013">
        <ele>-4.67</ele>
        <time>2016-04-30T14:31:43Z</time>
      </trkpt>
      <trkpt lat="47.67138" lon="-3.50161">
        <ele>-3.23</ele>
        <time>2016-04-30T14:31:52Z</time>
      </trkpt>
      <trkpt lat="47.6713" lon="-3.50218">
        <ele>-2.75</ele>
        <time>2016-04-30T14:32:06Z</time>
      </trkpt>
      <trkpt lat="47.67128" lon="-3.50256">
        <ele>-2.75</ele>
        <time>2016-04-30T14:32:15Z</time>
      </trkpt>
      <trkpt lat="47.67127" lon="-3.50293">
        <ele>-2.75</ele>
        <time>2016-04-30T14:32:24Z</time>
      </trkpt>
      <trkpt lat="47.67132" lon="-3.50332">
        <ele>-2.27</ele>
        <time>2016-04-30T14:32:34Z</time>
      </trkpt>
      <trkpt lat="47.67134" lon="-3.50383">
        <ele>-3.71</ele>
        <time>2016-04-30T14:32:46Z</time>
      </trkpt>
      <trkpt lat="47.67139" lon="-3.50428">
        <ele>-4.19</ele>
        <time>2016-04-30T14:32:57Z</time>
      </trkpt>
      <trkpt lat="47.67136" lon="-3.5047">
        <ele>-4.19</ele>
        <time>2016-04-30T14:33:07Z</time>
      </trkpt>
      <trkpt lat="47.67138" lon="-3.5052">
        <ele>-4.67</ele>
        <time>2016-04-30T14:33:19Z</time>
      </trkpt>
      <trkpt lat="47.67139" lon="-3.50569">
        <ele>-4.67</ele>
        <time>2016-04-30T14:33:31Z</time>
      </trkpt>
      <trkpt lat="47.67137" lon="-3.50614">
        <ele>-4.67</ele>
        <time>2016-04-30T14:33:42Z</time>
      </trkpt>
      <trkpt lat="47.67136" lon="-3.50659">
        <ele>-4.19</ele>
        <time>2016-04-30T14:33:53Z</time>
      </trkpt>
      <trkpt lat="47.67131" lon="-3.50711">
        <ele>-4.67</ele>
        <time>2016-04-30T14:34:06Z</time>
      </trkpt>
      <trkpt lat="47.67126" lon="-3.50743">
        <ele>-4.67</ele>
        <time>2016-04-30T14:34:14Z</time>
      </trkpt>
      <trkpt lat="47.67118" lon="-3.50788">
        <ele>-3.71</ele>
        <time>2016-04-30T14:34:25Z</time>
      </trkpt>
      <trkpt lat="47.67115" lon="-3.50831">
        <ele>-4.19</ele>
        <time>2016-04-30T14:34:35Z</time>
      </trkpt>
      <trkpt lat="47.67108" lon="-3.5089">
        <ele>-3.71</ele>
        <time>2016-04-30T14:34:49Z</time>
      </trkpt>
      <trkpt lat="47.67107" lon="-3.50932">
        <ele>-4.19</ele>
        <time>2016-04-30T14:34:59Z</time>
      </trkpt>
      <trkpt lat="47.67106" lon="-3.50979">
        <ele>-2.75</ele>
        <time>2016-04-30T14:35:10Z</time>
      </trkpt>
      <trkpt lat="47.67097" lon="-3.51019">
        <ele>-3.71</ele>
        <time>2016-04-30T14:35:20Z</time>
      </trkpt>
      <trkpt lat="47.67088" lon="-3.51072">
        <ele>-3.71</ele>
        <time>2016-04-30T14:35:33Z</time>
      </trkpt>
      <trkpt lat="47.6708" lon="-3.51125">
        <ele>-3.71</ele>
        <time>2016-04-30T14:35:46Z</time>
      </trkpt>
      <trkpt lat="47.67068" lon="-3.51179">
        <ele>-3.71</ele>
        <time>2016-04-30T14:35:59Z</time>
      </trkpt>
      <trkpt lat="47.67065" lon="-3.51221">
        <ele>-4.19</ele>
        <time>2016-04-30T14:36:09Z</time>
      </trkpt>
      <trkpt lat="47.67064" lon="-3.51275">
        <ele>-3.23</ele>
        <time>2016-04-30T14:36:22Z</time>
      </trkpt>
      <trkpt lat="47.67061" lon="-3.51327">
        <ele>-3.71</ele>
        <time>2016-04-30T14:36:34Z</time>
      </trkpt>
      <trkpt lat="47.67054" lon="-3.51373">
        <ele>-3.71</ele>
        <time>2016-04-30T14:36:45Z</time>
      </trkpt>
      <trkpt lat="47.67049" lon="-3.51414">
        <ele>-5.15</ele>
        <time>2016-04-30T14:36:55Z</time>
      </trkpt>
      <trkpt lat="47.67041" lon="-3.51476">
        <ele>-6.11</ele>
        <time>2016-04-30T14:37:10Z</time>
      </trkpt>
      <trkpt lat="47.67038" lon="-3.51528">
        <ele>-5.63</ele>
        <time>2016-04-30T14:37:22Z</time>
      </trkpt>
      <trkpt lat="47.67035" lon="-3.51573">
        <ele>-5.15</ele>
        <time>2016-04-30T14:37:33Z</time>
      </trkpt>
      <trkpt lat="47.67034" lon="-3.51616">
        <ele>-5.63</ele>
        <time>2016-04-30T14:37:43Z</time>
      </trkpt>
      <trkpt lat="47.67032" lon="-3.51663">
        <ele>-4.67</ele>
        <time>2016-04-30T14:37:54Z</time>
      </trkpt>
      <trkpt lat="47.67029" lon="-3.5171">
        <ele>-3.71</ele>
        <time>2016-04-30T14:38:05Z</time>
      </trkpt>
      <trkpt lat="47.6703" lon="-3.51765">
        <ele>-3.71</ele>
        <time>2016-04-30T14:38:18Z</time>
      </trkpt>
      <trkpt lat="47.6703" lon="-3.51814">
        <ele>-3.23</ele>
        <time>2016-04-30T14:38:30Z</time>
      </trkpt>
      <trkpt lat="47.67036" lon="-3.51863">
        <ele>-3.23</ele>
        <time>2016-04-30T14:38:42Z</time>
      </trkpt>
      <trkpt lat="47.6704" lon="-3.51905">
        <ele>-3.23</ele>
        <time>2016-04-30T14:38:52Z</time>
      </trkpt>
      <trkpt lat="47.67037" lon="-3.51952">
        <ele>-2.27</ele>
        <time>2016-04-30T14:39:03Z</time>
      </trkpt>
      <trkpt lat="47.67018" lon="-3.52001">
        <ele>-2.27</ele>
        <time>2016-04-30T14:39:16Z</time>
      </trkpt>
      <trkpt lat="47.66995" lon="-3.52045">
        <ele>-2.27</ele>
        <time>2016-04-30T14:39:28Z</time>
      </trkpt>
      <trkpt lat="47.66976" lon="-3.52094">
        <ele>-2.75</ele>
        <time>2016-04-30T14:39:40Z</time>
      </trkpt>
      <trkpt lat="47.66952" lon="-3.5215">
        <ele>-3.71</ele>
        <time>2016-04-30T14:39:54Z</time>
      </trkpt>
      <trkpt lat="47.66929" lon="-3.52194">
        <ele>-4.19</ele>
        <time>2016-04-30T14:40:06Z</time>
      </trkpt>
      <trkpt lat="47.66903" lon="-3.52238">
        <ele>-2.27</ele>
        <time>2016-04-30T14:40:19Z</time>
      </trkpt>
      <trkpt lat="47.66878" lon="-3.52279">
        <ele>-2.27</ele>
        <time>2016-04-30T14:40:32Z</time>
      </trkpt>
      <trkpt lat="47.66856" lon="-3.5233">
        <ele>-4.19</ele>
        <time>2016-04-30T14:40:46Z</time>
      </trkpt>
      <trkpt lat="47.66837" lon="-3.52372">
        <ele>-2.27</ele>
        <time>2016-04-30T14:40:57Z</time>
      </trkpt>
      <trkpt lat="47.66824" lon="-3.5239">
        <ele>-2.27</ele>
        <time>2016-04-30T14:41:03Z</time>
      </trkpt>
      <trkpt lat="47.66796" lon="-3.52422">
        <ele>-1.79</ele>
        <time>2016-04-30T14:41:15Z</time>
      </trkpt>
      <trkpt lat="47.6677" lon="-3.52464">
        <ele>-1.79</ele>
        <time>2016-04-30T14:41:28Z</time>
      </trkpt>
      <trkpt lat="47.66745" lon="-3.52504">
        <ele>-1.79</ele>
        <time>2016-04-30T14:41:41Z</time>
      </trkpt>
      <trkpt lat="47.66722" lon="-3.52552">
        <ele>-1.79</ele>
        <time>2016-04-30T14:41:55Z</time>
      </trkpt>
      <trkpt lat="47.66693" lon="-3.52594">
        <ele>-1.3</ele>
        <time>2016-04-30T14:42:09Z</time>
      </trkpt>
      <trkpt lat="47.66669" lon="-3.52618">
        <ele>-1.3</ele>
        <time>2016-04-30T14:42:19Z</time>
      </trkpt>
      <trkpt lat="47.66638" lon="-3.52647">
        <ele>-0.34</ele>
        <time>2016-04-30T14:42:32Z</time>
      </trkpt>
      <trkpt lat="47.66605" lon="-3.52682">
        <ele>-0.82</ele>
        <time>2016-04-30T14:42:47Z</time>
      </trkpt>
      <trkpt lat="47.66571" lon="-3.52711">
        <ele>-1.79</ele>
        <time>2016-04-30T14:43:00Z</time>
      </trkpt>
      <trkpt lat="47.66548" lon="-3.52739">
        <ele>-3.23</ele>
        <time>2016-04-30T14:43:12Z</time>
      </trkpt>
      <trkpt lat="47.66523" lon="-3.52761">
        <ele>-3.71</ele>
        <time>2016-04-30T14:43:23Z</time>
      </trkpt>
      <trkpt lat="47.66505" lon="-3.5278">
        <ele>-4.67</ele>
        <time>2016-04-30T14:43:31Z</time>
      </trkpt>
      <trkpt lat="47.66491" lon="-3.52794">
        <ele>-4.19</ele>
        <time>2016-04-30T14:43:37Z</time>
      </trkpt>
      <trkpt lat="47.66471" lon="-3.52811">
        <ele>-2.75</ele>
        <time>2016-04-30T14:43:46Z</time>
      </trkpt>
      <trkpt lat="47.66454" lon="-3.52822">
        <ele>-2.75</ele>
        <time>2016-04-30T14:43:53Z</time>
      </trkpt>
      <trkpt lat="47.66419" lon="-3.52848">
        <ele>-4.19</ele>
        <time>2016-04-30T14:44:10Z</time>
      </trkpt>
      <trkpt lat="47.66394" lon="-3.52862">
        <ele>-5.15</ele>
        <time>2016-04-30T14:44:22Z</time>
      </trkpt>
      <trkpt lat="47.66385" lon="-3.52869">
        <ele>-6.11</ele>
        <time>2016-04-30T14:44:26Z</time>
      </trkpt>
      <trkpt lat="47.66353" lon="-3.52888">
        <ele>-6.59</ele>
        <time>2016-04-30T14:44:39Z</time>
      </trkpt>
      <trkpt lat="47.66329" lon="-3.52898">
        <ele>-3.23</ele>
        <time>2016-04-30T14:44:50Z</time>
      </trkpt>
      <trkpt lat="47.66307" lon="-3.5291">
        <ele>-2.75</ele>
        <time>2016-04-30T14:45:00Z</time>
      </trkpt>
      <trkpt lat="47.66305" lon="-3.52911">
        <ele>-2.75</ele>
        <time>2016-04-30T14:45:01Z</time>
      </trkpt>
      <trkpt lat="47.66283" lon="-3.52925">
        <ele>-5.15</ele>
        <time>2016-04-30T14:45:11Z</time>
      </trkpt>
      <trkpt lat="47.6626" lon="-3.52943">
        <ele>-5.63</ele>
        <time>2016-04-30T14:45:22Z</time>
      </trkpt>
      <trkpt lat="47.66229" lon="-3.52964">
        <ele>-8.51</ele>
        <time>2016-04-30T14:45:36Z</time>
      </trkpt>
      <trkpt lat="47.66206" lon="-3.52977">
        <ele>-8.51</ele>
        <time>2016-04-30T14:45:47Z</time>
      </trkpt>
      <trkpt lat="47.66178" lon="-3.52984">
        <ele>-6.11</ele>
        <time>2016-04-30T14:46:01Z</time>
      </trkpt>
      <trkpt lat="47.66159" lon="-3.52991">
        <ele>-7.07</ele>
        <time>2016-04-30T14:46:10Z</time>
      </trkpt>
      <trkpt lat="47.66147" lon="-3.52996">
        <ele>-6.11</ele>
        <time>2016-04-30T14:46:15Z</time>
      </trkpt>
      <trkpt lat="47.66112" lon="-3.53013">
        <ele>-4.67</ele>
        <time>2016-04-30T14:46:31Z</time>
      </trkpt>
      <trkpt lat="47.66094" lon="-3.53025">
        <ele>-4.67</ele>
        <time>2016-04-30T14:46:39Z</time>
      </trkpt>
      <trkpt lat="47.66064" lon="-3.53039">
        <ele>-3.23</ele>
        <time>2016-04-30T14:46:53Z</time>
      </trkpt>
      <trkpt lat="47.66055" lon="-3.53043">
        <ele>-3.23</ele>
        <time>2016-04-30T14:46:57Z</time>
      </trkpt>
      <trkpt lat="47.66028" lon="-3.53071">
        <ele>-3.23</ele>
        <time>2016-04-30T14:47:10Z</time>
      </trkpt>
      <trkpt lat="47.65998" lon="-3.53085">
        <ele>-3.23</ele>
        <time>2016-04-30T14:47:22Z</time>
      </trkpt>
      <trkpt lat="47.65972" lon="-3.531">
        <ele>-2.75</ele>
        <time>2016-04-30T14:47:33Z</time>
      </trkpt>
      <trkpt lat="47.65945" lon="-3.53117">
        <ele>-3.23</ele>
        <time>2016-04-30T14:47:44Z</time>
      </trkpt>
      <trkpt lat="47.65927" lon="-3.53136">
        <ele>-2.75</ele>
        <time>2016-04-30T14:47:53Z</time>
      </trkpt>
      <trkpt lat="47.6592" lon="-3.53147">
        <ele>-3.23</ele>
        <time>2016-04-30T14:47:57Z</time>
      </trkpt>
      <trkpt lat="47.65904" lon="-3.53178">
        <ele>-3.71</ele>
        <time>2016-04-30T14:48:07Z</time>
      </trkpt>
      <trkpt lat="47.65875" lon="-3.53218">
        <ele>-2.75</ele>
        <time>2016-04-30T14:48:21Z</time>
      </trkpt>
      <trkpt lat="47.6585" lon="-3.53231">
        <ele>-2.27</ele>
        <time>2016-04-30T14:48:31Z</time>
      </trkpt>
      <trkpt lat="47.65824" lon="-3.53234">
        <ele>-1.3</ele>
        <time>2016-04-30T14:48:42Z</time>
      </trkpt>
      <trkpt lat="47.65795" lon="-3.5325">
        <ele>-0.34</ele>
        <time>2016-04-30T14:48:53Z</time>
      </trkpt>
      <trkpt lat="47.65757" lon="-3.53249">
        <ele>-0.34</ele>
        <time>2016-04-30T14:49:08Z</time>
      </trkpt>
      <trkpt lat="47.65723" lon="-3.53257">
        <ele>0.62</ele>
        <time>2016-04-30T14:49:22Z</time>
      </trkpt>
      <trkpt lat="47.65696" lon="-3.53258">
        <ele>0.14</ele>
        <time>2016-04-30T14:49:34Z</time>
      </trkpt>
      <trkpt lat="47.65691" lon="-3.53258">
        <ele>0.62</ele>
        <time>2016-04-30T14:49:36Z</time>
      </trkpt>
      <trkpt lat="47.65658" lon="-3.53274">
        <ele>0.14</ele>
        <time>2016-04-30T14:49:49Z</time>
      </trkpt>
      <trkpt lat="47.65625" lon="-3.53298">
        <ele>0.62</ele>
        <time>2016-04-30T14:50:03Z</time>
      </trkpt>
      <trkpt lat="47.65602" lon="-3.53305">
        <ele>0.14</ele>
        <time>2016-04-30T14:50:12Z</time>
      </trkpt>
      <trkpt lat="47.65573" lon="-3.53314">
        <ele>-0.34</ele>
        <time>2016-04-30T14:50:24Z</time>
      </trkpt>
      <trkpt lat="47.65567" lon="-3.53316">
        <ele>-0.34</ele>
        <time>2016-04-30T14:50:26Z</time>
      </trkpt>
      <trkpt lat="47.65543" lon="-3.53326">
        <ele>0.14</ele>
        <time>2016-04-30T14:50:36Z</time>
      </trkpt>
      <trkpt lat="47.65515" lon="-3.53333">
        <ele>-0.34</ele>
        <time>2016-04-30T14:50:48Z</time>
      </trkpt>
      <trkpt lat="47.65495" lon="-3.5334">
        <ele>-1.79</ele>
        <time>2016-04-30T14:50:56Z</time>
      </trkpt>
      <trkpt lat="47.65467" lon="-3.53369">
        <ele>-2.27</ele>
        <time>2016-04-30T14:51:08Z</time>
      </trkpt>
      <trkpt lat="47.65437" lon="-3.53397">
        <ele>-2.27</ele>
        <time>2016-04-30T14:51:21Z</time>
      </trkpt>
      <trkpt lat="47.65417" lon="-3.534">
        <ele>0.14</ele>
        <time>2016-04-30T14:51:30Z</time>
      </trkpt>
      <trkpt lat="47.65391" lon="-3.53409">
        <ele>1.1</ele>
        <time>2016-04-30T14:51:42Z</time>
      </trkpt>
      <trkpt lat="47.65362" lon="-3.53425">
        <ele>-1.79</ele>
        <time>2016-04-30T14:51:55Z</time>
      </trkpt>
      <trkpt lat="47.65336" lon="-3.53427">
        <ele>-1.3</ele>
        <time>2016-04-30T14:52:06Z</time>
      </trkpt>
      <trkpt lat="47.65322" lon="-3.53432">
        <ele>-2.27</ele>
        <time>2016-04-30T14:52:12Z</time>
      </trkpt>
      <trkpt lat="47.65285" lon="-3.53427">
        <ele>-2.75</ele>
        <time>2016-04-30T14:52:28Z</time>
      </trkpt>
      <trkpt lat="47.65263" lon="-3.53419">
        <ele>-2.27</ele>
        <time>2016-04-30T14:52:39Z</time>
      </trkpt>
      <trkpt lat="47.65234" lon="-3.5342">
        <ele>-2.75</ele>
        <time>2016-04-30T14:52:50Z</time>
      </trkpt>
      <trkpt lat="47.65193" lon="-3.53417">
        <ele>-4.19</ele>
        <time>2016-04-30T14:53:04Z</time>
      </trkpt>
      <trkpt lat="47.65162" lon="-3.53417">
        <ele>-3.23</ele>
        <time>2016-04-30T14:53:16Z</time>
      </trkpt>
      <trkpt lat="47.65135" lon="-3.53427">
        <ele>-2.27</ele>
        <time>2016-04-30T14:53:27Z</time>
      </trkpt>
      <trkpt lat="47.65101" lon="-3.53442">
        <ele>-1.79</ele>
        <time>2016-04-30T14:53:40Z</time>
      </trkpt>
      <trkpt lat="47.6507" lon="-3.53459">
        <ele>-1.79</ele>
        <time>2016-04-30T14:53:52Z</time>
      </trkpt>
      <trkpt lat="47.65039" lon="-3.53464">
        <ele>-2.27</ele>
        <time>2016-04-30T14:54:04Z</time>
      </trkpt>
      <trkpt lat="47.65011" lon="-3.53474">
        <ele>-2.27</ele>
        <time>2016-04-30T14:54:15Z</time>
      </trkpt>
      <trkpt lat="47.64976" lon="-3.53488">
        <ele>-2.27</ele>
        <time>2016-04-30T14:54:28Z</time>
      </trkpt>
      <trkpt lat="47.64947" lon="-3.53484">
        <ele>-2.27</ele>
        <time>2016-04-30T14:54:40Z</time>
      </trkpt>
      <trkpt lat="47.64919" lon="-3.53477">
        <ele>-2.75</ele>
        <time>2016-04-30T14:54:52Z</time>
      </trkpt>
      <trkpt lat="47.64882" lon="-3.53473">
        <ele>-2.75</ele>
        <time>2016-04-30T14:55:07Z</time>
      </trkpt>
      <trkpt lat="47.64852" lon="-3.53466">
        <ele>-3.23</ele>
        <time>2016-04-30T14:55:19Z</time>
      </trkpt>
      <trkpt lat="47.64825" lon="-3.53454">
        <ele>-4.19</ele>
        <time>2016-04-30T14:55:31Z</time>
      </trkpt>
      <trkpt lat="47.64793" lon="-3.53459">
        <ele>-4.67</ele>
        <time>2016-04-30T14:55:43Z</time>
      </trkpt>
      <trkpt lat="47.64757" lon="-3.53468">
        <ele>-4.67</ele>
        <time>2016-04-30T14:55:56Z</time>
      </trkpt>
      <trkpt lat="47.64727" lon="-3.53471">
        <ele>-5.63</ele>
        <time>2016-04-30T14:56:07Z</time>
      </trkpt>
      <trkpt lat="47.64696" lon="-3.53474">
        <ele>-6.11</ele>
        <time>2016-04-30T14:56:19Z</time>
      </trkpt>
      <trkpt lat="47.64659" lon="-3.53479">
        <ele>-6.11</ele>
        <time>2016-04-30T14:56:33Z</time>
      </trkpt>
      <trkpt lat="47.64629" lon="-3.53488">
        <ele>-5.15</ele>
        <time>2016-04-30T14:56:45Z</time>
      </trkpt>
      <trkpt lat="47.64605" lon="-3.53501">
        <ele>-5.63</ele>
        <time>2016-04-30T14:56:55Z</time>
      </trkpt>
      <trkpt lat="47.64577" lon="-3.53507">
        <ele>-4.67</ele>
        <time>2016-04-30T14:57:06Z</time>
      </trkpt>
      <trkpt lat="47.6455" lon="-3.53509">
        <ele>-6.11</ele>
        <time>2016-04-30T14:57:17Z</time>
      </trkpt>
      <trkpt lat="47.64533" lon="-3.53511">
        <ele>-6.59</ele>
        <time>2016-04-30T14:57:24Z</time>
      </trkpt>
      <trkpt lat="47.64529" lon="-3.53513">
        <ele>-6.59</ele>
        <time>2016-04-30T14:57:26Z</time>
      </trkpt>
      <trkpt lat="47.64517" lon="-3.53518">
        <ele>-7.07</ele>
        <time>2016-04-30T14:57:31Z</time>
      </trkpt>
      <trkpt lat="47.64491" lon="-3.53517">
        <ele>-8.03</ele>
        <time>2016-04-30T14:57:42Z</time>
      </trkpt>
      <trkpt lat="47.64458" lon="-3.53515">
        <ele>-9.48</ele>
        <time>2016-04-30T14:57:55Z</time>
      </trkpt>
      <trkpt lat="47.64418" lon="-3.53532">
        <ele>-10.44</ele>
        <time>2016-04-30T14:58:12Z</time>
      </trkpt>
      <trkpt lat="47.6438" lon="-3.53534">
        <ele>-9</ele>
        <time>2016-04-30T14:58:27Z</time>
      </trkpt>
      <trkpt lat="47.64356" lon="-3.53522">
        <ele>-8.51</ele>
        <time>2016-04-30T14:58:40Z</time>
      </trkpt>
      <trkpt lat="47.64324" lon="-3.53524">
        <ele>-8.03</ele>
        <time>2016-04-30T14:58:53Z</time>
      </trkpt>
      <trkpt lat="47.64286" lon="-3.53528">
        <ele>-6.11</ele>
        <time>2016-04-30T14:59:10Z</time>
      </trkpt>
      <trkpt lat="47.64255" lon="-3.53518">
        <ele>-5.63</ele>
        <time>2016-04-30T14:59:24Z</time>
      </trkpt>
      <trkpt lat="47.64224" lon="-3.53513">
        <ele>-5.63</ele>
        <time>2016-04-30T14:59:38Z</time>
      </trkpt>
      <trkpt lat="47.64193" lon="-3.53502">
        <ele>-5.15</ele>
        <time>2016-04-30T14:59:52Z</time>
      </trkpt>
      <trkpt lat="47.6417" lon="-3.53496">
        <ele>-4.67</ele>
        <time>2016-04-30T15:00:03Z</time>
      </trkpt>
      <trkpt lat="47.6416" lon="-3.53494">
        <ele>-4.67</ele>
        <time>2016-04-30T15:00:07Z</time>
      </trkpt>
      <trkpt lat="47.64128" lon="-3.53485">
        <ele>-4.19</ele>
        <time>2016-04-30T15:00:21Z</time>
      </trkpt>
      <trkpt lat="47.641" lon="-3.53472">
        <ele>-3.71</ele>
        <time>2016-04-30T15:00:34Z</time>
      </trkpt>
      <trkpt lat="47.64068" lon="-3.53472">
        <ele>-4.67</ele>
        <time>2016-04-30T15:00:47Z</time>
      </trkpt>
      <trkpt lat="47.6404" lon="-3.53468">
        <ele>-4.67</ele>
        <time>2016-04-30T15:00:58Z</time>
      </trkpt>
      <trkpt lat="47.64013" lon="-3.53458">
        <ele>-4.67</ele>
        <time>2016-04-30T15:01:10Z</time>
      </trkpt>
      <trkpt lat="47.63988" lon="-3.53453">
        <ele>-4.67</ele>
        <time>2016-04-30T15:01:21Z</time>
      </trkpt>
      <trkpt lat="47.63956" lon="-3.53442">
        <ele>-5.63</ele>
        <time>2016-04-30T15:01:35Z</time>
      </trkpt>
      <trkpt lat="47.63913" lon="-3.53427">
        <ele>-6.59</ele>
        <time>2016-04-30T15:01:53Z</time>
      </trkpt>
      <trkpt lat="47.63877" lon="-3.53414">
        <ele>-6.59</ele>
        <time>2016-04-30T15:02:09Z</time>
      </trkpt>
      <trkpt lat="47.6384" lon="-3.53406">
        <ele>-7.07</ele>
        <time>2016-04-30T15:02:24Z</time>
      </trkpt>
      <trkpt lat="47.63811" lon="-3.53393">
        <ele>-7.07</ele>
        <time>2016-04-30T15:02:38Z</time>
      </trkpt>
      <trkpt lat="47.63779" lon="-3.53378">
        <ele>-6.59</ele>
        <time>2016-04-30T15:02:52Z</time>
      </trkpt>
      <trkpt lat="47.6375" lon="-3.53367">
        <ele>-6.59</ele>
        <time>2016-04-30T15:03:04Z</time>
      </trkpt>
      <trkpt lat="47.63711" lon="-3.53356">
        <ele>-5.63</ele>
        <time>2016-04-30T15:03:20Z</time>
      </trkpt>
      <trkpt lat="47.63674" lon="-3.53344">
        <ele>-6.11</ele>
        <time>2016-04-30T15:03:35Z</time>
      </trkpt>
      <trkpt lat="47.63639" lon="-3.53334">
        <ele>-5.15</ele>
        <time>2016-04-30T15:03:50Z</time>
      </trkpt>
      <trkpt lat="47.63604" lon="-3.53323">
        <ele>-4.67</ele>
        <time>2016-04-30T15:04:05Z</time>
      </trkpt>
      <trkpt lat="47.63569" lon="-3.53313">
        <ele>-4.67</ele>
        <time>2016-04-30T15:04:19Z</time>
      </trkpt>
      <trkpt lat="47.63533" lon="-3.53309">
        <ele>-5.15</ele>
        <time>2016-04-30T15:04:33Z</time>
      </trkpt>
      <trkpt lat="47.63498" lon="-3.53315">
        <ele>-5.15</ele>
        <time>2016-04-30T15:04:45Z</time>
      </trkpt>
      <trkpt lat="47.63454" lon="-3.53309">
        <ele>-4.67</ele>
        <time>2016-04-30T15:05:01Z</time>
      </trkpt>
      <trkpt lat="47.63423" lon="-3.53303">
        <ele>-4.19</ele>
        <time>2016-04-30T15:05:13Z</time>
      </trkpt>
      <trkpt lat="47.63386" lon="-3.53314">
        <ele>-5.15</ele>
        <time>2016-04-30T15:05:28Z</time>
      </trkpt>
      <trkpt lat="47.63359" lon="-3.5333">
        <ele>-4.67</ele>
        <time>2016-04-30T15:05:38Z</time>
      </trkpt>
      <trkpt lat="47.63321" lon="-3.53319">
        <ele>-5.15</ele>
        <time>2016-04-30T15:05:52Z</time>
      </trkpt>
      <trkpt lat="47.63292" lon="-3.53309">
        <ele>-5.63</ele>
        <time>2016-04-30T15:06:05Z</time>
      </trkpt>
      <trkpt lat="47.63259" lon="-3.53303">
        <ele>-6.11</ele>
        <time>2016-04-30T15:06:18Z</time>
      </trkpt>
      <trkpt lat="47.63234" lon="-3.53297">
        <ele>-7.07</ele>
        <time>2016-04-30T15:06:28Z</time>
      </trkpt>
      <trkpt lat="47.63196" lon="-3.53293">
        <ele>-7.07</ele>
        <time>2016-04-30T15:06:43Z</time>
      </trkpt>
      <trkpt lat="47.63154" lon="-3.53282">
        <ele>-6.59</ele>
        <time>2016-04-30T15:07:00Z</time>
      </trkpt>
      <trkpt lat="47.63117" lon="-3.53273">
        <ele>-6.11</ele>
        <time>2016-04-30T15:07:15Z</time>
      </trkpt>
      <trkpt lat="47.63084" lon="-3.53264">
        <ele>-6.11</ele>
        <time>2016-04-30T15:07:29Z</time>
      </trkpt>
      <trkpt lat="47.63046" lon="-3.53247">
        <ele>-6.11</ele>
        <time>2016-04-30T15:07:45Z</time>
      </trkpt>
      <trkpt lat="47.63018" lon="-3.53241">
        <ele>-5.63</ele>
        <time>2016-04-30T15:07:56Z</time>
      </trkpt>
      <trkpt lat="47.62987" lon="-3.53229">
        <ele>-4.19</ele>
        <time>2016-04-30T15:08:09Z</time>
      </trkpt>
      <trkpt lat="47.6296" lon="-3.53215">
        <ele>-4.67</ele>
        <time>2016-04-30T15:08:21Z</time>
      </trkpt>
      <trkpt lat="47.62935" lon="-3.53204">
        <ele>-5.63</ele>
        <time>2016-04-30T15:08:31Z</time>
      </trkpt>
      <trkpt lat="47.62899" lon="-3.5319">
        <ele>-6.11</ele>
        <time>2016-04-30T15:08:44Z</time>
      </trkpt>
      <trkpt lat="47.62871" lon="-3.53168">
        <ele>-6.11</ele>
        <time>2016-04-30T15:08:57Z</time>
      </trkpt>
      <trkpt lat="47.62847" lon="-3.53158">
        <ele>-6.11</ele>
        <time>2016-04-30T15:09:07Z</time>
      </trkpt>
      <trkpt lat="47.62814" lon="-3.53153">
        <ele>-6.59</ele>
        <time>2016-04-30T15:09:20Z</time>
      </trkpt>
      <trkpt lat="47.62783" lon="-3.53146">
        <ele>-5.15</ele>
        <time>2016-04-30T15:09:32Z</time>
      </trkpt>
      <trkpt lat="47.62755" lon="-3.53134">
        <ele>-4.67</ele>
        <time>2016-04-30T15:09:44Z</time>
      </trkpt>
      <trkpt lat="47.62726" lon="-3.53126">
        <ele>-3.23</ele>
        <time>2016-04-30T15:09:56Z</time>
      </trkpt>
      <trkpt lat="47.62684" lon="-3.53127">
        <ele>-3.23</ele>
        <time>2016-04-30T15:10:11Z</time>
      </trkpt>
      <trkpt lat="47.62643" lon="-3.53117">
        <ele>-1.79</ele>
        <time>2016-04-30T15:10:26Z</time>
      </trkpt>
      <trkpt lat="47.62615" lon="-3.53108">
        <ele>-0.34</ele>
        <time>2016-04-30T15:10:37Z</time>
      </trkpt>
      <trkpt lat="47.62572" lon="-3.53101">
        <ele>-1.3</ele>
        <time>2016-04-30T15:10:52Z</time>
      </trkpt>
      <trkpt lat="47.62541" lon="-3.53092">
        <ele>-1.79</ele>
        <time>2016-04-30T15:11:03Z</time>
      </trkpt>
      <trkpt lat="47.62505" lon="-3.53086">
        <ele>-2.75</ele>
        <time>2016-04-30T15:11:15Z</time>
      </trkpt>
      <trkpt lat="47.62472" lon="-3.5307">
        <ele>-2.27</ele>
        <time>2016-04-30T15:11:27Z</time>
      </trkpt>
      <trkpt lat="47.6244" lon="-3.53057">
        <ele>-2.27</ele>
        <time>2016-04-30T15:11:39Z</time>
      </trkpt>
      <trkpt lat="47.62404" lon="-3.53032">
        <ele>-1.3</ele>
        <time>2016-04-30T15:11:54Z</time>
      </trkpt>
      <trkpt lat="47.6237" lon="-3.53003">
        <ele>-1.79</ele>
        <time>2016-04-30T15:12:09Z</time>
      </trkpt>
      <trkpt lat="47.62338" lon="-3.52978">
        <ele>-0.82</ele>
        <time>2016-04-30T15:12:24Z</time>
      </trkpt>
      <trkpt lat="47.62312" lon="-3.52965">
        <ele>-0.82</ele>
        <time>2016-04-30T15:12:35Z</time>
      </trkpt>
      <trkpt lat="47.623" lon="-3.52963">
        <ele>-0.82</ele>
        <time>2016-04-30T15:12:39Z</time>
      </trkpt>
      <trkpt lat="47.62261" lon="-3.52943">
        <ele>-0.82</ele>
        <time>2016-04-30T15:12:55Z</time>
      </trkpt>
      <trkpt lat="47.62236" lon="-3.52931">
        <ele>-0.82</ele>
        <time>2016-04-30T15:13:06Z</time>
      </trkpt>
      <trkpt lat="47.62208" lon="-3.52914">
        <ele>-0.82</ele>
        <time>2016-04-30T15:13:18Z</time>
      </trkpt>
      <trkpt lat="47.62179" lon="-3.52891">
        <ele>-0.82</ele>
        <time>2016-04-30T15:13:32Z</time>
      </trkpt>
      <trkpt lat="47.62151" lon="-3.52873">
        <ele>0.14</ele>
        <time>2016-04-30T15:13:45Z</time>
      </trkpt>
      <trkpt lat="47.62126" lon="-3.52853">
        <ele>-0.34</ele>
        <time>2016-04-30T15:13:57Z</time>
      </trkpt>
      <trkpt lat="47.62094" lon="-3.52833">
        <ele>0.14</ele>
        <time>2016-04-30T15:14:11Z</time>
      </trkpt>
      <trkpt lat="47.6207" lon="-3.5282">
        <ele>-0.34</ele>
        <time>2016-04-30T15:14:22Z</time>
      </trkpt>
      <trkpt lat="47.62029" lon="-3.52802">
        <ele>0.62</ele>
        <time>2016-04-30T15:14:39Z</time>
      </trkpt>
      <trkpt lat="47.61997" lon="-3.52787">
        <ele>1.1</ele>
        <time>2016-04-30T15:14:53Z</time>
      </trkpt>
      <trkpt lat="47.6197" lon="-3.52766">
        <ele>1.1</ele>
        <time>2016-04-30T15:15:06Z</time>
      </trkpt>
      <trkpt lat="47.6194" lon="-3.52745">
        <ele>1.58</ele>
        <time>2016-04-30T15:15:20Z</time>
      </trkpt>
      <trkpt lat="47.61915" lon="-3.52728">
        <ele>1.1</ele>
        <time>2016-04-30T15:15:31Z</time>
      </trkpt>
      <trkpt lat="47.61886" lon="-3.52709">
        <ele>1.1</ele>
        <time>2016-04-30T15:15:44Z</time>
      </trkpt>
      <trkpt lat="47.61862" lon="-3.52696">
        <ele>1.58</ele>
        <time>2016-04-30T15:15:55Z</time>
      </trkpt>
      <trkpt lat="47.61836" lon="-3.5269">
        <ele>0.14</ele>
        <time>2016-04-30T15:16:05Z</time>
      </trkpt>
      <trkpt lat="47.61803" lon="-3.52686">
        <ele>-0.82</ele>
        <time>2016-04-30T15:16:17Z</time>
      </trkpt>
      <trkpt lat="47.61769" lon="-3.5268">
        <ele>0.14</ele>
        <time>2016-04-30T15:16:30Z</time>
      </trkpt>
      <trkpt lat="47.61739" lon="-3.52672">
        <ele>1.1</ele>
        <time>2016-04-30T15:16:41Z</time>
      </trkpt>
      <trkpt lat="47.61714" lon="-3.52646">
        <ele>2.06</ele>
        <time>2016-04-30T15:16:54Z</time>
      </trkpt>
      <trkpt lat="47.61688" lon="-3.52627">
        <ele>1.58</ele>
        <time>2016-04-30T15:17:07Z</time>
      </trkpt>
      <trkpt lat="47.61659" lon="-3.52605">
        <ele>1.1</ele>
        <time>2016-04-30T15:17:22Z</time>
      </trkpt>
      <trkpt lat="47.61635" lon="-3.52585">
        <ele>1.58</ele>
        <time>2016-04-30T15:17:35Z</time>
      </trkpt>
      <trkpt lat="47.61606" lon="-3.52568">
        <ele>2.06</ele>
        <time>2016-04-30T15:17:49Z</time>
      </trkpt>
      <trkpt lat="47.61577" lon="-3.52556">
        <ele>1.58</ele>
        <time>2016-04-30T15:18:01Z</time>
      </trkpt>
      <trkpt lat="47.61548" lon="-3.52543">
        <ele>1.58</ele>
        <time>2016-04-30T15:18:13Z</time>
      </trkpt>
      <trkpt lat="47.61521" lon="-3.52532">
        <ele>1.1</ele>
        <time>2016-04-30T15:18:24Z</time>
      </trkpt>
      <trkpt lat="47.61481" lon="-3.52529">
        <ele>1.1</ele>
        <time>2016-04-30T15:18:39Z</time>
      </trkpt>
      <trkpt lat="47.61448" lon="-3.52516">
        <ele>1.1</ele>
        <time>2016-04-30T15:18:51Z</time>
      </trkpt>
      <trkpt lat="47.61416" lon="-3.52497">
        <ele>1.58</ele>
        <time>2016-04-30T15:19:04Z</time>
      </trkpt>
      <trkpt lat="47.61384" lon="-3.52478">
        <ele>1.58</ele>
        <time>2016-04-30T15:19:18Z</time>
      </trkpt>
      <trkpt lat="47.61362" lon="-3.52457">
        <ele>2.54</ele>
        <time>2016-04-30T15:19:29Z</time>
      </trkpt>
      <trkpt lat="47.61328" lon="-3.52437">
        <ele>0.62</ele>
        <time>2016-04-30T15:19:44Z</time>
      </trkpt>
      <trkpt lat="47.61295" lon="-3.5242">
        <ele>-0.34</ele>
        <time>2016-04-30T15:19:58Z</time>
      </trkpt>
      <trkpt lat="47.61262" lon="-3.52402">
        <ele>-0.34</ele>
        <time>2016-04-30T15:20:11Z</time>
      </trkpt>
      <trkpt lat="47.6123" lon="-3.52378">
        <ele>0.14</ele>
        <time>2016-04-30T15:20:25Z</time>
      </trkpt>
      <trkpt lat="47.612" lon="-3.52361">
        <ele>0.62</ele>
        <time>2016-04-30T15:20:38Z</time>
      </trkpt>
      <trkpt lat="47.61166" lon="-3.52339">
        <ele>1.1</ele>
        <time>2016-04-30T15:20:53Z</time>
      </trkpt>
      <trkpt lat="47.61132" lon="-3.52318">
        <ele>0.62</ele>
        <time>2016-04-30T15:21:07Z</time>
      </trkpt>
      <trkpt lat="47.61102" lon="-3.52303">
        <ele>1.1</ele>
        <time>2016-04-30T15:21:19Z</time>
      </trkpt>
      <trkpt lat="47.6107" lon="-3.52284">
        <ele>1.1</ele>
        <time>2016-04-30T15:21:32Z</time>
      </trkpt>
      <trkpt lat="47.61042" lon="-3.52266">
        <ele>1.1</ele>
        <time>2016-04-30T15:21:44Z</time>
      </trkpt>
      <trkpt lat="47.61015" lon="-3.52244">
        <ele>0.62</ele>
        <time>2016-04-30T15:21:58Z</time>
      </trkpt>
      <trkpt lat="47.60987" lon="-3.52229">
        <ele>0.62</ele>
        <time>2016-04-30T15:22:10Z</time>
      </trkpt>
      <trkpt lat="47.60957" lon="-3.52219">
        <ele>0.62</ele>
        <time>2016-04-30T15:22:21Z</time>
      </trkpt>
      <trkpt lat="47.60919" lon="-3.52203">
        <ele>1.1</ele>
        <time>2016-04-30T15:22:36Z</time>
      </trkpt>
      <trkpt lat="47.6089" lon="-3.52181">
        <ele>0.14</ele>
        <time>2016-04-30T15:22:50Z</time>
      </trkpt>
      <trkpt lat="47.60864" lon="-3.52163">
        <ele>0.62</ele>
        <time>2016-04-30T15:23:02Z</time>
      </trkpt>
      <trkpt lat="47.60826" lon="-3.52146">
        <ele>0.14</ele>
        <time>2016-04-30T15:23:16Z</time>
      </trkpt>
      <trkpt lat="47.60794" lon="-3.52132">
        <ele>0.14</ele>
        <time>2016-04-30T15:23:28Z</time>
      </trkpt>
      <trkpt lat="47.60765" lon="-3.52115">
        <ele>0.14</ele>
        <time>2016-04-30T15:23:40Z</time>
      </trkpt>
      <trkpt lat="47.60734" lon="-3.52094">
        <ele>0.14</ele>
        <time>2016-04-30T15:23:53Z</time>
      </trkpt>
      <trkpt lat="47.60709" lon="-3.52078">
        <ele>-0.34</ele>
        <time>2016-04-30T15:24:03Z</time>
      </trkpt>
      <trkpt lat="47.60679" lon="-3.52059">
        <ele>-0.34</ele>
        <time>2016-04-30T15:24:16Z</time>
      </trkpt>
      <trkpt lat="47.60649" lon="-3.52035">
        <ele>-0.34</ele>
        <time>2016-04-30T15:24:30Z</time>
      </trkpt>
      <trkpt lat="47.60623" lon="-3.52011">
        <ele>0.14</ele>
        <time>2016-04-30T15:24:43Z</time>
      </trkpt>
      <trkpt lat="47.60593" lon="-3.5199">
        <ele>0.14</ele>
        <time>2016-04-30T15:24:56Z</time>
      </trkpt>
      <trkpt lat="47.6056" lon="-3.51966">
        <ele>-0.82</ele>
        <time>2016-04-30T15:25:10Z</time>
      </trkpt>
      <trkpt lat="47.60522" lon="-3.51938">
        <ele>-1.3</ele>
        <time>2016-04-30T15:25:26Z</time>
      </trkpt>
      <trkpt lat="47.60492" lon="-3.51918">
        <ele>-1.3</ele>
        <time>2016-04-30T15:25:38Z</time>
      </trkpt>
      <trkpt lat="47.60463" lon="-3.51899">
        <ele>0.14</ele>
        <time>2016-04-30T15:25:51Z</time>
      </trkpt>
      <trkpt lat="47.60438" lon="-3.51887">
        <ele>-0.82</ele>
        <time>2016-04-30T15:26:01Z</time>
      </trkpt>
      <trkpt lat="47.60407" lon="-3.51868">
        <ele>-1.3</ele>
        <time>2016-04-30T15:26:14Z</time>
      </trkpt>
      <trkpt lat="47.60386" lon="-3.51855">
        <ele>-1.3</ele>
        <time>2016-04-30T15:26:24Z</time>
      </trkpt>
      <trkpt lat="47.60363" lon="-3.51843">
        <ele>-1.79</ele>
        <time>2016-04-30T15:26:34Z</time>
      </trkpt>
      <trkpt lat="47.6034" lon="-3.51832">
        <ele>-1.79</ele>
        <time>2016-04-30T15:26:44Z</time>
      </trkpt>
      <trkpt lat="47.60307" lon="-3.51819">
        <ele>-1.79</ele>
        <time>2016-04-30T15:26:57Z</time>
      </trkpt>
      <trkpt lat="47.60266" lon="-3.51796">
        <ele>-2.27</ele>
        <time>2016-04-30T15:27:14Z</time>
      </trkpt>
      <trkpt lat="47.60234" lon="-3.51781">
        <ele>-1.79</ele>
        <time>2016-04-30T15:27:26Z</time>
      </trkpt>
      <trkpt lat="47.6019" lon="-3.5177">
        <ele>-1.79</ele>
        <time>2016-04-30T15:27:41Z</time>
      </trkpt>
      <trkpt lat="47.60159" lon="-3.51755">
        <ele>-0.82</ele>
        <time>2016-04-30T15:27:53Z</time>
      </trkpt>
      <trkpt lat="47.60128" lon="-3.51732">
        <ele>-0.82</ele>
        <time>2016-04-30T15:28:07Z</time>
      </trkpt>
      <trkpt lat="47.60107" lon="-3.51712">
        <ele>-1.3</ele>
        <time>2016-04-30T15:28:18Z</time>
      </trkpt>
      <trkpt lat="47.60082" lon="-3.51701">
        <ele>0.14</ele>
        <time>2016-04-30T15:28:28Z</time>
      </trkpt>
      <trkpt lat="47.60057" lon="-3.51685">
        <ele>-0.34</ele>
        <time>2016-04-30T15:28:39Z</time>
      </trkpt>
      <trkpt lat="47.60023" lon="-3.51674">
        <ele>-0.34</ele>
        <time>2016-04-30T15:28:52Z</time>
      </trkpt>
      <trkpt lat="47.59993" lon="-3.5166">
        <ele>-0.82</ele>
        <time>2016-04-30T15:29:03Z</time>
      </trkpt>
      <trkpt lat="47.59966" lon="-3.51639">
        <ele>-1.3</ele>
        <time>2016-04-30T15:29:16Z</time>
      </trkpt>
      <trkpt lat="47.59938" lon="-3.51617">
        <ele>-1.79</ele>
        <time>2016-04-30T15:29:30Z</time>
      </trkpt>
      <trkpt lat="47.59912" lon="-3.516">
        <ele>-0.82</ele>
        <time>2016-04-30T15:29:42Z</time>
      </trkpt>
      <trkpt lat="47.59884" lon="-3.51586">
        <ele>-0.82</ele>
        <time>2016-04-30T15:29:54Z</time>
      </trkpt>
      <trkpt lat="47.59845" lon="-3.51578">
        <ele>-0.82</ele>
        <time>2016-04-30T15:30:09Z</time>
      </trkpt>
      <trkpt lat="47.5981" lon="-3.51565">
        <ele>-1.3</ele>
        <time>2016-04-30T15:30:23Z</time>
      </trkpt>
      <trkpt lat="47.59807" lon="-3.51564">
        <ele>-1.3</ele>
        <time>2016-04-30T15:30:24Z</time>
      </trkpt>
      <trkpt lat="47.59795" lon="-3.51559">
        <ele>-1.79</ele>
        <time>2016-04-30T15:30:29Z</time>
      </trkpt>
      <trkpt lat="47.59767" lon="-3.51541">
        <ele>-2.27</ele>
        <time>2016-04-30T15:30:42Z</time>
      </trkpt>
      <trkpt lat="47.59743" lon="-3.51525">
        <ele>-1.79</ele>
        <time>2016-04-30T15:30:53Z</time>
      </trkpt>
      <trkpt lat="47.59722" lon="-3.51509">
        <ele>-1.79</ele>
        <time>2016-04-30T15:31:04Z</time>
      </trkpt>
      <trkpt lat="47.59699" lon="-3.51488">
        <ele>-1.3</ele>
        <time>2016-04-30T15:31:16Z</time>
      </trkpt>
      <trkpt lat="47.59668" lon="-3.51474">
        <ele>-1.3</ele>
        <time>2016-04-30T15:31:29Z</time>
      </trkpt>
      <trkpt lat="47.59657" lon="-3.51467">
        <ele>-1.3</ele>
        <time>2016-04-30T15:31:34Z</time>
      </trkpt>
      <trkpt lat="47.59644" lon="-3.51463">
        <ele>-1.79</ele>
        <time>2016-04-30T15:31:39Z</time>
      </trkpt>
      <trkpt lat="47.59634" lon="-3.51459">
        <ele>-1.79</ele>
        <time>2016-04-30T15:31:43Z</time>
      </trkpt>
      <trkpt lat="47.59618" lon="-3.51454">
        <ele>-1.79</ele>
        <time>2016-04-30T15:31:49Z</time>
      </trkpt>
      <trkpt lat="47.59593" lon="-3.51448">
        <ele>-1.3</ele>
        <time>2016-04-30T15:31:59Z</time>
      </trkpt>
      <trkpt lat="47.59569" lon="-3.51439">
        <ele>-1.79</ele>
        <time>2016-04-30T15:32:09Z</time>
      </trkpt>
      <trkpt lat="47.59543" lon="-3.51425">
        <ele>-1.3</ele>
        <time>2016-04-30T15:32:21Z</time>
      </trkpt>
      <trkpt lat="47.59539" lon="-3.51422">
        <ele>-0.82</ele>
        <time>2016-04-30T15:32:23Z</time>
      </trkpt>
      <trkpt lat="47.59507" lon="-3.51414">
        <ele>-0.82</ele>
        <time>2016-04-30T15:32:37Z</time>
      </trkpt>
      <trkpt lat="47.59488" lon="-3.51415">
        <ele>-0.82</ele>
        <time>2016-04-30T15:32:44Z</time>
      </trkpt>
      <trkpt lat="47.59466" lon="-3.51429">
        <ele>-2.27</ele>
        <time>2016-04-30T15:32:53Z</time>
      </trkpt>
      <trkpt lat="47.59435" lon="-3.51453">
        <ele>-2.75</ele>
        <time>2016-04-30T15:33:06Z</time>
      </trkpt>
      <trkpt lat="47.59432" lon="-3.51453">
        <ele>-2.75</ele>
        <time>2016-04-30T15:33:07Z</time>
      </trkpt>
      <trkpt lat="47.59403" lon="-3.51447">
        <ele>-1.79</ele>
        <time>2016-04-30T15:33:19Z</time>
      </trkpt>
      <trkpt lat="47.59374" lon="-3.51441">
        <ele>-2.27</ele>
        <time>2016-04-30T15:33:31Z</time>
      </trkpt>
      <trkpt lat="47.59345" lon="-3.51439">
        <ele>-2.27</ele>
        <time>2016-04-30T15:33:42Z</time>
      </trkpt>
      <trkpt lat="47.59308" lon="-3.51433">
        <ele>-2.27</ele>
        <time>2016-04-30T15:33:55Z</time>
      </trkpt>
      <trkpt lat="47.59284" lon="-3.51422">
        <ele>-1.3</ele>
        <time>2016-04-30T15:34:06Z</time>
      </trkpt>
      <trkpt lat="47.59262" lon="-3.51409">
        <ele>-0.82</ele>
        <time>2016-04-30T15:34:18Z</time>
      </trkpt>
      <trkpt lat="47.59235" lon="-3.514">
        <ele>-0.82</ele>
        <time>2016-04-30T15:34:31Z</time>
      </trkpt>
      <trkpt lat="47.59204" lon="-3.51398">
        <ele>-1.3</ele>
        <time>2016-04-30T15:34:43Z</time>
      </trkpt>
      <trkpt lat="47.59179" lon="-3.51386">
        <ele>-0.82</ele>
        <time>2016-04-30T15:34:55Z</time>
      </trkpt>
      <trkpt lat="47.59151" lon="-3.51372">
        <ele>-0.82</ele>
        <time>2016-04-30T15:35:09Z</time>
      </trkpt>
      <trkpt lat="47.59124" lon="-3.5136">
        <ele>-1.3</ele>
        <time>2016-04-30T15:35:22Z</time>
      </trkpt>
      <trkpt lat="47.59101" lon="-3.5135">
        <ele>-1.3</ele>
        <time>2016-04-30T15:35:33Z</time>
      </trkpt>
      <trkpt lat="47.59076" lon="-3.51341">
        <ele>-2.75</ele>
        <time>2016-04-30T15:35:44Z</time>
      </trkpt>
      <trkpt lat="47.59046" lon="-3.51327">
        <ele>-2.27</ele>
        <time>2016-04-30T15:35:57Z</time>
      </trkpt>
      <trkpt lat="47.59015" lon="-3.51312">
        <ele>-2.27</ele>
        <time>2016-04-30T15:36:10Z</time>
      </trkpt>
      <trkpt lat="47.58979" lon="-3.51303">
        <ele>-3.71</ele>
        <time>2016-04-30T15:36:24Z</time>
      </trkpt>
      <trkpt lat="47.58957" lon="-3.51289">
        <ele>-5.63</ele>
        <time>2016-04-30T15:36:34Z</time>
      </trkpt>
      <trkpt lat="47.58955" lon="-3.51287">
        <ele>-5.63</ele>
        <time>2016-04-30T15:36:35Z</time>
      </trkpt>
      <trkpt lat="47.58945" lon="-3.51281">
        <ele>-5.15</ele>
        <time>2016-04-30T15:36:40Z</time>
      </trkpt>
      <trkpt lat="47.58928" lon="-3.5127">
        <ele>-5.15</ele>
        <time>2016-04-30T15:36:49Z</time>
      </trkpt>
      <trkpt lat="47.58899" lon="-3.5125">
        <ele>-4.67</ele>
        <time>2016-04-30T15:37:04Z</time>
      </trkpt>
      <trkpt lat="47.58874" lon="-3.51222">
        <ele>-5.15</ele>
        <time>2016-04-30T15:37:19Z</time>
      </trkpt>
      <trkpt lat="47.5885" lon="-3.51212">
        <ele>-5.63</ele>
        <time>2016-04-30T15:37:31Z</time>
      </trkpt>
      <trkpt lat="47.58831" lon="-3.51198">
        <ele>-6.11</ele>
        <time>2016-04-30T15:37:43Z</time>
      </trkpt>
      <trkpt lat="47.58813" lon="-3.51185">
        <ele>-5.63</ele>
        <time>2016-04-30T15:37:54Z</time>
      </trkpt>
      <trkpt lat="47.58796" lon="-3.51171">
        <ele>-5.15</ele>
        <time>2016-04-30T15:38:04Z</time>
      </trkpt>
      <trkpt lat="47.58785" lon="-3.51163">
        <ele>-4.19</ele>
        <time>2016-04-30T15:38:10Z</time>
      </trkpt>
      <trkpt lat="47.58778" lon="-3.51158">
        <ele>-3.71</ele>
        <time>2016-04-30T15:38:14Z</time>
      </trkpt>
      <trkpt lat="47.58762" lon="-3.51134">
        <ele>-3.71</ele>
        <time>2016-04-30T15:38:26Z</time>
      </trkpt>
      <trkpt lat="47.58746" lon="-3.51104">
        <ele>-2.75</ele>
        <time>2016-04-30T15:38:40Z</time>
      </trkpt>
      <trkpt lat="47.5874" lon="-3.51065">
        <ele>-2.75</ele>
        <time>2016-04-30T15:38:54Z</time>
      </trkpt>
      <trkpt lat="47.58738" lon="-3.51046">
        <ele>-3.23</ele>
        <time>2016-04-30T15:39:00Z</time>
      </trkpt>
      <trkpt lat="47.58739" lon="-3.51036">
        <ele>-3.23</ele>
        <time>2016-04-30T15:39:04Z</time>
      </trkpt>
      <trkpt lat="47.58742" lon="-3.50998">
        <ele>-3.71</ele>
        <time>2016-04-30T15:39:17Z</time>
      </trkpt>
      <trkpt lat="47.58737" lon="-3.50952">
        <ele>-4.67</ele>
        <time>2016-04-30T15:39:32Z</time>
      </trkpt>
      <trkpt lat="47.58734" lon="-3.50908">
        <ele>-4.19</ele>
        <time>2016-04-30T15:39:45Z</time>
      </trkpt>
      <trkpt lat="47.58726" lon="-3.50868">
        <ele>-3.23</ele>
        <time>2016-04-30T15:39:58Z</time>
      </trkpt>
      <trkpt lat="47.58719" lon="-3.50821">
        <ele>-2.75</ele>
        <time>2016-04-30T15:40:13Z</time>
      </trkpt>
      <trkpt lat="47.58718" lon="-3.50775">
        <ele>-2.27</ele>
        <time>2016-04-30T15:40:26Z</time>
      </trkpt>
      <trkpt lat="47.58715" lon="-3.50728">
        <ele>-2.75</ele>
        <time>2016-04-30T15:40:39Z</time>
      </trkpt>
      <trkpt lat="47.5871" lon="-3.50678">
        <ele>-2.27</ele>
        <time>2016-04-30T15:40:52Z</time>
      </trkpt>
      <trkpt lat="47.5871" lon="-3.5063">
        <ele>-2.27</ele>
        <time>2016-04-30T15:41:05Z</time>
      </trkpt>
      <trkpt lat="47.58706" lon="-3.5058">
        <ele>-3.23</ele>
        <time>2016-04-30T15:41:17Z</time>
      </trkpt>
      <trkpt lat="47.58705" lon="-3.50517">
        <ele>-2.27</ele>
        <time>2016-04-30T15:41:32Z</time>
      </trkpt>
      <trkpt lat="47.58703" lon="-3.50463">
        <ele>-0.82</ele>
        <time>2016-04-30T15:41:45Z</time>
      </trkpt>
      <trkpt lat="47.58699" lon="-3.50406">
        <ele>0.14</ele>
        <time>2016-04-30T15:41:59Z</time>
      </trkpt>
      <trkpt lat="47.58695" lon="-3.5035">
        <ele>0.62</ele>
        <time>2016-04-30T15:42:12Z</time>
      </trkpt>
      <trkpt lat="47.58689" lon="-3.50296">
        <ele>2.06</ele>
        <time>2016-04-30T15:42:25Z</time>
      </trkpt>
      <trkpt lat="47.58686" lon="-3.50243">
        <ele>2.06</ele>
        <time>2016-04-30T15:42:38Z</time>
      </trkpt>
      <trkpt lat="47.58679" lon="-3.50206">
        <ele>2.54</ele>
        <time>2016-04-30T15:42:48Z</time>
      </trkpt>
      <trkpt lat="47.5868" lon="-3.50165">
        <ele>2.06</ele>
        <time>2016-04-30T15:43:00Z</time>
      </trkpt>
      <trkpt lat="47.58688" lon="-3.50107">
        <ele>0.62</ele>
        <time>2016-04-30T15:43:13Z</time>
      </trkpt>
      <trkpt lat="47.58684" lon="-3.5006">
        <ele>-1.3</ele>
        <time>2016-04-30T15:43:25Z</time>
      </trkpt>
      <trkpt lat="47.58687" lon="-3.50006">
        <ele>-0.82</ele>
        <time>2016-04-30T15:43:37Z</time>
      </trkpt>
      <trkpt lat="47.58689" lon="-3.49961">
        <ele>0.62</ele>
        <time>2016-04-30T15:43:47Z</time>
      </trkpt>
      <trkpt lat="47.5869" lon="-3.49918">
        <ele>0.62</ele>
        <time>2016-04-30T15:43:58Z</time>
      </trkpt>
      <trkpt lat="47.58693" lon="-3.49871">
        <ele>0.62</ele>
        <time>2016-04-30T15:44:09Z</time>
      </trkpt>
      <trkpt lat="47.58689" lon="-3.49824">
        <ele>0.14</ele>
        <time>2016-04-30T15:44:21Z</time>
      </trkpt>
      <trkpt lat="47.58682" lon="-3.49785">
        <ele>-0.34</ele>
        <time>2016-04-30T15:44:31Z</time>
      </trkpt>
      <trkpt lat="47.58693" lon="-3.49737">
        <ele>1.1</ele>
        <time>2016-04-30T15:44:43Z</time>
      </trkpt>
      <trkpt lat="47.58693" lon="-3.49694">
        <ele>1.1</ele>
        <time>2016-04-30T15:44:53Z</time>
      </trkpt>
      <trkpt lat="47.58705" lon="-3.49653">
        <ele>1.58</ele>
        <time>2016-04-30T15:45:04Z</time>
      </trkpt>
      <trkpt lat="47.58708" lon="-3.496">
        <ele>0.62</ele>
        <time>2016-04-30T15:45:17Z</time>
      </trkpt>
      <trkpt lat="47.58713" lon="-3.49542">
        <ele>0.14</ele>
        <time>2016-04-30T15:45:32Z</time>
      </trkpt>
      <trkpt lat="47.58718" lon="-3.49491">
        <ele>0.14</ele>
        <time>2016-04-30T15:45:45Z</time>
      </trkpt>
      <trkpt lat="47.58724" lon="-3.49442">
        <ele>-0.34</ele>
        <time>2016-04-30T15:45:57Z</time>
      </trkpt>
      <trkpt lat="47.58731" lon="-3.49382">
        <ele>0.14</ele>
        <time>2016-04-30T15:46:12Z</time>
      </trkpt>
      <trkpt lat="47.58736" lon="-3.49329">
        <ele>0.14</ele>
        <time>2016-04-30T15:46:25Z</time>
      </trkpt>
      <trkpt lat="47.58742" lon="-3.4927">
        <ele>-0.34</ele>
        <time>2016-04-30T15:46:39Z</time>
      </trkpt>
      <trkpt lat="47.5875" lon="-3.49202">
        <ele>-0.34</ele>
        <time>2016-04-30T15:46:55Z</time>
      </trkpt>
      <trkpt lat="47.58754" lon="-3.49153">
        <ele>-0.82</ele>
        <time>2016-04-30T15:47:07Z</time>
      </trkpt>
      <trkpt lat="47.58758" lon="-3.49102">
        <ele>0.62</ele>
        <time>2016-04-30T15:47:18Z</time>
      </trkpt>
      <trkpt lat="47.58757" lon="-3.49067">
        <ele>-0.34</ele>
        <time>2016-04-30T15:47:26Z</time>
      </trkpt>
      <trkpt lat="47.58757" lon="-3.49053">
        <ele>-0.82</ele>
        <time>2016-04-30T15:47:30Z</time>
      </trkpt>
      <trkpt lat="47.5876" lon="-3.49038">
        <ele>-0.82</ele>
        <time>2016-04-30T15:47:34Z</time>
      </trkpt>
      <trkpt lat="47.5877" lon="-3.48976">
        <ele>-0.82</ele>
        <time>2016-04-30T15:47:50Z</time>
      </trkpt>
      <trkpt lat="47.58771" lon="-3.48934">
        <ele>-1.3</ele>
        <time>2016-04-30T15:48:01Z</time>
      </trkpt>
      <trkpt lat="47.58775" lon="-3.48887">
        <ele>-1.3</ele>
        <time>2016-04-30T15:48:12Z</time>
      </trkpt>
      <trkpt lat="47.58776" lon="-3.48828">
        <ele>-2.27</ele>
        <time>2016-04-30T15:48:26Z</time>
      </trkpt>
      <trkpt lat="47.58775" lon="-3.48786">
        <ele>-2.27</ele>
        <time>2016-04-30T15:48:36Z</time>
      </trkpt>
      <trkpt lat="47.58775" lon="-3.4873">
        <ele>-1.3</ele>
        <time>2016-04-30T15:48:50Z</time>
      </trkpt>
      <trkpt lat="47.58773" lon="-3.4868">
        <ele>-0.82</ele>
        <time>2016-04-30T15:49:02Z</time>
      </trkpt>
      <trkpt lat="47.58774" lon="-3.48615">
        <ele>-2.27</ele>
        <time>2016-04-30T15:49:17Z</time>
      </trkpt>
      <trkpt lat="47.58769" lon="-3.48558">
        <ele>-1.3</ele>
        <time>2016-04-30T15:49:30Z</time>
      </trkpt>
      <trkpt lat="47.58762" lon="-3.48503">
        <ele>-1.79</ele>
        <time>2016-04-30T15:49:44Z</time>
      </trkpt>
      <trkpt lat="47.58768" lon="-3.4844">
        <ele>-0.82</ele>
        <time>2016-04-30T15:49:59Z</time>
      </trkpt>
      <trkpt lat="47.58774" lon="-3.48393">
        <ele>-0.34</ele>
        <time>2016-04-30T15:50:10Z</time>
      </trkpt>
      <trkpt lat="47.58773" lon="-3.48352">
        <ele>-0.34</ele>
        <time>2016-04-30T15:50:20Z</time>
      </trkpt>
      <trkpt lat="47.58773" lon="-3.48302">
        <ele>-0.34</ele>
        <time>2016-04-30T15:50:32Z</time>
      </trkpt>
      <trkpt lat="47.58784" lon="-3.48231">
        <ele>0.14</ele>
        <time>2016-04-30T15:50:49Z</time>
      </trkpt>
      <trkpt lat="47.58781" lon="-3.48164">
        <ele>-0.34</ele>
        <time>2016-04-30T15:51:05Z</time>
      </trkpt>
      <trkpt lat="47.58784" lon="-3.48116">
        <ele>-0.82</ele>
        <time>2016-04-30T15:51:16Z</time>
      </trkpt>
      <trkpt lat="47.58785" lon="-3.48073">
        <ele>-1.79</ele>
        <time>2016-04-30T15:51:27Z</time>
      </trkpt>
      <trkpt lat="47.58785" lon="-3.48022">
        <ele>-1.79</ele>
        <time>2016-04-30T15:51:39Z</time>
      </trkpt>
      <trkpt lat="47.58786" lon="-3.47971">
        <ele>-3.23</ele>
        <time>2016-04-30T15:51:50Z</time>
      </trkpt>
      <trkpt lat="47.58782" lon="-3.47923">
        <ele>-3.23</ele>
        <time>2016-04-30T15:52:01Z</time>
      </trkpt>
      <trkpt lat="47.58782" lon="-3.4787">
        <ele>-2.75</ele>
        <time>2016-04-30T15:52:14Z</time>
      </trkpt>
      <trkpt lat="47.58783" lon="-3.47814">
        <ele>-2.27</ele>
        <time>2016-04-30T15:52:27Z</time>
      </trkpt>
      <trkpt lat="47.58776" lon="-3.47755">
        <ele>-1.3</ele>
        <time>2016-04-30T15:52:41Z</time>
      </trkpt>
      <trkpt lat="47.58785" lon="-3.47698">
        <ele>-1.3</ele>
        <time>2016-04-30T15:52:55Z</time>
      </trkpt>
      <trkpt lat="47.58788" lon="-3.47645">
        <ele>-0.82</ele>
        <time>2016-04-30T15:53:08Z</time>
      </trkpt>
      <trkpt lat="47.58791" lon="-3.47614">
        <ele>-0.82</ele>
        <time>2016-04-30T15:53:15Z</time>
      </trkpt>
      <trkpt lat="47.58787" lon="-3.47567">
        <ele>-2.75</ele>
        <time>2016-04-30T15:53:27Z</time>
      </trkpt>
      <trkpt lat="47.58786" lon="-3.47521">
        <ele>-2.75</ele>
        <time>2016-04-30T15:53:38Z</time>
      </trkpt>
      <trkpt lat="47.58789" lon="-3.4747">
        <ele>-2.27</ele>
        <time>2016-04-30T15:53:49Z</time>
      </trkpt>
      <trkpt lat="47.58795" lon="-3.47455">
        <ele>-1.79</ele>
        <time>2016-04-30T15:53:53Z</time>
      </trkpt>
      <trkpt lat="47.58803" lon="-3.47397">
        <ele>-1.79</ele>
        <time>2016-04-30T15:54:07Z</time>
      </trkpt>
      <trkpt lat="47.58812" lon="-3.47327">
        <ele>-1.3</ele>
        <time>2016-04-30T15:54:23Z</time>
      </trkpt>
      <trkpt lat="47.58815" lon="-3.47268">
        <ele>-0.82</ele>
        <time>2016-04-30T15:54:37Z</time>
      </trkpt>
      <trkpt lat="47.58825" lon="-3.47215">
        <ele>-0.34</ele>
        <time>2016-04-30T15:54:49Z</time>
      </trkpt>
      <trkpt lat="47.58829" lon="-3.47155">
        <ele>-0.34</ele>
        <time>2016-04-30T15:55:04Z</time>
      </trkpt>
      <trkpt lat="47.58838" lon="-3.47097">
        <ele>-0.34</ele>
        <time>2016-04-30T15:55:18Z</time>
      </trkpt>
      <trkpt lat="47.58847" lon="-3.47041">
        <ele>0.14</ele>
        <time>2016-04-30T15:55:30Z</time>
      </trkpt>
      <trkpt lat="47.58852" lon="-3.47001">
        <ele>0.62</ele>
        <time>2016-04-30T15:55:40Z</time>
      </trkpt>
      <trkpt lat="47.58866" lon="-3.46947">
        <ele>0.14</ele>
        <time>2016-04-30T15:55:53Z</time>
      </trkpt>
      <trkpt lat="47.58888" lon="-3.46885">
        <ele>-0.34</ele>
        <time>2016-04-30T15:56:09Z</time>
      </trkpt>
      <trkpt lat="47.58908" lon="-3.46833">
        <ele>0.14</ele>
        <time>2016-04-30T15:56:22Z</time>
      </trkpt>
      <trkpt lat="47.5893" lon="-3.46785">
        <ele>-0.34</ele>
        <time>2016-04-30T15:56:35Z</time>
      </trkpt>
      <trkpt lat="47.58948" lon="-3.4673">
        <ele>-0.82</ele>
        <time>2016-04-30T15:56:48Z</time>
      </trkpt>
      <trkpt lat="47.58957" lon="-3.46687">
        <ele>-1.3</ele>
        <time>2016-04-30T15:56:59Z</time>
      </trkpt>
      <trkpt lat="47.58957" lon="-3.46628">
        <ele>-0.34</ele>
        <time>2016-04-30T15:57:13Z</time>
      </trkpt>
      <trkpt lat="47.58961" lon="-3.46571">
        <ele>-0.34</ele>
        <time>2016-04-30T15:57:26Z</time>
      </trkpt>
      <trkpt lat="47.58975" lon="-3.46513">
        <ele>-1.3</ele>
        <time>2016-04-30T15:57:40Z</time>
      </trkpt>
      <trkpt lat="47.58981" lon="-3.46461">
        <ele>-0.34</ele>
        <time>2016-04-30T15:57:52Z</time>
      </trkpt>
      <trkpt lat="47.58986" lon="-3.46407">
        <ele>-0.82</ele>
        <time>2016-04-30T15:58:05Z</time>
      </trkpt>
      <trkpt lat="47.59" lon="-3.46368">
        <ele>-1.3</ele>
        <time>2016-04-30T15:58:15Z</time>
      </trkpt>
      <trkpt lat="47.59004" lon="-3.46329">
        <ele>-0.82</ele>
        <time>2016-04-30T15:58:24Z</time>
      </trkpt>
      <trkpt lat="47.59006" lon="-3.46318">
        <ele>-0.82</ele>
        <time>2016-04-30T15:58:27Z</time>
      </trkpt>
      <trkpt lat="47.59009" lon="-3.46301">
        <ele>-0.82</ele>
        <time>2016-04-30T15:58:30Z</time>
      </trkpt>
      <trkpt lat="47.59006" lon="-3.46248">
        <ele>-1.3</ele>
        <time>2016-04-30T15:58:42Z</time>
      </trkpt>
      <trkpt lat="47.59007" lon="-3.46199">
        <ele>-1.3</ele>
        <time>2016-04-30T15:58:53Z</time>
      </trkpt>
      <trkpt lat="47.59009" lon="-3.46137">
        <ele>-1.3</ele>
        <time>2016-04-30T15:59:08Z</time>
      </trkpt>
      <trkpt lat="47.59013" lon="-3.46084">
        <ele>-2.27</ele>
        <time>2016-04-30T15:59:20Z</time>
      </trkpt>
      <trkpt lat="47.59015" lon="-3.46017">
        <ele>-1.3</ele>
        <time>2016-04-30T15:59:37Z</time>
      </trkpt>
      <trkpt lat="47.59024" lon="-3.4596">
        <ele>-1.3</ele>
        <time>2016-04-30T15:59:51Z</time>
      </trkpt>
      <trkpt lat="47.59035" lon="-3.45924">
        <ele>-1.3</ele>
        <time>2016-04-30T16:00:00Z</time>
      </trkpt>
      <trkpt lat="47.59043" lon="-3.45882">
        <ele>-0.82</ele>
        <time>2016-04-30T16:00:10Z</time>
      </trkpt>
      <trkpt lat="47.59059" lon="-3.45817">
        <ele>-0.34</ele>
        <time>2016-04-30T16:00:25Z</time>
      </trkpt>
      <trkpt lat="47.59065" lon="-3.45756">
        <ele>-0.34</ele>
        <time>2016-04-30T16:00:39Z</time>
      </trkpt>
      <trkpt lat="47.59073" lon="-3.45708">
        <ele>-0.82</ele>
        <time>2016-04-30T16:00:50Z</time>
      </trkpt>
      <trkpt lat="47.59082" lon="-3.45653">
        <ele>-0.34</ele>
        <time>2016-04-30T16:01:03Z</time>
      </trkpt>
      <trkpt lat="47.59088" lon="-3.45598">
        <ele>-0.82</ele>
        <time>2016-04-30T16:01:16Z</time>
      </trkpt>
      <trkpt lat="47.5909" lon="-3.45557">
        <ele>-1.3</ele>
        <time>2016-04-30T16:01:26Z</time>
      </trkpt>
      <trkpt lat="47.5909" lon="-3.45514">
        <ele>-2.27</ele>
        <time>2016-04-30T16:01:36Z</time>
      </trkpt>
      <trkpt lat="47.59089" lon="-3.45482">
        <ele>-2.27</ele>
        <time>2016-04-30T16:01:44Z</time>
      </trkpt>
      <trkpt lat="47.59084" lon="-3.45444">
        <ele>-2.27</ele>
        <time>2016-04-30T16:01:54Z</time>
      </trkpt>
      <trkpt lat="47.59075" lon="-3.45398">
        <ele>-1.79</ele>
        <time>2016-04-30T16:02:07Z</time>
      </trkpt>
      <trkpt lat="47.59077" lon="-3.45344">
        <ele>-1.3</ele>
        <time>2016-04-30T16:02:20Z</time>
      </trkpt>
      <trkpt lat="47.59086" lon="-3.45295">
        <ele>-0.82</ele>
        <time>2016-04-30T16:02:32Z</time>
      </trkpt>
      <trkpt lat="47.59094" lon="-3.45248">
        <ele>-1.3</ele>
        <time>2016-04-30T16:02:43Z</time>
      </trkpt>
      <trkpt lat="47.591" lon="-3.45195">
        <ele>-1.3</ele>
        <time>2016-04-30T16:02:56Z</time>
      </trkpt>
      <trkpt lat="47.59109" lon="-3.45139">
        <ele>-0.82</ele>
        <time>2016-04-30T16:03:10Z</time>
      </trkpt>
      <trkpt lat="47.59115" lon="-3.45088">
        <ele>-1.3</ele>
        <time>2016-04-30T16:03:23Z</time>
      </trkpt>
      <trkpt lat="47.59118" lon="-3.45028">
        <ele>-0.34</ele>
        <time>2016-04-30T16:03:38Z</time>
      </trkpt>
      <trkpt lat="47.5913" lon="-3.44974">
        <ele>-0.34</ele>
        <time>2016-04-30T16:03:50Z</time>
      </trkpt>
      <trkpt lat="47.59133" lon="-3.44929">
        <ele>-0.34</ele>
        <time>2016-04-30T16:04:02Z</time>
      </trkpt>
      <trkpt lat="47.59138" lon="-3.4487">
        <ele>0.14</ele>
        <time>2016-04-30T16:04:16Z</time>
      </trkpt>
      <trkpt lat="47.59141" lon="-3.44816">
        <ele>-0.34</ele>
        <time>2016-04-30T16:04:29Z</time>
      </trkpt>
      <trkpt lat="47.5915" lon="-3.44747">
        <ele>0.14</ele>
        <time>2016-04-30T16:04:46Z</time>
      </trkpt>
      <trkpt lat="47.59167" lon="-3.44691">
        <ele>-0.34</ele>
        <time>2016-04-30T16:05:00Z</time>
      </trkpt>
      <trkpt lat="47.59193" lon="-3.4464">
        <ele>-0.34</ele>
        <time>2016-04-30T16:05:14Z</time>
      </trkpt>
      <trkpt lat="47.59213" lon="-3.44592">
        <ele>-0.82</ele>
        <time>2016-04-30T16:05:27Z</time>
      </trkpt>
      <trkpt lat="47.59225" lon="-3.44548">
        <ele>-1.3</ele>
        <time>2016-04-30T16:05:38Z</time>
      </trkpt>
      <trkpt lat="47.59242" lon="-3.44504">
        <ele>-1.3</ele>
        <time>2016-04-30T16:05:49Z</time>
      </trkpt>
      <trkpt lat="47.59253" lon="-3.4445">
        <ele>-1.3</ele>
        <time>2016-04-30T16:06:02Z</time>
      </trkpt>
      <trkpt lat="47.59266" lon="-3.44391">
        <ele>-0.82</ele>
        <time>2016-04-30T16:06:17Z</time>
      </trkpt>
      <trkpt lat="47.5928" lon="-3.44336">
        <ele>-0.82</ele>
        <time>2016-04-30T16:06:31Z</time>
      </trkpt>
      <trkpt lat="47.5929" lon="-3.44284">
        <ele>-1.3</ele>
        <time>2016-04-30T16:06:44Z</time>
      </trkpt>
      <trkpt lat="47.5929" lon="-3.44236">
        <ele>-1.3</ele>
        <time>2016-04-30T16:06:57Z</time>
      </trkpt>
      <trkpt lat="47.59292" lon="-3.44189">
        <ele>-1.79</ele>
        <time>2016-04-30T16:07:10Z</time>
      </trkpt>
      <trkpt lat="47.59293" lon="-3.44148">
        <ele>-2.27</ele>
        <time>2016-04-30T16:07:21Z</time>
      </trkpt>
      <trkpt lat="47.59289" lon="-3.44102">
        <ele>-2.27</ele>
        <time>2016-04-30T16:07:33Z</time>
      </trkpt>
      <trkpt lat="47.59286" lon="-3.4405">
        <ele>-1.79</ele>
        <time>2016-04-30T16:07:47Z</time>
      </trkpt>
      <trkpt lat="47.59285" lon="-3.4401">
        <ele>-1.79</ele>
        <time>2016-04-30T16:07:57Z</time>
      </trkpt>
      <trkpt lat="47.59288" lon="-3.43967">
        <ele>-1.79</ele>
        <time>2016-04-30T16:08:07Z</time>
      </trkpt>
      <trkpt lat="47.59291" lon="-3.43936">
        <ele>-0.82</ele>
        <time>2016-04-30T16:08:15Z</time>
      </trkpt>
      <trkpt lat="47.59297" lon="-3.43895">
        <ele>-0.82</ele>
        <time>2016-04-30T16:08:26Z</time>
      </trkpt>
      <trkpt lat="47.59308" lon="-3.4385">
        <ele>-0.34</ele>
        <time>2016-04-30T16:08:37Z</time>
      </trkpt>
      <trkpt lat="47.59309" lon="-3.43812">
        <ele>-0.82</ele>
        <time>2016-04-30T16:08:46Z</time>
      </trkpt>
      <trkpt lat="47.59308" lon="-3.4377">
        <ele>-1.79</ele>
        <time>2016-04-30T16:08:57Z</time>
      </trkpt>
      <trkpt lat="47.59311" lon="-3.43729">
        <ele>-1.79</ele>
        <time>2016-04-30T16:09:07Z</time>
      </trkpt>
      <trkpt lat="47.59317" lon="-3.43669">
        <ele>-2.27</ele>
        <time>2016-04-30T16:09:22Z</time>
      </trkpt>
      <trkpt lat="47.59324" lon="-3.43592">
        <ele>-1.79</ele>
        <time>2016-04-30T16:09:42Z</time>
      </trkpt>
      <trkpt lat="47.59325" lon="-3.43533">
        <ele>-1.79</ele>
        <time>2016-04-30T16:09:56Z</time>
      </trkpt>
      <trkpt lat="47.59329" lon="-3.43453">
        <ele>-1.3</ele>
        <time>2016-04-30T16:10:15Z</time>
      </trkpt>
      <trkpt lat="47.59333" lon="-3.434">
        <ele>-0.82</ele>
        <time>2016-04-30T16:10:28Z</time>
      </trkpt>
      <trkpt lat="47.59339" lon="-3.43348">
        <ele>-0.34</ele>
        <time>2016-04-30T16:10:40Z</time>
      </trkpt>
      <trkpt lat="47.59342" lon="-3.43302">
        <ele>-0.82</ele>
        <time>2016-04-30T16:10:51Z</time>
      </trkpt>
      <trkpt lat="47.59345" lon="-3.43253">
        <ele>-0.34</ele>
        <time>2016-04-30T16:11:03Z</time>
      </trkpt>
      <trkpt lat="47.5935" lon="-3.43197">
        <ele>-0.34</ele>
        <time>2016-04-30T16:11:17Z</time>
      </trkpt>
      <trkpt lat="47.59355" lon="-3.43147">
        <ele>-0.82</ele>
        <time>2016-04-30T16:11:28Z</time>
      </trkpt>
      <trkpt lat="47.59363" lon="-3.431">
        <ele>-1.79</ele>
        <time>2016-04-30T16:11:38Z</time>
      </trkpt>
      <trkpt lat="47.59368" lon="-3.43034">
        <ele>-0.82</ele>
        <time>2016-04-30T16:11:54Z</time>
      </trkpt>
      <trkpt lat="47.59372" lon="-3.42987">
        <ele>-0.82</ele>
        <time>2016-04-30T16:12:05Z</time>
      </trkpt>
      <trkpt lat="47.59378" lon="-3.42939">
        <ele>-1.3</ele>
        <time>2016-04-30T16:12:17Z</time>
      </trkpt>
      <trkpt lat="47.59385" lon="-3.42886">
        <ele>-0.82</ele>
        <time>2016-04-30T16:12:29Z</time>
      </trkpt>
      <trkpt lat="47.59387" lon="-3.4284">
        <ele>-0.82</ele>
        <time>2016-04-30T16:12:40Z</time>
      </trkpt>
      <trkpt lat="47.59391" lon="-3.42793">
        <ele>-0.82</ele>
        <time>2016-04-30T16:12:52Z</time>
      </trkpt>
      <trkpt lat="47.59395" lon="-3.42734">
        <ele>-0.82</ele>
        <time>2016-04-30T16:13:06Z</time>
      </trkpt>
      <trkpt lat="47.59399" lon="-3.42683">
        <ele>-0.82</ele>
        <time>2016-04-30T16:13:17Z</time>
      </trkpt>
      <trkpt lat="47.59404" lon="-3.42624">
        <ele>-0.82</ele>
        <time>2016-04-30T16:13:31Z</time>
      </trkpt>
      <trkpt lat="47.59408" lon="-3.42557">
        <ele>-1.79</ele>
        <time>2016-04-30T16:13:46Z</time>
      </trkpt>
      <trkpt lat="47.59415" lon="-3.42494">
        <ele>-1.3</ele>
        <time>2016-04-30T16:13:59Z</time>
      </trkpt>
      <trkpt lat="47.59419" lon="-3.42437">
        <ele>0.14</ele>
        <time>2016-04-30T16:14:12Z</time>
      </trkpt>
      <trkpt lat="47.59421" lon="-3.42395">
        <ele>0.14</ele>
        <time>2016-04-30T16:14:23Z</time>
      </trkpt>
      <trkpt lat="47.59419" lon="-3.42343">
        <ele>0.62</ele>
        <time>2016-04-30T16:14:36Z</time>
      </trkpt>
      <trkpt lat="47.59417" lon="-3.42298">
        <ele>-0.82</ele>
        <time>2016-04-30T16:14:47Z</time>
      </trkpt>
      <trkpt lat="47.59411" lon="-3.42252">
        <ele>-0.34</ele>
        <time>2016-04-30T16:14:59Z</time>
      </trkpt>
      <trkpt lat="47.59395" lon="-3.42195">
        <ele>-0.82</ele>
        <time>2016-04-30T16:15:15Z</time>
      </trkpt>
      <trkpt lat="47.59385" lon="-3.42148">
        <ele>-1.79</ele>
        <time>2016-04-30T16:15:28Z</time>
      </trkpt>
      <trkpt lat="47.59391" lon="-3.42085">
        <ele>-2.27</ele>
        <time>2016-04-30T16:15:40Z</time>
      </trkpt>
      <trkpt lat="47.59392" lon="-3.42023">
        <ele>-2.27</ele>
        <time>2016-04-30T16:15:52Z</time>
      </trkpt>
      <trkpt lat="47.59396" lon="-3.41952">
        <ele>-2.27</ele>
        <time>2016-04-30T16:16:06Z</time>
      </trkpt>
      <trkpt lat="47.59399" lon="-3.41881">
        <ele>-2.75</ele>
        <time>2016-04-30T16:16:21Z</time>
      </trkpt>
      <trkpt lat="47.59405" lon="-3.41828">
        <ele>-3.23</ele>
        <time>2016-04-30T16:16:34Z</time>
      </trkpt>
      <trkpt lat="47.59412" lon="-3.4177">
        <ele>-2.75</ele>
        <time>2016-04-30T16:16:47Z</time>
      </trkpt>
      <trkpt lat="47.59416" lon="-3.41723">
        <ele>-3.71</ele>
        <time>2016-04-30T16:16:57Z</time>
      </trkpt>
      <trkpt lat="47.5942" lon="-3.41673">
        <ele>-2.75</ele>
        <time>2016-04-30T16:17:09Z</time>
      </trkpt>
      <trkpt lat="47.59425" lon="-3.41617">
        <ele>-1.79</ele>
        <time>2016-04-30T16:17:22Z</time>
      </trkpt>
      <trkpt lat="47.59429" lon="-3.41557">
        <ele>-1.79</ele>
        <time>2016-04-30T16:17:36Z</time>
      </trkpt>
      <trkpt lat="47.59432" lon="-3.41501">
        <ele>-2.75</ele>
        <time>2016-04-30T16:17:50Z</time>
      </trkpt>
      <trkpt lat="47.59435" lon="-3.4145">
        <ele>-2.27</ele>
        <time>2016-04-30T16:18:03Z</time>
      </trkpt>
      <trkpt lat="47.5944" lon="-3.41397">
        <ele>-3.23</ele>
        <time>2016-04-30T16:18:16Z</time>
      </trkpt>
      <trkpt lat="47.59446" lon="-3.41348">
        <ele>-3.23</ele>
        <time>2016-04-30T16:18:28Z</time>
      </trkpt>
      <trkpt lat="47.59449" lon="-3.41298">
        <ele>-2.75</ele>
        <time>2016-04-30T16:18:40Z</time>
      </trkpt>
      <trkpt lat="47.59451" lon="-3.41248">
        <ele>-3.23</ele>
        <time>2016-04-30T16:18:52Z</time>
      </trkpt>
      <trkpt lat="47.59456" lon="-3.41198">
        <ele>-2.75</ele>
        <time>2016-04-30T16:19:04Z</time>
      </trkpt>
      <trkpt lat="47.59462" lon="-3.41144">
        <ele>-2.75</ele>
        <time>2016-04-30T16:19:16Z</time>
      </trkpt>
      <trkpt lat="47.59467" lon="-3.41089">
        <ele>-3.71</ele>
        <time>2016-04-30T16:19:28Z</time>
      </trkpt>
      <trkpt lat="47.59469" lon="-3.41039">
        <ele>-3.71</ele>
        <time>2016-04-30T16:19:40Z</time>
      </trkpt>
      <trkpt lat="47.59473" lon="-3.4098">
        <ele>-2.75</ele>
        <time>2016-04-30T16:19:54Z</time>
      </trkpt>
      <trkpt lat="47.59477" lon="-3.40937">
        <ele>-2.75</ele>
        <time>2016-04-30T16:20:04Z</time>
      </trkpt>
      <trkpt lat="47.59482" lon="-3.40885">
        <ele>-2.27</ele>
        <time>2016-04-30T16:20:16Z</time>
      </trkpt>
      <trkpt lat="47.59485" lon="-3.40831">
        <ele>-1.79</ele>
        <time>2016-04-30T16:20:29Z</time>
      </trkpt>
      <trkpt lat="47.5949" lon="-3.4078">
        <ele>-1.3</ele>
        <time>2016-04-30T16:20:42Z</time>
      </trkpt>
      <trkpt lat="47.59498" lon="-3.40731">
        <ele>-0.34</ele>
        <time>2016-04-30T16:20:54Z</time>
      </trkpt>
      <trkpt lat="47.59509" lon="-3.40671">
        <ele>0.14</ele>
        <time>2016-04-30T16:21:09Z</time>
      </trkpt>
      <trkpt lat="47.59514" lon="-3.40626">
        <ele>-0.34</ele>
        <time>2016-04-30T16:21:20Z</time>
      </trkpt>
      <trkpt lat="47.59517" lon="-3.40573">
        <ele>0.62</ele>
        <time>2016-04-30T16:21:33Z</time>
      </trkpt>
      <trkpt lat="47.5952" lon="-3.40531">
        <ele>0.62</ele>
        <time>2016-04-30T16:21:44Z</time>
      </trkpt>
      <trkpt lat="47.59524" lon="-3.40491">
        <ele>1.1</ele>
        <time>2016-04-30T16:21:54Z</time>
      </trkpt>
      <trkpt lat="47.5953" lon="-3.40435">
        <ele>1.1</ele>
        <time>2016-04-30T16:22:08Z</time>
      </trkpt>
      <trkpt lat="47.59532" lon="-3.40388">
        <ele>0.62</ele>
        <time>2016-04-30T16:22:20Z</time>
      </trkpt>
      <trkpt lat="47.59537" lon="-3.40323">
        <ele>0.62</ele>
        <time>2016-04-30T16:22:36Z</time>
      </trkpt>
      <trkpt lat="47.59538" lon="-3.40274">
        <ele>0.14</ele>
        <time>2016-04-30T16:22:48Z</time>
      </trkpt>
      <trkpt lat="47.5954" lon="-3.40227">
        <ele>0.62</ele>
        <time>2016-04-30T16:23:00Z</time>
      </trkpt>
      <trkpt lat="47.5954" lon="-3.40186">
        <ele>0.62</ele>
        <time>2016-04-30T16:23:11Z</time>
      </trkpt>
      <trkpt lat="47.59544" lon="-3.40142">
        <ele>0.62</ele>
        <time>2016-04-30T16:23:23Z</time>
      </trkpt>
      <trkpt lat="47.59549" lon="-3.40094">
        <ele>-0.34</ele>
        <time>2016-04-30T16:23:35Z</time>
      </trkpt>
      <trkpt lat="47.59556" lon="-3.40039">
        <ele>-0.82</ele>
        <time>2016-04-30T16:23:48Z</time>
      </trkpt>
      <trkpt lat="47.59561" lon="-3.39989">
        <ele>-1.79</ele>
        <time>2016-04-30T16:24:00Z</time>
      </trkpt>
      <trkpt lat="47.59568" lon="-3.39947">
        <ele>-1.79</ele>
        <time>2016-04-30T16:24:10Z</time>
      </trkpt>
      <trkpt lat="47.59572" lon="-3.39898">
        <ele>-1.79</ele>
        <time>2016-04-30T16:24:21Z</time>
      </trkpt>
      <trkpt lat="47.59579" lon="-3.39835">
        <ele>-1.3</ele>
        <time>2016-04-30T16:24:35Z</time>
      </trkpt>
      <trkpt lat="47.59587" lon="-3.39795">
        <ele>-0.34</ele>
        <time>2016-04-30T16:24:45Z</time>
      </trkpt>
      <trkpt lat="47.59605" lon="-3.3975">
        <ele>-0.34</ele>
        <time>2016-04-30T16:24:57Z</time>
      </trkpt>
      <trkpt lat="47.5962" lon="-3.39705">
        <ele>-0.82</ele>
        <time>2016-04-30T16:25:08Z</time>
      </trkpt>
      <trkpt lat="47.59625" lon="-3.39661">
        <ele>-1.3</ele>
        <time>2016-04-30T16:25:19Z</time>
      </trkpt>
      <trkpt lat="47.5963" lon="-3.39617">
        <ele>-1.79</ele>
        <time>2016-04-30T16:25:30Z</time>
      </trkpt>
      <trkpt lat="47.59628" lon="-3.39569">
        <ele>-0.34</ele>
        <time>2016-04-30T16:25:43Z</time>
      </trkpt>
      <trkpt lat="47.59627" lon="-3.39527">
        <ele>-2.27</ele>
        <time>2016-04-30T16:25:55Z</time>
      </trkpt>
      <trkpt lat="47.59632" lon="-3.3948">
        <ele>-0.82</ele>
        <time>2016-04-30T16:26:08Z</time>
      </trkpt>
      <trkpt lat="47.59637" lon="-3.3943">
        <ele>-0.34</ele>
        <time>2016-04-30T16:26:20Z</time>
      </trkpt>
      <trkpt lat="47.59642" lon="-3.39359">
        <ele>0.62</ele>
        <time>2016-04-30T16:26:36Z</time>
      </trkpt>
      <trkpt lat="47.59646" lon="-3.39303">
        <ele>1.1</ele>
        <time>2016-04-30T16:26:49Z</time>
      </trkpt>
      <trkpt lat="47.5965" lon="-3.39247">
        <ele>1.1</ele>
        <time>2016-04-30T16:27:02Z</time>
      </trkpt>
      <trkpt lat="47.59654" lon="-3.39186">
        <ele>0.62</ele>
        <time>2016-04-30T16:27:16Z</time>
      </trkpt>
      <trkpt lat="47.59663" lon="-3.39117">
        <ele>1.58</ele>
        <time>2016-04-30T16:27:32Z</time>
      </trkpt>
      <trkpt lat="47.59678" lon="-3.39048">
        <ele>0.14</ele>
        <time>2016-04-30T16:27:47Z</time>
      </trkpt>
      <trkpt lat="47.5969" lon="-3.38995">
        <ele>0.62</ele>
        <time>2016-04-30T16:28:00Z</time>
      </trkpt>
      <trkpt lat="47.5971" lon="-3.38943">
        <ele>-0.34</ele>
        <time>2016-04-30T16:28:13Z</time>
      </trkpt>
      <trkpt lat="47.59725" lon="-3.38899">
        <ele>-0.34</ele>
        <time>2016-04-30T16:28:24Z</time>
      </trkpt>
      <trkpt lat="47.59747" lon="-3.38843">
        <ele>0.14</ele>
        <time>2016-04-30T16:28:38Z</time>
      </trkpt>
      <trkpt lat="47.59758" lon="-3.38814">
        <ele>0.14</ele>
        <time>2016-04-30T16:28:45Z</time>
      </trkpt>
      <trkpt lat="47.5978" lon="-3.38775">
        <ele>0.14</ele>
        <time>2016-04-30T16:28:56Z</time>
      </trkpt>
      <trkpt lat="47.59803" lon="-3.38725">
        <ele>0.14</ele>
        <time>2016-04-30T16:29:10Z</time>
      </trkpt>
      <trkpt lat="47.59831" lon="-3.38694">
        <ele>-1.3</ele>
        <time>2016-04-30T16:29:23Z</time>
      </trkpt>
      <trkpt lat="47.59849" lon="-3.38667">
        <ele>0.14</ele>
        <time>2016-04-30T16:29:34Z</time>
      </trkpt>
      <trkpt lat="47.59856" lon="-3.38657">
        <ele>-0.34</ele>
        <time>2016-04-30T16:29:38Z</time>
      </trkpt>
      <trkpt lat="47.59883" lon="-3.38623">
        <ele>-0.34</ele>
        <time>2016-04-30T16:29:52Z</time>
      </trkpt>
      <trkpt lat="47.59905" lon="-3.3858">
        <ele>-0.34</ele>
        <time>2016-04-30T16:30:05Z</time>
      </trkpt>
      <trkpt lat="47.59926" lon="-3.38542">
        <ele>-1.79</ele>
        <time>2016-04-30T16:30:17Z</time>
      </trkpt>
      <trkpt lat="47.59942" lon="-3.38506">
        <ele>-0.82</ele>
        <time>2016-04-30T16:30:29Z</time>
      </trkpt>
      <trkpt lat="47.59973" lon="-3.38488">
        <ele>0.14</ele>
        <time>2016-04-30T16:30:43Z</time>
      </trkpt>
      <trkpt lat="47.59979" lon="-3.38485">
        <ele>0.14</ele>
        <time>2016-04-30T16:30:46Z</time>
      </trkpt>
      <trkpt lat="47.59988" lon="-3.38483">
        <ele>-0.82</ele>
        <time>2016-04-30T16:30:50Z</time>
      </trkpt>
      <trkpt lat="47.60015" lon="-3.38479">
        <ele>-0.82</ele>
        <time>2016-04-30T16:31:02Z</time>
      </trkpt>
      <trkpt lat="47.60023" lon="-3.38478">
        <ele>-0.34</ele>
        <time>2016-04-30T16:31:06Z</time>
      </trkpt>
      <trkpt lat="47.60032" lon="-3.38478">
        <ele>-0.34</ele>
        <time>2016-04-30T16:31:11Z</time>
      </trkpt>
      <trkpt lat="47.60051" lon="-3.38477">
        <ele>-1.3</ele>
        <time>2016-04-30T16:31:23Z</time>
      </trkpt>
      <trkpt lat="47.60058" lon="-3.38475">
        <ele>-0.82</ele>
        <time>2016-04-30T16:31:27Z</time>
      </trkpt>
      <trkpt lat="47.60061" lon="-3.38474">
        <ele>-1.3</ele>
        <time>2016-04-30T16:31:29Z</time>
      </trkpt>
      <trkpt lat="47.60068" lon="-3.38473">
        <ele>-0.34</ele>
        <time>2016-04-30T16:31:33Z</time>
      </trkpt>
      <trkpt lat="47.60093" lon="-3.38461">
        <ele>-0.34</ele>
        <time>2016-04-30T16:31:46Z</time>
      </trkpt>
      <trkpt lat="47.60129" lon="-3.38449">
        <ele>0.14</ele>
        <time>2016-04-30T16:32:01Z</time>
      </trkpt>
      <trkpt lat="47.60153" lon="-3.38441">
        <ele>0.14</ele>
        <time>2016-04-30T16:32:12Z</time>
      </trkpt>
      <trkpt lat="47.60182" lon="-3.38434">
        <ele>0.14</ele>
        <time>2016-04-30T16:32:25Z</time>
      </trkpt>
      <trkpt lat="47.60203" lon="-3.38433">
        <ele>-0.82</ele>
        <time>2016-04-30T16:32:37Z</time>
      </trkpt>
      <trkpt lat="47.60228" lon="-3.38428">
        <ele>-0.34</ele>
        <time>2016-04-30T16:32:49Z</time>
      </trkpt>
      <trkpt lat="47.60236" lon="-3.38426">
        <ele>-0.34</ele>
        <time>2016-04-30T16:32:52Z</time>
      </trkpt>
      <trkpt lat="47.6027" lon="-3.38422">
        <ele>-0.34</ele>
        <time>2016-04-30T16:33:07Z</time>
      </trkpt>
      <trkpt lat="47.60292" lon="-3.38419">
        <ele>-0.34</ele>
        <time>2016-04-30T16:33:16Z</time>
      </trkpt>
      <trkpt lat="47.60327" lon="-3.38403">
        <ele>0.14</ele>
        <time>2016-04-30T16:33:30Z</time>
      </trkpt>
      <trkpt lat="47.60355" lon="-3.3838">
        <ele>0.14</ele>
        <time>2016-04-30T16:33:42Z</time>
      </trkpt>
      <trkpt lat="47.60392" lon="-3.38359">
        <ele>-0.82</ele>
        <time>2016-04-30T16:33:57Z</time>
      </trkpt>
      <trkpt lat="47.60423" lon="-3.3833">
        <ele>0.14</ele>
        <time>2016-04-30T16:34:12Z</time>
      </trkpt>
      <trkpt lat="47.60451" lon="-3.38305">
        <ele>0.62</ele>
        <time>2016-04-30T16:34:25Z</time>
      </trkpt>
      <trkpt lat="47.60484" lon="-3.38287">
        <ele>0.62</ele>
        <time>2016-04-30T16:34:39Z</time>
      </trkpt>
      <trkpt lat="47.60512" lon="-3.38274">
        <ele>0.14</ele>
        <time>2016-04-30T16:34:51Z</time>
      </trkpt>
      <trkpt lat="47.60541" lon="-3.38268">
        <ele>-0.34</ele>
        <time>2016-04-30T16:35:04Z</time>
      </trkpt>
      <trkpt lat="47.60567" lon="-3.38255">
        <ele>0.62</ele>
        <time>2016-04-30T16:35:17Z</time>
      </trkpt>
      <trkpt lat="47.60598" lon="-3.3824">
        <ele>0.14</ele>
        <time>2016-04-30T16:35:30Z</time>
      </trkpt>
      <trkpt lat="47.60634" lon="-3.38225">
        <ele>-0.34</ele>
        <time>2016-04-30T16:35:45Z</time>
      </trkpt>
      <trkpt lat="47.6067" lon="-3.38215">
        <ele>0.14</ele>
        <time>2016-04-30T16:36:02Z</time>
      </trkpt>
      <trkpt lat="47.60672" lon="-3.38215">
        <ele>0.62</ele>
        <time>2016-04-30T16:36:03Z</time>
      </trkpt>
      <trkpt lat="47.60711" lon="-3.38208">
        <ele>0.62</ele>
        <time>2016-04-30T16:36:21Z</time>
      </trkpt>
      <trkpt lat="47.60737" lon="-3.38202">
        <ele>1.1</ele>
        <time>2016-04-30T16:36:33Z</time>
      </trkpt>
      <trkpt lat="47.60766" lon="-3.38196">
        <ele>0.62</ele>
        <time>2016-04-30T16:36:46Z</time>
      </trkpt>
      <trkpt lat="47.60785" lon="-3.38193">
        <ele>0.14</ele>
        <time>2016-04-30T16:36:55Z</time>
      </trkpt>
      <trkpt lat="47.60808" lon="-3.38191">
        <ele>0.14</ele>
        <time>2016-04-30T16:37:07Z</time>
      </trkpt>
      <trkpt lat="47.60811" lon="-3.38191">
        <ele>0.14</ele>
        <time>2016-04-30T16:37:09Z</time>
      </trkpt>
      <trkpt lat="47.60834" lon="-3.38182">
        <ele>0.14</ele>
        <time>2016-04-30T16:37:21Z</time>
      </trkpt>
      <trkpt lat="47.60864" lon="-3.38176">
        <ele>0.14</ele>
        <time>2016-04-30T16:37:36Z</time>
      </trkpt>
      <trkpt lat="47.60891" lon="-3.38169">
        <ele>0.62</ele>
        <time>2016-04-30T16:37:50Z</time>
      </trkpt>
      <trkpt lat="47.60917" lon="-3.38166">
        <ele>0.62</ele>
        <time>2016-04-30T16:38:03Z</time>
      </trkpt>
      <trkpt lat="47.60939" lon="-3.38164">
        <ele>0.62</ele>
        <time>2016-04-30T16:38:16Z</time>
      </trkpt>
      <trkpt lat="47.60951" lon="-3.38165">
        <ele>0.14</ele>
        <time>2016-04-30T16:38:24Z</time>
      </trkpt>
      <trkpt lat="47.60976" lon="-3.38156">
        <ele>0.62</ele>
        <time>2016-04-30T16:38:40Z</time>
      </trkpt>
      <trkpt lat="47.61004" lon="-3.38147">
        <ele>0.62</ele>
        <time>2016-04-30T16:38:53Z</time>
      </trkpt>
      <trkpt lat="47.61037" lon="-3.38136">
        <ele>0.14</ele>
        <time>2016-04-30T16:39:08Z</time>
      </trkpt>
      <trkpt lat="47.61069" lon="-3.38131">
        <ele>0.62</ele>
        <time>2016-04-30T16:39:25Z</time>
      </trkpt>
      <trkpt lat="47.611" lon="-3.38123">
        <ele>0.62</ele>
        <time>2016-04-30T16:39:41Z</time>
      </trkpt>
      <trkpt lat="47.61133" lon="-3.38114">
        <ele>0.62</ele>
        <time>2016-04-30T16:39:56Z</time>
      </trkpt>
      <trkpt lat="47.6116" lon="-3.38109">
        <ele>0.14</ele>
        <time>2016-04-30T16:40:10Z</time>
      </trkpt>
      <trkpt lat="47.61192" lon="-3.38097">
        <ele>0.62</ele>
        <time>2016-04-30T16:40:24Z</time>
      </trkpt>
      <trkpt lat="47.61224" lon="-3.38092">
        <ele>0.14</ele>
        <time>2016-04-30T16:40:40Z</time>
      </trkpt>
      <trkpt lat="47.61253" lon="-3.38086">
        <ele>0.14</ele>
        <time>2016-04-30T16:40:55Z</time>
      </trkpt>
      <trkpt lat="47.61283" lon="-3.38081">
        <ele>0.14</ele>
        <time>2016-04-30T16:41:11Z</time>
      </trkpt>
      <trkpt lat="47.61309" lon="-3.3808">
        <ele>0.14</ele>
        <time>2016-04-30T16:41:27Z</time>
      </trkpt>
      <trkpt lat="47.61339" lon="-3.3807">
        <ele>0.62</ele>
        <time>2016-04-30T16:41:41Z</time>
      </trkpt>
      <trkpt lat="47.61367" lon="-3.3807">
        <ele>0.14</ele>
        <time>2016-04-30T16:41:54Z</time>
      </trkpt>
      <trkpt lat="47.61395" lon="-3.38064">
        <ele>-0.82</ele>
        <time>2016-04-30T16:42:08Z</time>
      </trkpt>
      <trkpt lat="47.6143" lon="-3.38056">
        <ele>-1.79</ele>
        <time>2016-04-30T16:42:23Z</time>
      </trkpt>
      <trkpt lat="47.6147" lon="-3.38046">
        <ele>-1.79</ele>
        <time>2016-04-30T16:42:41Z</time>
      </trkpt>
      <trkpt lat="47.61504" lon="-3.38036">
        <ele>-1.79</ele>
        <time>2016-04-30T16:42:57Z</time>
      </trkpt>
      <trkpt lat="47.61538" lon="-3.38025">
        <ele>-1.79</ele>
        <time>2016-04-30T16:43:12Z</time>
      </trkpt>
      <trkpt lat="47.61575" lon="-3.38016">
        <ele>-1.3</ele>
        <time>2016-04-30T16:43:28Z</time>
      </trkpt>
      <trkpt lat="47.61605" lon="-3.38009">
        <ele>-2.27</ele>
        <time>2016-04-30T16:43:42Z</time>
      </trkpt>
      <trkpt lat="47.61653" lon="-3.38001">
        <ele>-1.79</ele>
        <time>2016-04-30T16:44:03Z</time>
      </trkpt>
      <trkpt lat="47.61692" lon="-3.37993">
        <ele>-2.27</ele>
        <time>2016-04-30T16:44:21Z</time>
      </trkpt>
      <trkpt lat="47.61732" lon="-3.37983">
        <ele>-2.27</ele>
        <time>2016-04-30T16:44:40Z</time>
      </trkpt>
      <trkpt lat="47.61767" lon="-3.37977">
        <ele>-3.23</ele>
        <time>2016-04-30T16:44:58Z</time>
      </trkpt>
      <trkpt lat="47.61796" lon="-3.37972">
        <ele>-4.19</ele>
        <time>2016-04-30T16:45:13Z</time>
      </trkpt>
      <trkpt lat="47.61833" lon="-3.37963">
        <ele>-4.67</ele>
        <time>2016-04-30T16:45:31Z</time>
      </trkpt>
      <trkpt lat="47.61868" lon="-3.37958">
        <ele>-2.27</ele>
        <time>2016-04-30T16:45:48Z</time>
      </trkpt>
      <trkpt lat="47.619" lon="-3.3795">
        <ele>-1.79</ele>
        <time>2016-04-30T16:46:03Z</time>
      </trkpt>
      <trkpt lat="47.61933" lon="-3.37945">
        <ele>-2.27</ele>
        <time>2016-04-30T16:46:18Z</time>
      </trkpt>
      <trkpt lat="47.61966" lon="-3.37938">
        <ele>-2.75</ele>
        <time>2016-04-30T16:46:32Z</time>
      </trkpt>
      <trkpt lat="47.62002" lon="-3.37926">
        <ele>-3.23</ele>
        <time>2016-04-30T16:46:47Z</time>
      </trkpt>
      <trkpt lat="47.62037" lon="-3.37916">
        <ele>-2.75</ele>
        <time>2016-04-30T16:47:04Z</time>
      </trkpt>
      <trkpt lat="47.62069" lon="-3.37895">
        <ele>-2.27</ele>
        <time>2016-04-30T16:47:21Z</time>
      </trkpt>
      <trkpt lat="47.62106" lon="-3.37861">
        <ele>-2.27</ele>
        <time>2016-04-30T16:47:39Z</time>
      </trkpt>
      <trkpt lat="47.6214" lon="-3.37813">
        <ele>-1.3</ele>
        <time>2016-04-30T16:47:57Z</time>
      </trkpt>
      <trkpt lat="47.62168" lon="-3.37771">
        <ele>-1.79</ele>
        <time>2016-04-30T16:48:13Z</time>
      </trkpt>
      <trkpt lat="47.62192" lon="-3.37736">
        <ele>-1.79</ele>
        <time>2016-04-30T16:48:27Z</time>
      </trkpt>
      <trkpt lat="47.6222" lon="-3.37708">
        <ele>-0.34</ele>
        <time>2016-04-30T16:48:43Z</time>
      </trkpt>
      <trkpt lat="47.62253" lon="-3.37671">
        <ele>1.1</ele>
        <time>2016-04-30T16:49:01Z</time>
      </trkpt>
      <trkpt lat="47.62279" lon="-3.37648">
        <ele>1.1</ele>
        <time>2016-04-30T16:49:14Z</time>
      </trkpt>
      <trkpt lat="47.62302" lon="-3.37627">
        <ele>1.58</ele>
        <time>2016-04-30T16:49:27Z</time>
      </trkpt>
      <trkpt lat="47.62327" lon="-3.37604">
        <ele>1.1</ele>
        <time>2016-04-30T16:49:40Z</time>
      </trkpt>
      <trkpt lat="47.62359" lon="-3.37568">
        <ele>3.02</ele>
        <time>2016-04-30T16:49:57Z</time>
      </trkpt>
      <trkpt lat="47.62387" lon="-3.37547">
        <ele>3.02</ele>
        <time>2016-04-30T16:50:10Z</time>
      </trkpt>
      <trkpt lat="47.62423" lon="-3.37518">
        <ele>1.58</ele>
        <time>2016-04-30T16:50:27Z</time>
      </trkpt>
      <trkpt lat="47.62455" lon="-3.37501">
        <ele>0.62</ele>
        <time>2016-04-30T16:50:42Z</time>
      </trkpt>
      <trkpt lat="47.62487" lon="-3.3748">
        <ele>0.62</ele>
        <time>2016-04-30T16:50:57Z</time>
      </trkpt>
      <trkpt lat="47.6252" lon="-3.37458">
        <ele>0.14</ele>
        <time>2016-04-30T16:51:12Z</time>
      </trkpt>
      <trkpt lat="47.62557" lon="-3.37432">
        <ele>0.14</ele>
        <time>2016-04-30T16:51:29Z</time>
      </trkpt>
      <trkpt lat="47.62598" lon="-3.37399">
        <ele>0.14</ele>
        <time>2016-04-30T16:51:47Z</time>
      </trkpt>
      <trkpt lat="47.62623" lon="-3.37391">
        <ele>0.62</ele>
        <time>2016-04-30T16:51:59Z</time>
      </trkpt>
      <trkpt lat="47.62625" lon="-3.37391">
        <ele>0.62</ele>
        <time>2016-04-30T16:52:00Z</time>
      </trkpt>
      <trkpt lat="47.62657" lon="-3.37359">
        <ele>1.1</ele>
        <time>2016-04-30T16:52:15Z</time>
      </trkpt>
      <trkpt lat="47.62688" lon="-3.37336">
        <ele>0.14</ele>
        <time>2016-04-30T16:52:28Z</time>
      </trkpt>
      <trkpt lat="47.62729" lon="-3.37308">
        <ele>0.14</ele>
        <time>2016-04-30T16:52:45Z</time>
      </trkpt>
      <trkpt lat="47.62766" lon="-3.37286">
        <ele>0.14</ele>
        <time>2016-04-30T16:53:00Z</time>
      </trkpt>
      <trkpt lat="47.62807" lon="-3.37262">
        <ele>-0.34</ele>
        <time>2016-04-30T16:53:17Z</time>
      </trkpt>
      <trkpt lat="47.62846" lon="-3.37238">
        <ele>-0.82</ele>
        <time>2016-04-30T16:53:33Z</time>
      </trkpt>
      <trkpt lat="47.6288" lon="-3.37217">
        <ele>0.14</ele>
        <time>2016-04-30T16:53:47Z</time>
      </trkpt>
      <trkpt lat="47.62918" lon="-3.37184">
        <ele>-0.34</ele>
        <time>2016-04-30T16:54:03Z</time>
      </trkpt>
      <trkpt lat="47.6295" lon="-3.37158">
        <ele>-0.34</ele>
        <time>2016-04-30T16:54:17Z</time>
      </trkpt>
      <trkpt lat="47.62982" lon="-3.3713">
        <ele>-0.34</ele>
        <time>2016-04-30T16:54:33Z</time>
      </trkpt>
      <trkpt lat="47.63009" lon="-3.37097">
        <ele>0.14</ele>
        <time>2016-04-30T16:54:48Z</time>
      </trkpt>
      <trkpt lat="47.63037" lon="-3.37055">
        <ele>0.14</ele>
        <time>2016-04-30T16:55:04Z</time>
      </trkpt>
      <trkpt lat="47.63055" lon="-3.37014">
        <ele>0.62</ele>
        <time>2016-04-30T16:55:16Z</time>
      </trkpt>
      <trkpt lat="47.63085" lon="-3.36983">
        <ele>0.14</ele>
        <time>2016-04-30T16:55:31Z</time>
      </trkpt>
      <trkpt lat="47.63114" lon="-3.36959">
        <ele>0.62</ele>
        <time>2016-04-30T16:55:47Z</time>
      </trkpt>
      <trkpt lat="47.63127" lon="-3.36948">
        <ele>0.14</ele>
        <time>2016-04-30T16:55:55Z</time>
      </trkpt>
      <trkpt lat="47.6316" lon="-3.36918">
        <ele>-0.34</ele>
        <time>2016-04-30T16:56:13Z</time>
      </trkpt>
      <trkpt lat="47.63188" lon="-3.36897">
        <ele>0.14</ele>
        <time>2016-04-30T16:56:28Z</time>
      </trkpt>
      <trkpt lat="47.63218" lon="-3.36878">
        <ele>-0.82</ele>
        <time>2016-04-30T16:56:43Z</time>
      </trkpt>
      <trkpt lat="47.63239" lon="-3.36862">
        <ele>-0.34</ele>
        <time>2016-04-30T16:56:58Z</time>
      </trkpt>
      <trkpt lat="47.63264" lon="-3.36838">
        <ele>-0.82</ele>
        <time>2016-04-30T16:57:12Z</time>
      </trkpt>
      <trkpt lat="47.63291" lon="-3.36807">
        <ele>-0.34</ele>
        <time>2016-04-30T16:57:27Z</time>
      </trkpt>
      <trkpt lat="47.63321" lon="-3.36775">
        <ele>0.62</ele>
        <time>2016-04-30T16:57:42Z</time>
      </trkpt>
      <trkpt lat="47.63349" lon="-3.36736">
        <ele>0.62</ele>
        <time>2016-04-30T16:57:57Z</time>
      </trkpt>
      <trkpt lat="47.63376" lon="-3.36712">
        <ele>1.1</ele>
        <time>2016-04-30T16:58:10Z</time>
      </trkpt>
      <trkpt lat="47.63404" lon="-3.36689">
        <ele>0.14</ele>
        <time>2016-04-30T16:58:24Z</time>
      </trkpt>
      <trkpt lat="47.63434" lon="-3.36666">
        <ele>0.62</ele>
        <time>2016-04-30T16:58:39Z</time>
      </trkpt>
      <trkpt lat="47.63461" lon="-3.36646">
        <ele>0.14</ele>
        <time>2016-04-30T16:58:53Z</time>
      </trkpt>
      <trkpt lat="47.63492" lon="-3.36628">
        <ele>0.14</ele>
        <time>2016-04-30T16:59:09Z</time>
      </trkpt>
      <trkpt lat="47.6351" lon="-3.36619">
        <ele>-0.34</ele>
        <time>2016-04-30T16:59:21Z</time>
      </trkpt>
      <trkpt lat="47.6354" lon="-3.366">
        <ele>1.1</ele>
        <time>2016-04-30T16:59:37Z</time>
      </trkpt>
      <trkpt lat="47.63571" lon="-3.36581">
        <ele>2.06</ele>
        <time>2016-04-30T16:59:54Z</time>
      </trkpt>
      <trkpt lat="47.63596" lon="-3.36569">
        <ele>1.58</ele>
        <time>2016-04-30T17:00:06Z</time>
      </trkpt>
      <trkpt lat="47.63635" lon="-3.36554">
        <ele>1.1</ele>
        <time>2016-04-30T17:00:24Z</time>
      </trkpt>
      <trkpt lat="47.63669" lon="-3.36543">
        <ele>1.58</ele>
        <time>2016-04-30T17:00:39Z</time>
      </trkpt>
      <trkpt lat="47.63701" lon="-3.3653">
        <ele>1.58</ele>
        <time>2016-04-30T17:00:54Z</time>
      </trkpt>
      <trkpt lat="47.63727" lon="-3.3652">
        <ele>1.1</ele>
        <time>2016-04-30T17:01:06Z</time>
      </trkpt>
      <trkpt lat="47.63755" lon="-3.36511">
        <ele>1.1</ele>
        <time>2016-04-30T17:01:19Z</time>
      </trkpt>
      <trkpt lat="47.63784" lon="-3.36493">
        <ele>1.1</ele>
        <time>2016-04-30T17:01:33Z</time>
      </trkpt>
      <trkpt lat="47.6382" lon="-3.36473">
        <ele>1.1</ele>
        <time>2016-04-30T17:01:50Z</time>
      </trkpt>
      <trkpt lat="47.63855" lon="-3.36458">
        <ele>1.58</ele>
        <time>2016-04-30T17:02:05Z</time>
      </trkpt>
      <trkpt lat="47.63885" lon="-3.3644">
        <ele>1.58</ele>
        <time>2016-04-30T17:02:18Z</time>
      </trkpt>
      <trkpt lat="47.63918" lon="-3.36421">
        <ele>1.1</ele>
        <time>2016-04-30T17:02:32Z</time>
      </trkpt>
      <trkpt lat="47.63949" lon="-3.36395">
        <ele>2.06</ele>
        <time>2016-04-30T17:02:46Z</time>
      </trkpt>
      <trkpt lat="47.63975" lon="-3.36368">
        <ele>2.06</ele>
        <time>2016-04-30T17:02:58Z</time>
      </trkpt>
      <trkpt lat="47.64008" lon="-3.36335">
        <ele>2.54</ele>
        <time>2016-04-30T17:03:14Z</time>
      </trkpt>
      <trkpt lat="47.64027" lon="-3.36335">
        <ele>2.54</ele>
        <time>2016-04-30T17:03:23Z</time>
      </trkpt>
      <trkpt lat="47.64036" lon="-3.3633">
        <ele>2.54</ele>
        <time>2016-04-30T17:03:27Z</time>
      </trkpt>
      <trkpt lat="47.64074" lon="-3.36314">
        <ele>1.58</ele>
        <time>2016-04-30T17:03:42Z</time>
      </trkpt>
      <trkpt lat="47.64089" lon="-3.36309">
        <ele>1.58</ele>
        <time>2016-04-30T17:03:48Z</time>
      </trkpt>
      <trkpt lat="47.6412" lon="-3.36286">
        <ele>2.06</ele>
        <time>2016-04-30T17:04:01Z</time>
      </trkpt>
      <trkpt lat="47.64142" lon="-3.36274">
        <ele>2.06</ele>
        <time>2016-04-30T17:04:10Z</time>
      </trkpt>
      <trkpt lat="47.64171" lon="-3.3627">
        <ele>0.62</ele>
        <time>2016-04-30T17:04:22Z</time>
      </trkpt>
      <trkpt lat="47.64204" lon="-3.3626">
        <ele>-0.82</ele>
        <time>2016-04-30T17:04:36Z</time>
      </trkpt>
      <trkpt lat="47.6424" lon="-3.36252">
        <ele>-0.82</ele>
        <time>2016-04-30T17:04:51Z</time>
      </trkpt>
      <trkpt lat="47.64277" lon="-3.36246">
        <ele>-0.34</ele>
        <time>2016-04-30T17:05:07Z</time>
      </trkpt>
      <trkpt lat="47.64307" lon="-3.36242">
        <ele>0.14</ele>
        <time>2016-04-30T17:05:21Z</time>
      </trkpt>
      <trkpt lat="47.64331" lon="-3.36238">
        <ele>0.62</ele>
        <time>2016-04-30T17:05:33Z</time>
      </trkpt>
      <trkpt lat="47.64363" lon="-3.36231">
        <ele>1.1</ele>
        <time>2016-04-30T17:05:47Z</time>
      </trkpt>
      <trkpt lat="47.64395" lon="-3.3622">
        <ele>1.58</ele>
        <time>2016-04-30T17:06:01Z</time>
      </trkpt>
      <trkpt lat="47.64431" lon="-3.36206">
        <ele>1.58</ele>
        <time>2016-04-30T17:06:16Z</time>
      </trkpt>
      <trkpt lat="47.64471" lon="-3.36191">
        <ele>1.58</ele>
        <time>2016-04-30T17:06:33Z</time>
      </trkpt>
      <trkpt lat="47.64511" lon="-3.3618">
        <ele>0.62</ele>
        <time>2016-04-30T17:06:50Z</time>
      </trkpt>
      <trkpt lat="47.64547" lon="-3.36167">
        <ele>-1.3</ele>
        <time>2016-04-30T17:07:05Z</time>
      </trkpt>
      <trkpt lat="47.6458" lon="-3.36149">
        <ele>-1.3</ele>
        <time>2016-04-30T17:07:19Z</time>
      </trkpt>
      <trkpt lat="47.64606" lon="-3.36138">
        <ele>-0.34</ele>
        <time>2016-04-30T17:07:30Z</time>
      </trkpt>
      <trkpt lat="47.64638" lon="-3.3612">
        <ele>1.1</ele>
        <time>2016-04-30T17:07:44Z</time>
      </trkpt>
      <trkpt lat="47.64665" lon="-3.36102">
        <ele>2.54</ele>
        <time>2016-04-30T17:07:56Z</time>
      </trkpt>
      <trkpt lat="47.64695" lon="-3.36084">
        <ele>2.06</ele>
        <time>2016-04-30T17:08:09Z</time>
      </trkpt>
      <trkpt lat="47.64716" lon="-3.36055">
        <ele>2.06</ele>
        <time>2016-04-30T17:08:20Z</time>
      </trkpt>
      <trkpt lat="47.64729" lon="-3.36008">
        <ele>0.62</ele>
        <time>2016-04-30T17:08:35Z</time>
      </trkpt>
      <trkpt lat="47.6475" lon="-3.35971">
        <ele>0.62</ele>
        <time>2016-04-30T17:08:51Z</time>
      </trkpt>
      <trkpt lat="47.64757" lon="-3.35982">
        <ele>-0.34</ele>
        <time>2016-04-30T17:09:01Z</time>
      </trkpt>
      <trkpt lat="47.64755" lon="-3.35986">
        <ele>-0.34</ele>
        <time>2016-04-30T17:09:05Z</time>
      </trkpt>
      <trkpt lat="47.64752" lon="-3.35992">
        <ele>-0.34</ele>
        <time>2016-04-30T17:09:09Z</time>
      </trkpt>
      <trkpt lat="47.64743" lon="-3.36034">
        <ele>-0.82</ele>
        <time>2016-04-30T17:09:24Z</time>
      </trkpt>
      <trkpt lat="47.64742" lon="-3.36078">
        <ele>-0.82</ele>
        <time>2016-04-30T17:09:37Z</time>
      </trkpt>
      <trkpt lat="47.64742" lon="-3.36087">
        <ele>-0.82</ele>
        <time>2016-04-30T17:09:40Z</time>
      </trkpt>
      <trkpt lat="47.64743" lon="-3.36117">
        <ele>-1.79</ele>
        <time>2016-04-30T17:09:52Z</time>
      </trkpt>
      <trkpt lat="47.64743" lon="-3.36151">
        <ele>-1.3</ele>
        <time>2016-04-30T17:10:06Z</time>
      </trkpt>
      <trkpt lat="47.64741" lon="-3.36189">
        <ele>-1.3</ele>
        <time>2016-04-30T17:10:19Z</time>
      </trkpt>
      <trkpt lat="47.64734" lon="-3.36236">
        <ele>-0.34</ele>
        <time>2016-04-30T17:10:33Z</time>
      </trkpt>
      <trkpt lat="47.64728" lon="-3.36281">
        <ele>-0.82</ele>
        <time>2016-04-30T17:10:46Z</time>
      </trkpt>
      <trkpt lat="47.64727" lon="-3.36325">
        <ele>-1.3</ele>
        <time>2016-04-30T17:10:59Z</time>
      </trkpt>
      <trkpt lat="47.64724" lon="-3.36369">
        <ele>-1.79</ele>
        <time>2016-04-30T17:11:12Z</time>
      </trkpt>
      <trkpt lat="47.6472" lon="-3.36411">
        <ele>-1.79</ele>
        <time>2016-04-30T17:11:25Z</time>
      </trkpt>
      <trkpt lat="47.64718" lon="-3.3645">
        <ele>-0.82</ele>
        <time>2016-04-30T17:11:36Z</time>
      </trkpt>
      <trkpt lat="47.64716" lon="-3.36504">
        <ele>-1.79</ele>
        <time>2016-04-30T17:11:50Z</time>
      </trkpt>
      <trkpt lat="47.6471" lon="-3.3655">
        <ele>-1.3</ele>
        <time>2016-04-30T17:12:02Z</time>
      </trkpt>
      <trkpt lat="47.6471" lon="-3.36605">
        <ele>-2.75</ele>
        <time>2016-04-30T17:12:17Z</time>
      </trkpt>
      <trkpt lat="47.64713" lon="-3.36651">
        <ele>-1.79</ele>
        <time>2016-04-30T17:12:30Z</time>
      </trkpt>
      <trkpt lat="47.64713" lon="-3.36682">
        <ele>-2.27</ele>
        <time>2016-04-30T17:12:41Z</time>
      </trkpt>
      <trkpt lat="47.64709" lon="-3.3672">
        <ele>-2.75</ele>
        <time>2016-04-30T17:12:56Z</time>
      </trkpt>
      <trkpt lat="47.64711" lon="-3.36753">
        <ele>-2.75</ele>
        <time>2016-04-30T17:13:09Z</time>
      </trkpt>
      <trkpt lat="47.64728" lon="-3.36802">
        <ele>-3.71</ele>
        <time>2016-04-30T17:13:26Z</time>
      </trkpt>
      <trkpt lat="47.64746" lon="-3.36837">
        <ele>-4.19</ele>
        <time>2016-04-30T17:13:41Z</time>
      </trkpt>
      <trkpt lat="47.64765" lon="-3.36872">
        <ele>-3.23</ele>
        <time>2016-04-30T17:13:55Z</time>
      </trkpt>
      <trkpt lat="47.64767" lon="-3.36882">
        <ele>-2.75</ele>
        <time>2016-04-30T17:13:58Z</time>
      </trkpt>
      <trkpt lat="47.64771" lon="-3.36883">
        <ele>-4.19</ele>
        <time>2016-04-30T17:14:02Z</time>
      </trkpt>
      <trkpt lat="47.64775" lon="-3.36855">
        <ele>-4.19</ele>
        <time>2016-04-30T17:14:16Z</time>
      </trkpt>
      <trkpt lat="47.64781" lon="-3.36842">
        <ele>-3.23</ele>
        <time>2016-04-30T17:14:30Z</time>
      </trkpt>
      <trkpt lat="47.64781" lon="-3.36842">
        <ele>-3.23</ele>
        <time>2016-04-30T17:14:40Z</time>
      </trkpt>
      <trkpt lat="47.64775" lon="-3.36831">
        <ele>-3.23</ele>
        <time>2016-04-30T17:14:55Z</time>
      </trkpt>
      <trkpt lat="47.6477" lon="-3.36831">
        <ele>-3.23</ele>
        <time>2016-04-30T17:14:59Z</time>
      </trkpt>
      <trkpt lat="47.64766" lon="-3.36834">
        <ele>-2.75</ele>
        <time>2016-04-30T17:15:02Z</time>
      </trkpt>
      <trkpt lat="47.6476" lon="-3.3685">
        <ele>-1.3</ele>
        <time>2016-04-30T17:15:13Z</time>
      </trkpt>
      <trkpt lat="47.64742" lon="-3.36888">
        <ele>-3.23</ele>
        <time>2016-04-30T17:15:27Z</time>
      </trkpt>
      <trkpt lat="47.64738" lon="-3.36929">
        <ele>-1.79</ele>
        <time>2016-04-30T17:15:42Z</time>
      </trkpt>
      <trkpt lat="47.64729" lon="-3.36967">
        <ele>-1.3</ele>
        <time>2016-04-30T17:15:54Z</time>
      </trkpt>
      <trkpt lat="47.64715" lon="-3.3701">
        <ele>0.14</ele>
        <time>2016-04-30T17:16:08Z</time>
      </trkpt>
      <trkpt lat="47.64704" lon="-3.37046">
        <ele>0.14</ele>
        <time>2016-04-30T17:16:21Z</time>
      </trkpt>
      <trkpt lat="47.64695" lon="-3.37082">
        <ele>0.14</ele>
        <time>2016-04-30T17:16:35Z</time>
      </trkpt>
      <trkpt lat="47.64683" lon="-3.37127">
        <ele>-0.82</ele>
        <time>2016-04-30T17:16:50Z</time>
      </trkpt>
      <trkpt lat="47.6467" lon="-3.37162">
        <ele>-1.3</ele>
        <time>2016-04-30T17:17:01Z</time>
      </trkpt>
      <trkpt lat="47.64668" lon="-3.3717">
        <ele>-1.3</ele>
        <time>2016-04-30T17:17:03Z</time>
      </trkpt>
      <trkpt lat="47.64677" lon="-3.37172">
        <ele>-1.3</ele>
        <time>2016-04-30T17:17:13Z</time>
      </trkpt>
      <trkpt lat="47.647" lon="-3.37166">
        <ele>-1.79</ele>
        <time>2016-04-30T17:17:25Z</time>
      </trkpt>
      <trkpt lat="47.64716" lon="-3.37163">
        <ele>-1.79</ele>
        <time>2016-04-30T17:17:36Z</time>
      </trkpt>
      <trkpt lat="47.64719" lon="-3.37162">
        <ele>-2.27</ele>
        <time>2016-04-30T17:17:38Z</time>
      </trkpt>
      <trkpt lat="47.64746" lon="-3.37149">
        <ele>-1.79</ele>
        <time>2016-04-30T17:17:53Z</time>
      </trkpt>
      <trkpt lat="47.64753" lon="-3.37148">
        <ele>-1.3</ele>
        <time>2016-04-30T17:17:58Z</time>
      </trkpt>
      <trkpt lat="47.64778" lon="-3.37134">
        <ele>-1.3</ele>
        <time>2016-04-30T17:18:12Z</time>
      </trkpt>
      <trkpt lat="47.64807" lon="-3.37111">
        <ele>-1.79</ele>
        <time>2016-04-30T17:18:26Z</time>
      </trkpt>
      <trkpt lat="47.6483" lon="-3.37099">
        <ele>-2.27</ele>
        <time>2016-04-30T17:18:37Z</time>
      </trkpt>
      <trkpt lat="47.64854" lon="-3.37087">
        <ele>-2.27</ele>
        <time>2016-04-30T17:18:50Z</time>
      </trkpt>
      <trkpt lat="47.64883" lon="-3.37068">
        <ele>-1.79</ele>
        <time>2016-04-30T17:19:05Z</time>
      </trkpt>
      <trkpt lat="47.64911" lon="-3.37055">
        <ele>-2.27</ele>
        <time>2016-04-30T17:19:19Z</time>
      </trkpt>
      <trkpt lat="47.64917" lon="-3.37054">
        <ele>-1.79</ele>
        <time>2016-04-30T17:19:22Z</time>
      </trkpt>
      <trkpt lat="47.6493" lon="-3.3705">
        <ele>-2.27</ele>
        <time>2016-04-30T17:19:31Z</time>
      </trkpt>
      <trkpt lat="47.64956" lon="-3.37034">
        <ele>-2.75</ele>
        <time>2016-04-30T17:19:47Z</time>
      </trkpt>
      <trkpt lat="47.64962" lon="-3.3703">
        <ele>-2.75</ele>
        <time>2016-04-30T17:19:50Z</time>
      </trkpt>
      <trkpt lat="47.64993" lon="-3.37014">
        <ele>-3.71</ele>
        <time>2016-04-30T17:20:05Z</time>
      </trkpt>
      <trkpt lat="47.65022" lon="-3.37003">
        <ele>-3.23</ele>
        <time>2016-04-30T17:20:19Z</time>
      </trkpt>
      <trkpt lat="47.65049" lon="-3.36991">
        <ele>-3.23</ele>
        <time>2016-04-30T17:20:31Z</time>
      </trkpt>
      <trkpt lat="47.65072" lon="-3.36988">
        <ele>-3.23</ele>
        <time>2016-04-30T17:20:43Z</time>
      </trkpt>
      <trkpt lat="47.65101" lon="-3.36984">
        <ele>-3.71</ele>
        <time>2016-04-30T17:20:58Z</time>
      </trkpt>
      <trkpt lat="47.65105" lon="-3.36986">
        <ele>-2.75</ele>
        <time>2016-04-30T17:21:01Z</time>
      </trkpt>
      <trkpt lat="47.65125" lon="-3.36981">
        <ele>-3.23</ele>
        <time>2016-04-30T17:21:14Z</time>
      </trkpt>
      <trkpt lat="47.65135" lon="-3.36979">
        <ele>-2.75</ele>
        <time>2016-04-30T17:21:22Z</time>
      </trkpt>
      <trkpt lat="47.65139" lon="-3.36978">
        <ele>-2.75</ele>
        <time>2016-04-30T17:21:25Z</time>
      </trkpt>
      <trkpt lat="47.65147" lon="-3.36971">
        <ele>-3.23</ele>
        <time>2016-04-30T17:21:31Z</time>
      </trkpt>
      <trkpt lat="47.65175" lon="-3.36948">
        <ele>-4.19</ele>
        <time>2016-04-30T17:21:45Z</time>
      </trkpt>
      <trkpt lat="47.65202" lon="-3.36922">
        <ele>-3.23</ele>
        <time>2016-04-30T17:21:59Z</time>
      </trkpt>
      <trkpt lat="47.65206" lon="-3.3692">
        <ele>-2.27</ele>
        <time>2016-04-30T17:22:01Z</time>
      </trkpt>
      <trkpt lat="47.65216" lon="-3.36913">
        <ele>-3.23</ele>
        <time>2016-04-30T17:22:07Z</time>
      </trkpt>
      <trkpt lat="47.65244" lon="-3.36891">
        <ele>-3.71</ele>
        <time>2016-04-30T17:22:22Z</time>
      </trkpt>
      <trkpt lat="47.65248" lon="-3.36888">
        <ele>-3.23</ele>
        <time>2016-04-30T17:22:24Z</time>
      </trkpt>
      <trkpt lat="47.65256" lon="-3.36884">
        <ele>-3.71</ele>
        <time>2016-04-30T17:22:29Z</time>
      </trkpt>
      <trkpt lat="47.65279" lon="-3.36863">
        <ele>-1.79</ele>
        <time>2016-04-30T17:22:42Z</time>
      </trkpt>
      <trkpt lat="47.65303" lon="-3.36841">
        <ele>-0.82</ele>
        <time>2016-04-30T17:22:55Z</time>
      </trkpt>
      <trkpt lat="47.6533" lon="-3.36817">
        <ele>-1.3</ele>
        <time>2016-04-30T17:23:10Z</time>
      </trkpt>
      <trkpt lat="47.65359" lon="-3.36793">
        <ele>-2.27</ele>
        <time>2016-04-30T17:23:25Z</time>
      </trkpt>
      <trkpt lat="47.65388" lon="-3.36768">
        <ele>-0.82</ele>
        <time>2016-04-30T17:23:40Z</time>
      </trkpt>
      <trkpt lat="47.65417" lon="-3.36746">
        <ele>-0.34</ele>
        <time>2016-04-30T17:23:55Z</time>
      </trkpt>
      <trkpt lat="47.65447" lon="-3.36729">
        <ele>0.62</ele>
        <time>2016-04-30T17:24:10Z</time>
      </trkpt>
      <trkpt lat="47.65473" lon="-3.36704">
        <ele>1.1</ele>
        <time>2016-04-30T17:24:24Z</time>
      </trkpt>
      <trkpt lat="47.65495" lon="-3.3669">
        <ele>0.62</ele>
        <time>2016-04-30T17:24:35Z</time>
      </trkpt>
      <trkpt lat="47.65502" lon="-3.36688">
        <ele>0.62</ele>
        <time>2016-04-30T17:24:39Z</time>
      </trkpt>
      <trkpt lat="47.65532" lon="-3.36666">
        <ele>0.14</ele>
        <time>2016-04-30T17:24:55Z</time>
      </trkpt>
      <trkpt lat="47.65556" lon="-3.36646">
        <ele>0.62</ele>
        <time>2016-04-30T17:25:08Z</time>
      </trkpt>
      <trkpt lat="47.65574" lon="-3.3663">
        <ele>1.1</ele>
        <time>2016-04-30T17:25:18Z</time>
      </trkpt>
      <trkpt lat="47.65582" lon="-3.3662">
        <ele>1.58</ele>
        <time>2016-04-30T17:25:23Z</time>
      </trkpt>
      <trkpt lat="47.6561" lon="-3.36597">
        <ele>1.1</ele>
        <time>2016-04-30T17:25:38Z</time>
      </trkpt>
      <trkpt lat="47.65638" lon="-3.36568">
        <ele>-0.34</ele>
        <time>2016-04-30T17:25:52Z</time>
      </trkpt>
      <trkpt lat="47.65659" lon="-3.3655">
        <ele>-2.27</ele>
        <time>2016-04-30T17:26:03Z</time>
      </trkpt>
      <trkpt lat="47.65684" lon="-3.36529">
        <ele>-0.82</ele>
        <time>2016-04-30T17:26:16Z</time>
      </trkpt>
      <trkpt lat="47.65703" lon="-3.36524">
        <ele>-0.82</ele>
        <time>2016-04-30T17:26:28Z</time>
      </trkpt>
      <trkpt lat="47.6572" lon="-3.36515">
        <ele>-1.3</ele>
        <time>2016-04-30T17:26:41Z</time>
      </trkpt>
      <trkpt lat="47.6572" lon="-3.36522">
        <ele>-1.79</ele>
        <time>2016-04-30T17:26:52Z</time>
      </trkpt>
      <trkpt lat="47.65719" lon="-3.36531">
        <ele>-3.23</ele>
        <time>2016-04-30T17:26:57Z</time>
      </trkpt>
      <trkpt lat="47.65714" lon="-3.36571">
        <ele>-4.67</ele>
        <time>2016-04-30T17:27:12Z</time>
      </trkpt>
      <trkpt lat="47.65712" lon="-3.36618">
        <ele>-5.15</ele>
        <time>2016-04-30T17:27:24Z</time>
      </trkpt>
      <trkpt lat="47.65712" lon="-3.36663">
        <ele>-3.71</ele>
        <time>2016-04-30T17:27:35Z</time>
      </trkpt>
      <trkpt lat="47.6571" lon="-3.36713">
        <ele>-2.27</ele>
        <time>2016-04-30T17:27:47Z</time>
      </trkpt>
      <trkpt lat="47.65707" lon="-3.36733">
        <ele>-1.3</ele>
        <time>2016-04-30T17:27:52Z</time>
      </trkpt>
      <trkpt lat="47.65705" lon="-3.3675">
        <ele>-1.3</ele>
        <time>2016-04-30T17:27:56Z</time>
      </trkpt>
      <trkpt lat="47.657" lon="-3.36793">
        <ele>-2.27</ele>
        <time>2016-04-30T17:28:07Z</time>
      </trkpt>
      <trkpt lat="47.65701" lon="-3.36845">
        <ele>-2.75</ele>
        <time>2016-04-30T17:28:20Z</time>
      </trkpt>
      <trkpt lat="47.657" lon="-3.36892">
        <ele>-4.67</ele>
        <time>2016-04-30T17:28:32Z</time>
      </trkpt>
      <trkpt lat="47.65697" lon="-3.36952">
        <ele>-4.19</ele>
        <time>2016-04-30T17:28:47Z</time>
      </trkpt>
      <trkpt lat="47.65695" lon="-3.37005">
        <ele>-3.71</ele>
        <time>2016-04-30T17:29:00Z</time>
      </trkpt>
      <trkpt lat="47.65691" lon="-3.37058">
        <ele>-2.75</ele>
        <time>2016-04-30T17:29:13Z</time>
      </trkpt>
      <trkpt lat="47.65688" lon="-3.37117">
        <ele>-3.23</ele>
        <time>2016-04-30T17:29:27Z</time>
      </trkpt>
      <trkpt lat="47.65682" lon="-3.37164">
        <ele>-2.75</ele>
        <time>2016-04-30T17:29:39Z</time>
      </trkpt>
      <trkpt lat="47.65687" lon="-3.37222">
        <ele>-2.27</ele>
        <time>2016-04-30T17:29:54Z</time>
      </trkpt>
      <trkpt lat="47.65688" lon="-3.37273">
        <ele>-1.79</ele>
        <time>2016-04-30T17:30:07Z</time>
      </trkpt>
      <trkpt lat="47.65686" lon="-3.37335">
        <ele>-1.79</ele>
        <time>2016-04-30T17:30:22Z</time>
      </trkpt>
      <trkpt lat="47.65683" lon="-3.37393">
        <ele>-2.75</ele>
        <time>2016-04-30T17:30:36Z</time>
      </trkpt>
      <trkpt lat="47.65679" lon="-3.37451">
        <ele>-3.71</ele>
        <time>2016-04-30T17:30:50Z</time>
      </trkpt>
      <trkpt lat="47.65678" lon="-3.37497">
        <ele>-3.23</ele>
        <time>2016-04-30T17:31:02Z</time>
      </trkpt>
      <trkpt lat="47.65675" lon="-3.37551">
        <ele>-3.23</ele>
        <time>2016-04-30T17:31:16Z</time>
      </trkpt>
      <trkpt lat="47.65672" lon="-3.376">
        <ele>-3.23</ele>
        <time>2016-04-30T17:31:29Z</time>
      </trkpt>
      <trkpt lat="47.65666" lon="-3.37664">
        <ele>-3.23</ele>
        <time>2016-04-30T17:31:45Z</time>
      </trkpt>
      <trkpt lat="47.65665" lon="-3.37719">
        <ele>-2.75</ele>
        <time>2016-04-30T17:31:59Z</time>
      </trkpt>
      <trkpt lat="47.6566" lon="-3.37772">
        <ele>-2.75</ele>
        <time>2016-04-30T17:32:13Z</time>
      </trkpt>
      <trkpt lat="47.65653" lon="-3.37827">
        <ele>-2.27</ele>
        <time>2016-04-30T17:32:28Z</time>
      </trkpt>
      <trkpt lat="47.65645" lon="-3.37875">
        <ele>-1.79</ele>
        <time>2016-04-30T17:32:41Z</time>
      </trkpt>
      <trkpt lat="47.65642" lon="-3.3793">
        <ele>-2.75</ele>
        <time>2016-04-30T17:32:57Z</time>
      </trkpt>
      <trkpt lat="47.65638" lon="-3.37971">
        <ele>-4.19</ele>
        <time>2016-04-30T17:33:08Z</time>
      </trkpt>
      <trkpt lat="47.65635" lon="-3.38011">
        <ele>-5.15</ele>
        <time>2016-04-30T17:33:20Z</time>
      </trkpt>
      <trkpt lat="47.65633" lon="-3.38065">
        <ele>-5.63</ele>
        <time>2016-04-30T17:33:35Z</time>
      </trkpt>
      <trkpt lat="47.65625" lon="-3.38127">
        <ele>-4.19</ele>
        <time>2016-04-30T17:33:52Z</time>
      </trkpt>
      <trkpt lat="47.65619" lon="-3.38169">
        <ele>-3.23</ele>
        <time>2016-04-30T17:34:06Z</time>
      </trkpt>
      <trkpt lat="47.65609" lon="-3.38202">
        <ele>-2.27</ele>
        <time>2016-04-30T17:34:19Z</time>
      </trkpt>
      <trkpt lat="47.65598" lon="-3.38236">
        <ele>-2.75</ele>
        <time>2016-04-30T17:34:31Z</time>
      </trkpt>
      <trkpt lat="47.6559" lon="-3.38276">
        <ele>-3.71</ele>
        <time>2016-04-30T17:34:44Z</time>
      </trkpt>
      <trkpt lat="47.65589" lon="-3.38291">
        <ele>-2.75</ele>
        <time>2016-04-30T17:34:52Z</time>
      </trkpt>
      <trkpt lat="47.65581" lon="-3.38322">
        <ele>-2.27</ele>
        <time>2016-04-30T17:35:07Z</time>
      </trkpt>
      <trkpt lat="47.65576" lon="-3.38359">
        <ele>-2.27</ele>
        <time>2016-04-30T17:35:23Z</time>
      </trkpt>
      <trkpt lat="47.65567" lon="-3.38385">
        <ele>-1.79</ele>
        <time>2016-04-30T17:35:37Z</time>
      </trkpt>
      <trkpt lat="47.65555" lon="-3.38421">
        <ele>-1.3</ele>
        <time>2016-04-30T17:35:53Z</time>
      </trkpt>
      <trkpt lat="47.65545" lon="-3.38456">
        <ele>-0.82</ele>
        <time>2016-04-30T17:36:07Z</time>
      </trkpt>
      <trkpt lat="47.65541" lon="-3.38468">
        <ele>-0.34</ele>
        <time>2016-04-30T17:36:12Z</time>
      </trkpt>
      <trkpt lat="47.65537" lon="-3.38504">
        <ele>-1.79</ele>
        <time>2016-04-30T17:36:25Z</time>
      </trkpt>
      <trkpt lat="47.65529" lon="-3.38549">
        <ele>-1.79</ele>
        <time>2016-04-30T17:36:40Z</time>
      </trkpt>
      <trkpt lat="47.65523" lon="-3.38582">
        <ele>-1.79</ele>
        <time>2016-04-30T17:36:51Z</time>
      </trkpt>
      <trkpt lat="47.65518" lon="-3.38617">
        <ele>-2.27</ele>
        <time>2016-04-30T17:37:02Z</time>
      </trkpt>
      <trkpt lat="47.65518" lon="-3.38655">
        <ele>-2.27</ele>
        <time>2016-04-30T17:37:15Z</time>
      </trkpt>
      <trkpt lat="47.65516" lon="-3.38694">
        <ele>-1.3</ele>
        <time>2016-04-30T17:37:28Z</time>
      </trkpt>
      <trkpt lat="47.65513" lon="-3.38744">
        <ele>-0.34</ele>
        <time>2016-04-30T17:37:43Z</time>
      </trkpt>
      <trkpt lat="47.6551" lon="-3.38785">
        <ele>-0.82</ele>
        <time>2016-04-30T17:37:55Z</time>
      </trkpt>
      <trkpt lat="47.6551" lon="-3.38836">
        <ele>-1.3</ele>
        <time>2016-04-30T17:38:10Z</time>
      </trkpt>
      <trkpt lat="47.65509" lon="-3.38886">
        <ele>-0.82</ele>
        <time>2016-04-30T17:38:24Z</time>
      </trkpt>
      <trkpt lat="47.65505" lon="-3.38913">
        <ele>-0.34</ele>
        <time>2016-04-30T17:38:32Z</time>
      </trkpt>
      <trkpt lat="47.65499" lon="-3.38965">
        <ele>0.14</ele>
        <time>2016-04-30T17:38:46Z</time>
      </trkpt>
      <trkpt lat="47.65497" lon="-3.39015">
        <ele>-0.82</ele>
        <time>2016-04-30T17:39:00Z</time>
      </trkpt>
      <trkpt lat="47.65496" lon="-3.39055">
        <ele>-0.82</ele>
        <time>2016-04-30T17:39:12Z</time>
      </trkpt>
      <trkpt lat="47.65492" lon="-3.39099">
        <ele>-0.82</ele>
        <time>2016-04-30T17:39:25Z</time>
      </trkpt>
      <trkpt lat="47.65489" lon="-3.39145">
        <ele>-1.3</ele>
        <time>2016-04-30T17:39:38Z</time>
      </trkpt>
      <trkpt lat="47.65488" lon="-3.39194">
        <ele>-1.79</ele>
        <time>2016-04-30T17:39:52Z</time>
      </trkpt>
      <trkpt lat="47.65485" lon="-3.39242">
        <ele>-2.75</ele>
        <time>2016-04-30T17:40:06Z</time>
      </trkpt>
      <trkpt lat="47.65482" lon="-3.39296">
        <ele>-2.27</ele>
        <time>2016-04-30T17:40:21Z</time>
      </trkpt>
      <trkpt lat="47.65479" lon="-3.39348">
        <ele>-2.27</ele>
        <time>2016-04-30T17:40:36Z</time>
      </trkpt>
      <trkpt lat="47.65479" lon="-3.39392">
        <ele>-1.79</ele>
        <time>2016-04-30T17:40:49Z</time>
      </trkpt>
      <trkpt lat="47.65479" lon="-3.39434">
        <ele>-1.79</ele>
        <time>2016-04-30T17:41:03Z</time>
      </trkpt>
      <trkpt lat="47.65479" lon="-3.39479">
        <ele>-0.82</ele>
        <time>2016-04-30T17:41:16Z</time>
      </trkpt>
      <trkpt lat="47.6548" lon="-3.39525">
        <ele>-0.82</ele>
        <time>2016-04-30T17:41:29Z</time>
      </trkpt>
      <trkpt lat="47.6548" lon="-3.39567">
        <ele>-1.3</ele>
        <time>2016-04-30T17:41:42Z</time>
      </trkpt>
      <trkpt lat="47.6548" lon="-3.39602">
        <ele>-1.3</ele>
        <time>2016-04-30T17:41:54Z</time>
      </trkpt>
      <trkpt lat="47.65472" lon="-3.3966">
        <ele>-1.3</ele>
        <time>2016-04-30T17:42:11Z</time>
      </trkpt>
      <trkpt lat="47.65466" lon="-3.39711">
        <ele>-0.34</ele>
        <time>2016-04-30T17:42:25Z</time>
      </trkpt>
      <trkpt lat="47.65466" lon="-3.39763">
        <ele>-1.3</ele>
        <time>2016-04-30T17:42:39Z</time>
      </trkpt>
      <trkpt lat="47.65468" lon="-3.39812">
        <ele>-2.27</ele>
        <time>2016-04-30T17:42:53Z</time>
      </trkpt>
      <trkpt lat="47.65473" lon="-3.39867">
        <ele>-2.27</ele>
        <time>2016-04-30T17:43:09Z</time>
      </trkpt>
      <trkpt lat="47.65478" lon="-3.39917">
        <ele>-1.3</ele>
        <time>2016-04-30T17:43:24Z</time>
      </trkpt>
      <trkpt lat="47.6548" lon="-3.3996">
        <ele>-1.3</ele>
        <time>2016-04-30T17:43:36Z</time>
      </trkpt>
      <trkpt lat="47.65482" lon="-3.40003">
        <ele>-0.82</ele>
        <time>2016-04-30T17:43:48Z</time>
      </trkpt>
      <trkpt lat="47.6548" lon="-3.40055">
        <ele>-1.3</ele>
        <time>2016-04-30T17:44:02Z</time>
      </trkpt>
      <trkpt lat="47.65477" lon="-3.40102">
        <ele>-0.82</ele>
        <time>2016-04-30T17:44:15Z</time>
      </trkpt>
      <trkpt lat="47.65475" lon="-3.40152">
        <ele>-0.82</ele>
        <time>2016-04-30T17:44:29Z</time>
      </trkpt>
      <trkpt lat="47.65477" lon="-3.40196">
        <ele>0.14</ele>
        <time>2016-04-30T17:44:41Z</time>
      </trkpt>
      <trkpt lat="47.65471" lon="-3.40246">
        <ele>-0.34</ele>
        <time>2016-04-30T17:44:55Z</time>
      </trkpt>
      <trkpt lat="47.65469" lon="-3.40286">
        <ele>-1.79</ele>
        <time>2016-04-30T17:45:07Z</time>
      </trkpt>
      <trkpt lat="47.65469" lon="-3.40332">
        <ele>-1.3</ele>
        <time>2016-04-30T17:45:22Z</time>
      </trkpt>
      <trkpt lat="47.65466" lon="-3.40382">
        <ele>-1.3</ele>
        <time>2016-04-30T17:45:39Z</time>
      </trkpt>
      <trkpt lat="47.65464" lon="-3.40423">
        <ele>-0.82</ele>
        <time>2016-04-30T17:45:52Z</time>
      </trkpt>
      <trkpt lat="47.65461" lon="-3.4047">
        <ele>-0.82</ele>
        <time>2016-04-30T17:46:07Z</time>
      </trkpt>
      <trkpt lat="47.65458" lon="-3.40505">
        <ele>-1.3</ele>
        <time>2016-04-30T17:46:18Z</time>
      </trkpt>
      <trkpt lat="47.65457" lon="-3.40541">
        <ele>-1.3</ele>
        <time>2016-04-30T17:46:30Z</time>
      </trkpt>
      <trkpt lat="47.65456" lon="-3.4057">
        <ele>-1.3</ele>
        <time>2016-04-30T17:46:41Z</time>
      </trkpt>
      <trkpt lat="47.65455" lon="-3.40605">
        <ele>-0.34</ele>
        <time>2016-04-30T17:46:53Z</time>
      </trkpt>
      <trkpt lat="47.65453" lon="-3.40657">
        <ele>-0.82</ele>
        <time>2016-04-30T17:47:08Z</time>
      </trkpt>
      <trkpt lat="47.6545" lon="-3.4069">
        <ele>-1.79</ele>
        <time>2016-04-30T17:47:19Z</time>
      </trkpt>
      <trkpt lat="47.65447" lon="-3.40727">
        <ele>-1.3</ele>
        <time>2016-04-30T17:47:32Z</time>
      </trkpt>
      <trkpt lat="47.65434" lon="-3.40775">
        <ele>-0.34</ele>
        <time>2016-04-30T17:47:47Z</time>
      </trkpt>
      <trkpt lat="47.65435" lon="-3.40809">
        <ele>-0.82</ele>
        <time>2016-04-30T17:47:58Z</time>
      </trkpt>
      <trkpt lat="47.65439" lon="-3.40849">
        <ele>-0.82</ele>
        <time>2016-04-30T17:48:12Z</time>
      </trkpt>
      <trkpt lat="47.65441" lon="-3.40886">
        <ele>-0.82</ele>
        <time>2016-04-30T17:48:25Z</time>
      </trkpt>
      <trkpt lat="47.65441" lon="-3.40928">
        <ele>-1.3</ele>
        <time>2016-04-30T17:48:40Z</time>
      </trkpt>
      <trkpt lat="47.6544" lon="-3.40965">
        <ele>-1.79</ele>
        <time>2016-04-30T17:48:53Z</time>
      </trkpt>
      <trkpt lat="47.6544" lon="-3.40999">
        <ele>-1.79</ele>
        <time>2016-04-30T17:49:06Z</time>
      </trkpt>
      <trkpt lat="47.65438" lon="-3.41029">
        <ele>-1.79</ele>
        <time>2016-04-30T17:49:17Z</time>
      </trkpt>
      <trkpt lat="47.65439" lon="-3.41063">
        <ele>-2.75</ele>
        <time>2016-04-30T17:49:30Z</time>
      </trkpt>
      <trkpt lat="47.65439" lon="-3.41092">
        <ele>-2.75</ele>
        <time>2016-04-30T17:49:44Z</time>
      </trkpt>
      <trkpt lat="47.65435" lon="-3.41135">
        <ele>-1.79</ele>
        <time>2016-04-30T17:50:01Z</time>
      </trkpt>
      <trkpt lat="47.65429" lon="-3.41179">
        <ele>-2.27</ele>
        <time>2016-04-30T17:50:17Z</time>
      </trkpt>
      <trkpt lat="47.65426" lon="-3.41222">
        <ele>-2.27</ele>
        <time>2016-04-30T17:50:31Z</time>
      </trkpt>
      <trkpt lat="47.65425" lon="-3.41262">
        <ele>-1.79</ele>
        <time>2016-04-30T17:50:45Z</time>
      </trkpt>
      <trkpt lat="47.65422" lon="-3.41294">
        <ele>-0.82</ele>
        <time>2016-04-30T17:50:57Z</time>
      </trkpt>
      <trkpt lat="47.65417" lon="-3.41322">
        <ele>-0.82</ele>
        <time>2016-04-30T17:51:08Z</time>
      </trkpt>
      <trkpt lat="47.65414" lon="-3.41354">
        <ele>-1.79</ele>
        <time>2016-04-30T17:51:21Z</time>
      </trkpt>
      <trkpt lat="47.65412" lon="-3.41399">
        <ele>-1.79</ele>
        <time>2016-04-30T17:51:36Z</time>
      </trkpt>
      <trkpt lat="47.65408" lon="-3.41433">
        <ele>-2.27</ele>
        <time>2016-04-30T17:51:49Z</time>
      </trkpt>
      <trkpt lat="47.65405" lon="-3.41465">
        <ele>-2.27</ele>
        <time>2016-04-30T17:52:03Z</time>
      </trkpt>
      <trkpt lat="47.654" lon="-3.41497">
        <ele>-2.27</ele>
        <time>2016-04-30T17:52:18Z</time>
      </trkpt>
      <trkpt lat="47.65394" lon="-3.41538">
        <ele>-1.79</ele>
        <time>2016-04-30T17:52:34Z</time>
      </trkpt>
      <trkpt lat="47.65391" lon="-3.41569">
        <ele>-2.27</ele>
        <time>2016-04-30T17:52:47Z</time>
      </trkpt>
      <trkpt lat="47.65389" lon="-3.41591">
        <ele>-1.3</ele>
        <time>2016-04-30T17:52:59Z</time>
      </trkpt>
      <trkpt lat="47.65384" lon="-3.41624">
        <ele>-1.3</ele>
        <time>2016-04-30T17:53:14Z</time>
      </trkpt>
      <trkpt lat="47.65379" lon="-3.41658">
        <ele>-1.79</ele>
        <time>2016-04-30T17:53:28Z</time>
      </trkpt>
      <trkpt lat="47.65376" lon="-3.41678">
        <ele>-1.3</ele>
        <time>2016-04-30T17:53:37Z</time>
      </trkpt>
      <trkpt lat="47.65373" lon="-3.41714">
        <ele>-1.79</ele>
        <time>2016-04-30T17:53:53Z</time>
      </trkpt>
      <trkpt lat="47.65369" lon="-3.41745">
        <ele>-2.75</ele>
        <time>2016-04-30T17:54:09Z</time>
      </trkpt>
      <trkpt lat="47.65361" lon="-3.41786">
        <ele>-1.79</ele>
        <time>2016-04-30T17:54:26Z</time>
      </trkpt>
      <trkpt lat="47.65356" lon="-3.41818">
        <ele>-1.3</ele>
        <time>2016-04-30T17:54:37Z</time>
      </trkpt>
      <trkpt lat="47.65352" lon="-3.41858">
        <ele>-1.3</ele>
        <time>2016-04-30T17:54:51Z</time>
      </trkpt>
      <trkpt lat="47.65349" lon="-3.41892">
        <ele>-1.3</ele>
        <time>2016-04-30T17:55:03Z</time>
      </trkpt>
      <trkpt lat="47.65344" lon="-3.41935">
        <ele>-0.82</ele>
        <time>2016-04-30T17:55:17Z</time>
      </trkpt>
      <trkpt lat="47.65341" lon="-3.41983">
        <ele>-0.82</ele>
        <time>2016-04-30T17:55:33Z</time>
      </trkpt>
      <trkpt lat="47.65338" lon="-3.42024">
        <ele>-0.34</ele>
        <time>2016-04-30T17:55:48Z</time>
      </trkpt>
      <trkpt lat="47.65336" lon="-3.42058">
        <ele>-0.82</ele>
        <time>2016-04-30T17:56:00Z</time>
      </trkpt>
      <trkpt lat="47.65334" lon="-3.42104">
        <ele>-0.34</ele>
        <time>2016-04-30T17:56:15Z</time>
      </trkpt>
      <trkpt lat="47.6533" lon="-3.42151">
        <ele>-0.82</ele>
        <time>2016-04-30T17:56:29Z</time>
      </trkpt>
      <trkpt lat="47.65324" lon="-3.42202">
        <ele>-0.82</ele>
        <time>2016-04-30T17:56:44Z</time>
      </trkpt>
      <trkpt lat="47.65319" lon="-3.42246">
        <ele>-0.34</ele>
        <time>2016-04-30T17:56:57Z</time>
      </trkpt>
      <trkpt lat="47.65314" lon="-3.42301">
        <ele>0.62</ele>
        <time>2016-04-30T17:57:13Z</time>
      </trkpt>
      <trkpt lat="47.65308" lon="-3.42341">
        <ele>0.14</ele>
        <time>2016-04-30T17:57:26Z</time>
      </trkpt>
      <trkpt lat="47.65306" lon="-3.42388">
        <ele>0.14</ele>
        <time>2016-04-30T17:57:41Z</time>
      </trkpt>
      <trkpt lat="47.65299" lon="-3.42442">
        <ele>0.14</ele>
        <time>2016-04-30T17:57:58Z</time>
      </trkpt>
      <trkpt lat="47.65293" lon="-3.4249">
        <ele>1.1</ele>
        <time>2016-04-30T17:58:15Z</time>
      </trkpt>
      <trkpt lat="47.65289" lon="-3.42522">
        <ele>0.62</ele>
        <time>2016-04-30T17:58:27Z</time>
      </trkpt>
      <trkpt lat="47.65286" lon="-3.42557">
        <ele>0.14</ele>
        <time>2016-04-30T17:58:38Z</time>
      </trkpt>
      <trkpt lat="47.65285" lon="-3.42598">
        <ele>-0.82</ele>
        <time>2016-04-30T17:58:52Z</time>
      </trkpt>
      <trkpt lat="47.65282" lon="-3.42639">
        <ele>-0.82</ele>
        <time>2016-04-30T17:59:06Z</time>
      </trkpt>
      <trkpt lat="47.6528" lon="-3.42687">
        <ele>-0.34</ele>
        <time>2016-04-30T17:59:22Z</time>
      </trkpt>
      <trkpt lat="47.65278" lon="-3.4273">
        <ele>0.14</ele>
        <time>2016-04-30T17:59:37Z</time>
      </trkpt>
      <trkpt lat="47.65276" lon="-3.42757">
        <ele>0.62</ele>
        <time>2016-04-30T17:59:49Z</time>
      </trkpt>
      <trkpt lat="47.65274" lon="-3.42795">
        <ele>0.62</ele>
        <time>2016-04-30T18:00:03Z</time>
      </trkpt>
      <trkpt lat="47.65269" lon="-3.42838">
        <ele>0.62</ele>
        <time>2016-04-30T18:00:18Z</time>
      </trkpt>
      <trkpt lat="47.65263" lon="-3.42887">
        <ele>0.62</ele>
        <time>2016-04-30T18:00:36Z</time>
      </trkpt>
      <trkpt lat="47.65258" lon="-3.42923">
        <ele>1.1</ele>
        <time>2016-04-30T18:00:52Z</time>
      </trkpt>
      <trkpt lat="47.65253" lon="-3.42955">
        <ele>0.62</ele>
        <time>2016-04-30T18:01:06Z</time>
      </trkpt>
      <trkpt lat="47.65248" lon="-3.42975">
        <ele>0.62</ele>
        <time>2016-04-30T18:01:19Z</time>
      </trkpt>
      <trkpt lat="47.65241" lon="-3.42998">
        <ele>0.62</ele>
        <time>2016-04-30T18:01:32Z</time>
      </trkpt>
      <trkpt lat="47.65235" lon="-3.43029">
        <ele>1.58</ele>
        <time>2016-04-30T18:01:46Z</time>
      </trkpt>
      <trkpt lat="47.65229" lon="-3.43058">
        <ele>1.1</ele>
        <time>2016-04-30T18:01:59Z</time>
      </trkpt>
      <trkpt lat="47.65228" lon="-3.43064">
        <ele>1.1</ele>
        <time>2016-04-30T18:02:02Z</time>
      </trkpt>
      <trkpt lat="47.65219" lon="-3.43088">
        <ele>0.62</ele>
        <time>2016-04-30T18:02:15Z</time>
      </trkpt>
      <trkpt lat="47.65211" lon="-3.43117">
        <ele>1.1</ele>
        <time>2016-04-30T18:02:29Z</time>
      </trkpt>
      <trkpt lat="47.65203" lon="-3.43141">
        <ele>0.62</ele>
        <time>2016-04-30T18:02:40Z</time>
      </trkpt>
      <trkpt lat="47.65194" lon="-3.43169">
        <ele>1.1</ele>
        <time>2016-04-30T18:02:52Z</time>
      </trkpt>
      <trkpt lat="47.65179" lon="-3.43207">
        <ele>1.1</ele>
        <time>2016-04-30T18:03:06Z</time>
      </trkpt>
      <trkpt lat="47.65169" lon="-3.43232">
        <ele>0.62</ele>
        <time>2016-04-30T18:03:15Z</time>
      </trkpt>
      <trkpt lat="47.65156" lon="-3.43274">
        <ele>0.62</ele>
        <time>2016-04-30T18:03:29Z</time>
      </trkpt>
      <trkpt lat="47.65146" lon="-3.43307">
        <ele>0.14</ele>
        <time>2016-04-30T18:03:42Z</time>
      </trkpt>
      <trkpt lat="47.65133" lon="-3.4335">
        <ele>0.62</ele>
        <time>2016-04-30T18:03:57Z</time>
      </trkpt>
      <trkpt lat="47.65117" lon="-3.43387">
        <ele>0.62</ele>
        <time>2016-04-30T18:04:12Z</time>
      </trkpt>
      <trkpt lat="47.65101" lon="-3.43427">
        <ele>0.62</ele>
        <time>2016-04-30T18:04:27Z</time>
      </trkpt>
      <trkpt lat="47.65088" lon="-3.43458">
        <ele>0.62</ele>
        <time>2016-04-30T18:04:40Z</time>
      </trkpt>
      <trkpt lat="47.65085" lon="-3.43468">
        <ele>0.62</ele>
        <time>2016-04-30T18:04:45Z</time>
      </trkpt>
      <trkpt lat="47.65076" lon="-3.4349">
        <ele>0.62</ele>
        <time>2016-04-30T18:04:57Z</time>
      </trkpt>
      <trkpt lat="47.6507" lon="-3.43515">
        <ele>0.14</ele>
        <time>2016-04-30T18:05:10Z</time>
      </trkpt>
      <trkpt lat="47.6507" lon="-3.43516">
        <ele>0.14</ele>
        <time>2016-04-30T18:05:11Z</time>
      </trkpt>
      <trkpt lat="47.65066" lon="-3.43522">
        <ele>0.14</ele>
        <time>2016-04-30T18:05:16Z</time>
      </trkpt>
      <trkpt lat="47.65068" lon="-3.43526">
        <ele>-0.82</ele>
        <time>2016-04-30T18:05:26Z</time>
      </trkpt>
      <trkpt lat="47.65072" lon="-3.43517">
        <ele>-0.82</ele>
        <time>2016-04-30T18:05:31Z</time>
      </trkpt>
      <trkpt lat="47.6509" lon="-3.43484">
        <ele>-0.82</ele>
        <time>2016-04-30T18:05:46Z</time>
      </trkpt>
      <trkpt lat="47.65097" lon="-3.43478">
        <ele>-0.82</ele>
        <time>2016-04-30T18:05:52Z</time>
      </trkpt>
      <trkpt lat="47.65113" lon="-3.43456">
        <ele>-0.34</ele>
        <time>2016-04-30T18:06:05Z</time>
      </trkpt>
      <trkpt lat="47.65116" lon="-3.43455">
        <ele>-1.3</ele>
        <time>2016-04-30T18:06:08Z</time>
      </trkpt>
      <trkpt lat="47.65118" lon="-3.43455">
        <ele>-1.79</ele>
        <time>2016-04-30T18:06:10Z</time>
      </trkpt>
      <trkpt lat="47.65122" lon="-3.43453">
        <ele>-1.79</ele>
        <time>2016-04-30T18:06:15Z</time>
      </trkpt>
      <trkpt lat="47.65129" lon="-3.43458">
        <ele>-0.34</ele>
        <time>2016-04-30T18:06:24Z</time>
      </trkpt>
      <trkpt lat="47.65133" lon="-3.43467">
        <ele>-0.34</ele>
        <time>2016-04-30T18:06:39Z</time>
      </trkpt>
      <trkpt lat="47.65136" lon="-3.43468">
        <ele>-0.82</ele>
        <time>2016-04-30T18:06:43Z</time>
      </trkpt>
      <trkpt lat="47.65152" lon="-3.43471">
        <ele>-0.34</ele>
        <time>2016-04-30T18:06:58Z</time>
      </trkpt>
      <trkpt lat="47.65166" lon="-3.43487">
        <ele>0.14</ele>
        <time>2016-04-30T18:07:13Z</time>
      </trkpt>
      <trkpt lat="47.65172" lon="-3.43493">
        <ele>0.62</ele>
        <time>2016-04-30T18:07:19Z</time>
      </trkpt>
      <trkpt lat="47.6518" lon="-3.43514">
        <ele>0.14</ele>
        <time>2016-04-30T18:07:33Z</time>
      </trkpt>
      <trkpt lat="47.65181" lon="-3.43515">
        <ele>0.14</ele>
        <time>2016-04-30T18:07:34Z</time>
      </trkpt>
      <trkpt lat="47.65181" lon="-3.4352">
        <ele>0.14</ele>
        <time>2016-04-30T18:07:37Z</time>
      </trkpt>
      <trkpt lat="47.65185" lon="-3.43541">
        <ele>-1.3</ele>
        <time>2016-04-30T18:07:51Z</time>
      </trkpt>
      <trkpt lat="47.65181" lon="-3.43546">
        <ele>-1.79</ele>
        <time>2016-04-30T18:07:55Z</time>
      </trkpt>
      <trkpt lat="47.65162" lon="-3.43575">
        <ele>-1.79</ele>
        <time>2016-04-30T18:08:11Z</time>
      </trkpt>
      <trkpt lat="47.65149" lon="-3.43614">
        <ele>-1.3</ele>
        <time>2016-04-30T18:08:30Z</time>
      </trkpt>
      <trkpt lat="47.65142" lon="-3.43648">
        <ele>-0.82</ele>
        <time>2016-04-30T18:08:46Z</time>
      </trkpt>
      <trkpt lat="47.65133" lon="-3.43683">
        <ele>-0.34</ele>
        <time>2016-04-30T18:09:03Z</time>
      </trkpt>
      <trkpt lat="47.65117" lon="-3.43718">
        <ele>-0.34</ele>
        <time>2016-04-30T18:09:21Z</time>
      </trkpt>
      <trkpt lat="47.65102" lon="-3.43744">
        <ele>-0.34</ele>
        <time>2016-04-30T18:09:35Z</time>
      </trkpt>
      <trkpt lat="47.65092" lon="-3.43765">
        <ele>-0.34</ele>
        <time>2016-04-30T18:09:45Z</time>
      </trkpt>
      <trkpt lat="47.65087" lon="-3.43775">
        <ele>-0.82</ele>
        <time>2016-04-30T18:09:50Z</time>
      </trkpt>
      <trkpt lat="47.65067" lon="-3.43806">
        <ele>-0.34</ele>
        <time>2016-04-30T18:10:06Z</time>
      </trkpt>
      <trkpt lat="47.65054" lon="-3.43831">
        <ele>-1.3</ele>
        <time>2016-04-30T18:10:18Z</time>
      </trkpt>
      <trkpt lat="47.65033" lon="-3.43855">
        <ele>-0.82</ele>
        <time>2016-04-30T18:10:32Z</time>
      </trkpt>
      <trkpt lat="47.65024" lon="-3.43858">
        <ele>-0.34</ele>
        <time>2016-04-30T18:10:36Z</time>
      </trkpt>
      <trkpt lat="47.65008" lon="-3.4387">
        <ele>0.14</ele>
        <time>2016-04-30T18:10:45Z</time>
      </trkpt>
      <trkpt lat="47.64991" lon="-3.43885">
        <ele>0.62</ele>
        <time>2016-04-30T18:10:55Z</time>
      </trkpt>
      <trkpt lat="47.64982" lon="-3.43893">
        <ele>1.1</ele>
        <time>2016-04-30T18:11:00Z</time>
      </trkpt>
      <trkpt lat="47.64948" lon="-3.43917">
        <ele>1.58</ele>
        <time>2016-04-30T18:11:19Z</time>
      </trkpt>
      <trkpt lat="47.64921" lon="-3.43943">
        <ele>1.1</ele>
        <time>2016-04-30T18:11:36Z</time>
      </trkpt>
      <trkpt lat="47.649" lon="-3.43975">
        <ele>0.62</ele>
        <time>2016-04-30T18:11:52Z</time>
      </trkpt>
      <trkpt lat="47.64878" lon="-3.44001">
        <ele>0.62</ele>
        <time>2016-04-30T18:12:07Z</time>
      </trkpt>
      <trkpt lat="47.64857" lon="-3.44028">
        <ele>0.62</ele>
        <time>2016-04-30T18:12:22Z</time>
      </trkpt>
      <trkpt lat="47.64836" lon="-3.44045">
        <ele>0.62</ele>
        <time>2016-04-30T18:12:34Z</time>
      </trkpt>
      <trkpt lat="47.64808" lon="-3.44074">
        <ele>0.62</ele>
        <time>2016-04-30T18:12:51Z</time>
      </trkpt>
      <trkpt lat="47.6478" lon="-3.44107">
        <ele>1.1</ele>
        <time>2016-04-30T18:13:09Z</time>
      </trkpt>
      <trkpt lat="47.64753" lon="-3.44133">
        <ele>1.1</ele>
        <time>2016-04-30T18:13:26Z</time>
      </trkpt>
      <trkpt lat="47.64727" lon="-3.44161">
        <ele>-0.34</ele>
        <time>2016-04-30T18:13:42Z</time>
      </trkpt>
      <trkpt lat="47.64702" lon="-3.44186">
        <ele>-0.34</ele>
        <time>2016-04-30T18:13:57Z</time>
      </trkpt>
      <trkpt lat="47.64674" lon="-3.44214">
        <ele>-0.34</ele>
        <time>2016-04-30T18:14:14Z</time>
      </trkpt>
      <trkpt lat="47.64651" lon="-3.44245">
        <ele>0.14</ele>
        <time>2016-04-30T18:14:30Z</time>
      </trkpt>
      <trkpt lat="47.64629" lon="-3.44272">
        <ele>-0.34</ele>
        <time>2016-04-30T18:14:45Z</time>
      </trkpt>
      <trkpt lat="47.64604" lon="-3.44304">
        <ele>-0.34</ele>
        <time>2016-04-30T18:15:03Z</time>
      </trkpt>
      <trkpt lat="47.64582" lon="-3.4434">
        <ele>0.14</ele>
        <time>2016-04-30T18:15:20Z</time>
      </trkpt>
      <trkpt lat="47.64559" lon="-3.44385">
        <ele>0.62</ele>
        <time>2016-04-30T18:15:41Z</time>
      </trkpt>
      <trkpt lat="47.64543" lon="-3.44429">
        <ele>1.1</ele>
        <time>2016-04-30T18:15:59Z</time>
      </trkpt>
      <trkpt lat="47.64533" lon="-3.4446">
        <ele>1.1</ele>
        <time>2016-04-30T18:16:11Z</time>
      </trkpt>
      <trkpt lat="47.64528" lon="-3.445">
        <ele>1.58</ele>
        <time>2016-04-30T18:16:26Z</time>
      </trkpt>
      <trkpt lat="47.64521" lon="-3.44552">
        <ele>-0.82</ele>
        <time>2016-04-30T18:16:43Z</time>
      </trkpt>
      <trkpt lat="47.64514" lon="-3.44588">
        <ele>-1.3</ele>
        <time>2016-04-30T18:16:58Z</time>
      </trkpt>
      <trkpt lat="47.64507" lon="-3.44608">
        <ele>-1.3</ele>
        <time>2016-04-30T18:17:11Z</time>
      </trkpt>
      <trkpt lat="47.64502" lon="-3.44623">
        <ele>-1.79</ele>
        <time>2016-04-30T18:17:19Z</time>
      </trkpt>
      <trkpt lat="47.64485" lon="-3.44677">
        <ele>-2.27</ele>
        <time>2016-04-30T18:17:49Z</time>
      </trkpt>
      <trkpt lat="47.64471" lon="-3.44685">
        <ele>-2.75</ele>
        <time>2016-04-30T18:18:14Z</time>
      </trkpt>
      <trkpt lat="47.64467" lon="-3.44676">
        <ele>-2.75</ele>
        <time>2016-04-30T18:18:23Z</time>
      </trkpt>
      <trkpt lat="47.64456" lon="-3.4465">
        <ele>-2.75</ele>
        <time>2016-04-30T18:18:42Z</time>
      </trkpt>
      <trkpt lat="47.64443" lon="-3.44621">
        <ele>-0.82</ele>
        <time>2016-04-30T18:19:00Z</time>
      </trkpt>
      <trkpt lat="47.64438" lon="-3.44611">
        <ele>0.14</ele>
        <time>2016-04-30T18:19:07Z</time>
      </trkpt>
      <trkpt lat="47.64423" lon="-3.44594">
        <ele>-0.34</ele>
        <time>2016-04-30T18:19:25Z</time>
      </trkpt>
      <trkpt lat="47.64413" lon="-3.44576">
        <ele>-0.82</ele>
        <time>2016-04-30T18:19:38Z</time>
      </trkpt>
      <trkpt lat="47.64404" lon="-3.44562">
        <ele>-0.34</ele>
        <time>2016-04-30T18:19:55Z</time>
      </trkpt>
      <trkpt lat="47.64398" lon="-3.44553">
        <ele>-0.82</ele>
        <time>2016-04-30T18:20:10Z</time>
      </trkpt>
      <trkpt lat="47.64393" lon="-3.44552">
        <ele>-1.79</ele>
        <time>2016-04-30T18:20:23Z</time>
      </trkpt>
      <trkpt lat="47.64386" lon="-3.44553">
        <ele>-1.79</ele>
        <time>2016-04-30T18:20:39Z</time>
      </trkpt>
      <trkpt lat="47.64384" lon="-3.44557">
        <ele>-2.75</ele>
        <time>2016-04-30T18:20:59Z</time>
      </trkpt>
      <trkpt lat="47.64383" lon="-3.44562">
        <ele>-3.23</ele>
        <time>2016-04-30T18:21:14Z</time>
      </trkpt>
      <trkpt lat="47.64382" lon="-3.44567">
        <ele>-2.75</ele>
        <time>2016-04-30T18:21:28Z</time>
      </trkpt>
      <trkpt lat="47.64382" lon="-3.44569">
        <ele>-2.27</ele>
        <time>2016-04-30T18:21:43Z</time>
      </trkpt>
      <trkpt lat="47.64383" lon="-3.4457">
        <ele>-2.27</ele>
        <time>2016-04-30T18:21:55Z</time>
      </trkpt>
      <trkpt lat="47.64382" lon="-3.44571">
        <ele>-2.27</ele>
        <time>2016-04-30T18:22:17Z</time>
      </trkpt>
      <trkpt lat="47.64382" lon="-3.44572">
        <ele>-2.27</ele>
        <time>2016-04-30T18:22:28Z</time>
      </trkpt>
      <trkpt lat="47.64381" lon="-3.4457">
        <ele>-2.27</ele>
        <time>2016-04-30T18:22:47Z</time>
      </trkpt>
      <trkpt lat="47.64382" lon="-3.44572">
        <ele>-2.75</ele>
        <time>2016-04-30T18:23:00Z</time>
      </trkpt>
      <trkpt lat="47.64382" lon="-3.44572">
        <ele>-2.75</ele>
        <time>2016-04-30T18:23:13Z</time>
      </trkpt>
      <trkpt lat="47.64383" lon="-3.44572">
        <ele>-2.27</ele>
        <time>2016-04-30T18:23:24Z</time>
      </trkpt>
      <trkpt lat="47.64383" lon="-3.44573">
        <ele>-2.27</ele>
        <time>2016-04-30T18:23:38Z</time>
      </trkpt>
      <trkpt lat="47.64382" lon="-3.44572">
        <ele>-2.27</ele>
        <time>2016-04-30T18:23:51Z</time>
      </trkpt>
      <trkpt lat="47.64382" lon="-3.44571">
        <ele>-2.75</ele>
        <time>2016-04-30T18:24:04Z</time>
      </trkpt>
      <trkpt lat="47.64382" lon="-3.44571">
        <ele>-2.27</ele>
        <time>2016-04-30T18:24:23Z</time>
      </trkpt>
      <trkpt lat="47.64381" lon="-3.44571">
        <ele>-2.75</ele>
        <time>2016-04-30T18:24:40Z</time>
      </trkpt>
      <trkpt lat="47.6438" lon="-3.44571">
        <ele>-2.75</ele>
        <time>2016-04-30T18:24:53Z</time>
      </trkpt>
      <trkpt lat="47.6438" lon="-3.44573">
        <ele>-2.75</ele>
        <time>2016-04-30T18:25:07Z</time>
      </trkpt>
      <trkpt lat="47.6438" lon="-3.44574">
        <ele>-2.27</ele>
        <time>2016-04-30T18:25:25Z</time>
      </trkpt>
      <trkpt lat="47.6438" lon="-3.44572">
        <ele>-2.75</ele>
        <time>2016-04-30T18:25:42Z</time>
      </trkpt>
      <trkpt lat="47.64381" lon="-3.44572">
        <ele>-2.75</ele>
        <time>2016-04-30T18:25:57Z</time>
      </trkpt>
      <trkpt lat="47.64381" lon="-3.44572">
        <ele>-2.75</ele>
        <time>2016-04-30T18:26:17Z</time>
      </trkpt>
      <trkpt lat="47.64381" lon="-3.44572">
        <ele>-2.27</ele>
        <time>2016-04-30T18:26:32Z</time>
      </trkpt>
      <trkpt lat="47.64381" lon="-3.44572">
        <ele>-2.27</ele>
        <time>2016-04-30T18:26:47Z</time>
      </trkpt>
      <trkpt lat="47.64381" lon="-3.44571">
        <ele>-2.75</ele>
        <time>2016-04-30T18:27:08Z</time>
      </trkpt>
      <trkpt lat="47.64381" lon="-3.44571">
        <ele>-2.27</ele>
        <time>2016-04-30T18:27:31Z</time>
      </trkpt>
      <trkpt lat="47.64381" lon="-3.4457">
        <ele>-2.75</ele>
        <time>2016-04-30T18:27:52Z</time>
      </trkpt>
      <trkpt lat="47.64381" lon="-3.4457">
        <ele>-2.27</ele>
        <time>2016-04-30T18:28:04Z</time>
      </trkpt>
      <trkpt lat="47.64381" lon="-3.44574">
        <ele>0.62</ele>
        <time>2016-04-30T19:23:58Z</time>
      </trkpt>
      <trkpt lat="47.64383" lon="-3.44576">
        <ele>3.02</ele>
        <time>2016-04-30T19:24:15Z</time>
      </trkpt>
      <trkpt lat="47.6438" lon="-3.44573">
        <ele>2.54</ele>
        <time>2016-04-30T19:24:26Z</time>
      </trkpt>
      <trkpt lat="47.64381" lon="-3.44574">
        <ele>1.58</ele>
        <time>2016-04-30T19:24:42Z</time>
      </trkpt>
      <trkpt lat="47.64381" lon="-3.44579">
        <ele>2.06</ele>
        <time>2016-04-30T19:25:00Z</time>
      </trkpt>
    </trkseg>
  </trk>
</gpx>